<?xml version="1.0" encoding="UTF-8" standalone="no" ?>
<gpx xmlns="http://www.topografix.com/GPX/1/1" xmlns:xsi="http://www.w3.org/2001/XMLSchema-instance" xsi:schemaLocation="http://www.topografix.com/GPX/1/1 http://www.topografix.com/GPX/1/1/gpx.xsd" version="1.1" creator="VisuGPX - https://www.visugpx.com">
  <metadata>
    <name> Sommet Vignemale</name>
    <desc><![CDATA[Trace AlpineQuest 23/05/2017 06:43:26]]></desc>
  </metadata>
  <trk>
    <name><![CDATA[vignemale]]></name>
    <trkseg>
      <trkpt lat="42.75696" lon="-0.09277">
        <ele>1809.0849609375</ele>
        <time>2017-05-23T04:43:26Z</time>
      </trkpt>
      <trkpt lat="42.75693" lon="-0.09286">
        <ele>1811.5229492188</ele>
        <time>2017-05-23T04:45:16Z</time>
      </trkpt>
      <trkpt lat="42.75694" lon="-0.09296">
        <ele>1811.5229492188</ele>
        <time>2017-05-23T04:45:24Z</time>
      </trkpt>
      <trkpt lat="42.75696" lon="-0.09307">
        <ele>1811.5460205078</ele>
        <time>2017-05-23T04:45:34Z</time>
      </trkpt>
      <trkpt lat="42.75699" lon="-0.09317">
        <ele>1811.5830078125</ele>
        <time>2017-05-23T04:45:42Z</time>
      </trkpt>
      <trkpt lat="42.75701" lon="-0.09326">
        <ele>1811.6369628906</ele>
        <time>2017-05-23T04:45:48Z</time>
      </trkpt>
      <trkpt lat="42.75705" lon="-0.09337">
        <ele>1811.7419433594</ele>
        <time>2017-05-23T04:45:56Z</time>
      </trkpt>
      <trkpt lat="42.75711" lon="-0.09344">
        <ele>1811.8609619141</ele>
        <time>2017-05-23T04:46:03Z</time>
      </trkpt>
      <trkpt lat="42.75716" lon="-0.09352">
        <ele>1812.1979980469</ele>
        <time>2017-05-23T04:46:16Z</time>
      </trkpt>
      <trkpt lat="42.75723" lon="-0.09353">
        <ele>1812.4899902344</ele>
        <time>2017-05-23T04:46:26Z</time>
      </trkpt>
      <trkpt lat="42.7573" lon="-0.0936">
        <ele>1812.7390136719</ele>
        <time>2017-05-23T04:46:34Z</time>
      </trkpt>
      <trkpt lat="42.75735" lon="-0.09367">
        <ele>1813.0329589844</ele>
        <time>2017-05-23T04:46:42Z</time>
      </trkpt>
      <trkpt lat="42.7574" lon="-0.09376">
        <ele>1813.3139648438</ele>
        <time>2017-05-23T04:46:49Z</time>
      </trkpt>
      <trkpt lat="42.75743" lon="-0.09385">
        <ele>1813.6829833984</ele>
        <time>2017-05-23T04:46:58Z</time>
      </trkpt>
      <trkpt lat="42.7574" lon="-0.09395">
        <ele>1813.9659423828</ele>
        <time>2017-05-23T04:47:05Z</time>
      </trkpt>
      <trkpt lat="42.75736" lon="-0.09403">
        <ele>1814.2650146484</ele>
        <time>2017-05-23T04:47:12Z</time>
      </trkpt>
      <trkpt lat="42.75734" lon="-0.09412">
        <ele>1814.5760498047</ele>
        <time>2017-05-23T04:47:20Z</time>
      </trkpt>
      <trkpt lat="42.75734" lon="-0.09422">
        <ele>1814.8129882812</ele>
        <time>2017-05-23T04:47:27Z</time>
      </trkpt>
      <trkpt lat="42.75734" lon="-0.09432">
        <ele>1815.0500488281</ele>
        <time>2017-05-23T04:47:34Z</time>
      </trkpt>
      <trkpt lat="42.75737" lon="-0.09441">
        <ele>1815.3580322266</ele>
        <time>2017-05-23T04:47:43Z</time>
      </trkpt>
      <trkpt lat="42.7574" lon="-0.09451">
        <ele>1815.5319824219</ele>
        <time>2017-05-23T04:47:48Z</time>
      </trkpt>
      <trkpt lat="42.75745" lon="-0.0946">
        <ele>1815.7409667969</ele>
        <time>2017-05-23T04:47:54Z</time>
      </trkpt>
      <trkpt lat="42.75748" lon="-0.09469">
        <ele>1816.5169677734</ele>
        <time>2017-05-23T04:48:31Z</time>
      </trkpt>
      <trkpt lat="42.75753" lon="-0.09477">
        <ele>1816.8409423828</ele>
        <time>2017-05-23T04:48:36Z</time>
      </trkpt>
      <trkpt lat="42.75758" lon="-0.09484">
        <ele>1817.2309570312</ele>
        <time>2017-05-23T04:48:42Z</time>
      </trkpt>
      <trkpt lat="42.75763" lon="-0.09492">
        <ele>1817.5660400391</ele>
        <time>2017-05-23T04:48:47Z</time>
      </trkpt>
      <trkpt lat="42.7577" lon="-0.09497">
        <ele>1817.9739990234</ele>
        <time>2017-05-23T04:48:53Z</time>
      </trkpt>
      <trkpt lat="42.75768" lon="-0.09506">
        <ele>1818.3559570312</ele>
        <time>2017-05-23T04:48:59Z</time>
      </trkpt>
      <trkpt lat="42.75771" lon="-0.09515">
        <ele>1818.9479980469</ele>
        <time>2017-05-23T04:49:11Z</time>
      </trkpt>
      <trkpt lat="42.7577" lon="-0.09525">
        <ele>1819.3160400391</ele>
        <time>2017-05-23T04:49:18Z</time>
      </trkpt>
      <trkpt lat="42.75772" lon="-0.09535">
        <ele>1819.7039794922</ele>
        <time>2017-05-23T04:49:26Z</time>
      </trkpt>
      <trkpt lat="42.75778" lon="-0.09542">
        <ele>1820.0469970703</ele>
        <time>2017-05-23T04:49:34Z</time>
      </trkpt>
      <trkpt lat="42.75785" lon="-0.09547">
        <ele>1820.2969970703</ele>
        <time>2017-05-23T04:49:40Z</time>
      </trkpt>
      <trkpt lat="42.75787" lon="-0.09557">
        <ele>1820.5720214844</ele>
        <time>2017-05-23T04:49:47Z</time>
      </trkpt>
      <trkpt lat="42.75791" lon="-0.09566">
        <ele>1820.8649902344</ele>
        <time>2017-05-23T04:49:55Z</time>
      </trkpt>
      <trkpt lat="42.75795" lon="-0.09575">
        <ele>1821.0520019531</ele>
        <time>2017-05-23T04:50:00Z</time>
      </trkpt>
      <trkpt lat="42.75799" lon="-0.09585">
        <ele>1821.3540039062</ele>
        <time>2017-05-23T04:50:08Z</time>
      </trkpt>
      <trkpt lat="42.75802" lon="-0.09595">
        <ele>1821.6199951172</ele>
        <time>2017-05-23T04:50:16Z</time>
      </trkpt>
      <trkpt lat="42.75804" lon="-0.09605">
        <ele>1821.7760009766</ele>
        <time>2017-05-23T04:50:21Z</time>
      </trkpt>
      <trkpt lat="42.75806" lon="-0.09616">
        <ele>1821.9270019531</ele>
        <time>2017-05-23T04:50:26Z</time>
      </trkpt>
      <trkpt lat="42.7581" lon="-0.09624">
        <ele>1822.1259765625</ele>
        <time>2017-05-23T04:50:33Z</time>
      </trkpt>
      <trkpt lat="42.75811" lon="-0.09634">
        <ele>1822.2719726562</ele>
        <time>2017-05-23T04:50:39Z</time>
      </trkpt>
      <trkpt lat="42.75813" lon="-0.09644">
        <ele>1822.3959960938</ele>
        <time>2017-05-23T04:50:45Z</time>
      </trkpt>
      <trkpt lat="42.75815" lon="-0.09654">
        <ele>1822.5050048828</ele>
        <time>2017-05-23T04:50:52Z</time>
      </trkpt>
      <trkpt lat="42.75818" lon="-0.09664">
        <ele>1822.5739746094</ele>
        <time>2017-05-23T04:50:58Z</time>
      </trkpt>
      <trkpt lat="42.7582" lon="-0.09674">
        <ele>1822.6330566406</ele>
        <time>2017-05-23T04:51:04Z</time>
      </trkpt>
      <trkpt lat="42.75822" lon="-0.09685">
        <ele>1822.6750488281</ele>
        <time>2017-05-23T04:51:10Z</time>
      </trkpt>
      <trkpt lat="42.75826" lon="-0.09693">
        <ele>1822.7010498047</ele>
        <time>2017-05-23T04:51:15Z</time>
      </trkpt>
      <trkpt lat="42.75828" lon="-0.09703">
        <ele>1822.7290039062</ele>
        <time>2017-05-23T04:51:21Z</time>
      </trkpt>
      <trkpt lat="42.75831" lon="-0.09713">
        <ele>1822.7580566406</ele>
        <time>2017-05-23T04:51:29Z</time>
      </trkpt>
      <trkpt lat="42.75833" lon="-0.09724">
        <ele>1822.7790527344</ele>
        <time>2017-05-23T04:51:35Z</time>
      </trkpt>
      <trkpt lat="42.75836" lon="-0.09733">
        <ele>1822.7879638672</ele>
        <time>2017-05-23T04:51:42Z</time>
      </trkpt>
      <trkpt lat="42.75845" lon="-0.09753">
        <ele>1822.7640380859</ele>
        <time>2017-05-23T04:51:51Z</time>
      </trkpt>
      <trkpt lat="42.75848" lon="-0.09763">
        <ele>1822.7569580078</ele>
        <time>2017-05-23T04:51:56Z</time>
      </trkpt>
      <trkpt lat="42.75853" lon="-0.09773">
        <ele>1822.7449951172</ele>
        <time>2017-05-23T04:52:05Z</time>
      </trkpt>
      <trkpt lat="42.75859" lon="-0.0978">
        <ele>1822.7290039062</ele>
        <time>2017-05-23T04:52:12Z</time>
      </trkpt>
      <trkpt lat="42.75862" lon="-0.09789">
        <ele>1822.7030029297</ele>
        <time>2017-05-23T04:52:21Z</time>
      </trkpt>
      <trkpt lat="42.75867" lon="-0.09799">
        <ele>1822.6789550781</ele>
        <time>2017-05-23T04:52:27Z</time>
      </trkpt>
      <trkpt lat="42.7587" lon="-0.0981">
        <ele>1822.6400146484</ele>
        <time>2017-05-23T04:52:34Z</time>
      </trkpt>
      <trkpt lat="42.75874" lon="-0.0982">
        <ele>1822.6080322266</ele>
        <time>2017-05-23T04:52:39Z</time>
      </trkpt>
      <trkpt lat="42.75878" lon="-0.0983">
        <ele>1822.5560302734</ele>
        <time>2017-05-23T04:52:47Z</time>
      </trkpt>
      <trkpt lat="42.75881" lon="-0.09839">
        <ele>1822.5109863281</ele>
        <time>2017-05-23T04:52:53Z</time>
      </trkpt>
      <trkpt lat="42.75884" lon="-0.09849">
        <ele>1822.4739990234</ele>
        <time>2017-05-23T04:52:58Z</time>
      </trkpt>
      <trkpt lat="42.75887" lon="-0.09858">
        <ele>1822.4350585938</ele>
        <time>2017-05-23T04:53:04Z</time>
      </trkpt>
      <trkpt lat="42.75892" lon="-0.09866">
        <ele>1822.3919677734</ele>
        <time>2017-05-23T04:53:11Z</time>
      </trkpt>
      <trkpt lat="42.75895" lon="-0.09876">
        <ele>1822.3489990234</ele>
        <time>2017-05-23T04:53:18Z</time>
      </trkpt>
      <trkpt lat="42.759" lon="-0.09884">
        <ele>1822.3189697266</ele>
        <time>2017-05-23T04:53:24Z</time>
      </trkpt>
      <trkpt lat="42.75904" lon="-0.09893">
        <ele>1822.2850341797</ele>
        <time>2017-05-23T04:53:31Z</time>
      </trkpt>
      <trkpt lat="42.75907" lon="-0.09902">
        <ele>1822.2659912109</ele>
        <time>2017-05-23T04:53:36Z</time>
      </trkpt>
      <trkpt lat="42.7591" lon="-0.09912">
        <ele>1822.2390136719</ele>
        <time>2017-05-23T04:53:44Z</time>
      </trkpt>
      <trkpt lat="42.75913" lon="-0.09922">
        <ele>1822.2180175781</ele>
        <time>2017-05-23T04:53:51Z</time>
      </trkpt>
      <trkpt lat="42.75915" lon="-0.09933">
        <ele>1822.1949462891</ele>
        <time>2017-05-23T04:53:59Z</time>
      </trkpt>
      <trkpt lat="42.75919" lon="-0.09943">
        <ele>1822.1810302734</ele>
        <time>2017-05-23T04:54:08Z</time>
      </trkpt>
      <trkpt lat="42.75921" lon="-0.09953">
        <ele>1822.1719970703</ele>
        <time>2017-05-23T04:54:14Z</time>
      </trkpt>
      <trkpt lat="42.75922" lon="-0.09963">
        <ele>1822.1639404297</ele>
        <time>2017-05-23T04:54:20Z</time>
      </trkpt>
      <trkpt lat="42.75922" lon="-0.09974">
        <ele>1822.1450195312</ele>
        <time>2017-05-23T04:54:29Z</time>
      </trkpt>
      <trkpt lat="42.75924" lon="-0.09984">
        <ele>1822.1290283203</ele>
        <time>2017-05-23T04:54:35Z</time>
      </trkpt>
      <trkpt lat="42.7593" lon="-0.09991">
        <ele>1822.0909423828</ele>
        <time>2017-05-23T04:54:43Z</time>
      </trkpt>
      <trkpt lat="42.75935" lon="-0.09998">
        <ele>1822.0500488281</ele>
        <time>2017-05-23T04:54:50Z</time>
      </trkpt>
      <trkpt lat="42.75939" lon="-0.10008">
        <ele>1822.0080566406</ele>
        <time>2017-05-23T04:54:58Z</time>
      </trkpt>
      <trkpt lat="42.7594" lon="-0.10019">
        <ele>1821.9749755859</ele>
        <time>2017-05-23T04:55:04Z</time>
      </trkpt>
      <trkpt lat="42.75943" lon="-0.10029">
        <ele>1821.9329833984</ele>
        <time>2017-05-23T04:55:12Z</time>
      </trkpt>
      <trkpt lat="42.75941" lon="-0.10039">
        <ele>1821.9000244141</ele>
        <time>2017-05-23T04:55:18Z</time>
      </trkpt>
      <trkpt lat="42.75942" lon="-0.1005">
        <ele>1821.8570556641</ele>
        <time>2017-05-23T04:55:25Z</time>
      </trkpt>
      <trkpt lat="42.75942" lon="-0.1006">
        <ele>1821.8220214844</ele>
        <time>2017-05-23T04:55:31Z</time>
      </trkpt>
      <trkpt lat="42.75945" lon="-0.1007">
        <ele>1821.7729492188</ele>
        <time>2017-05-23T04:55:38Z</time>
      </trkpt>
      <trkpt lat="42.75947" lon="-0.10082">
        <ele>1821.6960449219</ele>
        <time>2017-05-23T04:55:45Z</time>
      </trkpt>
      <trkpt lat="42.75947" lon="-0.10093">
        <ele>1821.6240234375</ele>
        <time>2017-05-23T04:55:50Z</time>
      </trkpt>
      <trkpt lat="42.75946" lon="-0.10103">
        <ele>1821.5300292969</ele>
        <time>2017-05-23T04:55:56Z</time>
      </trkpt>
      <trkpt lat="42.75948" lon="-0.10114">
        <ele>1821.4260253906</ele>
        <time>2017-05-23T04:56:03Z</time>
      </trkpt>
      <trkpt lat="42.75951" lon="-0.10123">
        <ele>1821.2989501953</ele>
        <time>2017-05-23T04:56:12Z</time>
      </trkpt>
      <trkpt lat="42.75955" lon="-0.10131">
        <ele>1821.2010498047</ele>
        <time>2017-05-23T04:56:22Z</time>
      </trkpt>
      <trkpt lat="42.75959" lon="-0.1014">
        <ele>1821.1490478516</ele>
        <time>2017-05-23T04:56:29Z</time>
      </trkpt>
      <trkpt lat="42.75965" lon="-0.10148">
        <ele>1821.0119628906</ele>
        <time>2017-05-23T04:56:38Z</time>
      </trkpt>
      <trkpt lat="42.75969" lon="-0.10157">
        <ele>1820.9399414062</ele>
        <time>2017-05-23T04:56:44Z</time>
      </trkpt>
      <trkpt lat="42.75975" lon="-0.10163">
        <ele>1820.876953125</ele>
        <time>2017-05-23T04:56:50Z</time>
      </trkpt>
      <trkpt lat="42.7598" lon="-0.10171">
        <ele>1820.8439941406</ele>
        <time>2017-05-23T04:56:56Z</time>
      </trkpt>
      <trkpt lat="42.75985" lon="-0.10181">
        <ele>1820.8179931641</ele>
        <time>2017-05-23T04:57:01Z</time>
      </trkpt>
      <trkpt lat="42.75991" lon="-0.10187">
        <ele>1820.7810058594</ele>
        <time>2017-05-23T04:57:06Z</time>
      </trkpt>
      <trkpt lat="42.75997" lon="-0.10195">
        <ele>1820.7540283203</ele>
        <time>2017-05-23T04:57:13Z</time>
      </trkpt>
      <trkpt lat="42.75999" lon="-0.10205">
        <ele>1820.7559814453</ele>
        <time>2017-05-23T04:57:19Z</time>
      </trkpt>
      <trkpt lat="42.76005" lon="-0.10212">
        <ele>1820.7629394531</ele>
        <time>2017-05-23T04:57:25Z</time>
      </trkpt>
      <trkpt lat="42.76011" lon="-0.10219">
        <ele>1820.7969970703</ele>
        <time>2017-05-23T04:57:32Z</time>
      </trkpt>
      <trkpt lat="42.76016" lon="-0.10228">
        <ele>1820.8470458984</ele>
        <time>2017-05-23T04:57:38Z</time>
      </trkpt>
      <trkpt lat="42.76019" lon="-0.10237">
        <ele>1820.8819580078</ele>
        <time>2017-05-23T04:57:43Z</time>
      </trkpt>
      <trkpt lat="42.76023" lon="-0.10246">
        <ele>1820.9139404297</ele>
        <time>2017-05-23T04:57:48Z</time>
      </trkpt>
      <trkpt lat="42.76026" lon="-0.10256">
        <ele>1820.9410400391</ele>
        <time>2017-05-23T04:57:57Z</time>
      </trkpt>
      <trkpt lat="42.7603" lon="-0.10264">
        <ele>1820.9420166016</ele>
        <time>2017-05-23T04:58:03Z</time>
      </trkpt>
      <trkpt lat="42.76035" lon="-0.10273">
        <ele>1820.9770507812</ele>
        <time>2017-05-23T04:58:08Z</time>
      </trkpt>
      <trkpt lat="42.7604" lon="-0.10281">
        <ele>1821.0250244141</ele>
        <time>2017-05-23T04:58:14Z</time>
      </trkpt>
      <trkpt lat="42.76047" lon="-0.10285">
        <ele>1821.0980224609</ele>
        <time>2017-05-23T04:58:20Z</time>
      </trkpt>
      <trkpt lat="42.76052" lon="-0.10294">
        <ele>1821.2230224609</ele>
        <time>2017-05-23T04:58:28Z</time>
      </trkpt>
      <trkpt lat="42.76061" lon="-0.1031">
        <ele>1821.3780517578</ele>
        <time>2017-05-23T04:58:37Z</time>
      </trkpt>
      <trkpt lat="42.76066" lon="-0.1032">
        <ele>1821.4780273438</ele>
        <time>2017-05-23T04:58:43Z</time>
      </trkpt>
      <trkpt lat="42.76071" lon="-0.10329">
        <ele>1821.6030273438</ele>
        <time>2017-05-23T04:58:50Z</time>
      </trkpt>
      <trkpt lat="42.76074" lon="-0.10338">
        <ele>1821.7110595703</ele>
        <time>2017-05-23T04:59:04Z</time>
      </trkpt>
      <trkpt lat="42.76074" lon="-0.1035">
        <ele>1821.8160400391</ele>
        <time>2017-05-23T04:59:10Z</time>
      </trkpt>
      <trkpt lat="42.76076" lon="-0.1036">
        <ele>1821.95703125</ele>
        <time>2017-05-23T04:59:17Z</time>
      </trkpt>
      <trkpt lat="42.76079" lon="-0.1037">
        <ele>1822.0159912109</ele>
        <time>2017-05-23T04:59:22Z</time>
      </trkpt>
      <trkpt lat="42.76082" lon="-0.10379">
        <ele>1822.0269775391</ele>
        <time>2017-05-23T04:59:28Z</time>
      </trkpt>
      <trkpt lat="42.76087" lon="-0.10388">
        <ele>1822.0589599609</ele>
        <time>2017-05-23T04:59:36Z</time>
      </trkpt>
      <trkpt lat="42.76093" lon="-0.10394">
        <ele>1822.1180419922</ele>
        <time>2017-05-23T04:59:43Z</time>
      </trkpt>
      <trkpt lat="42.76099" lon="-0.104">
        <ele>1822.2819824219</ele>
        <time>2017-05-23T04:59:49Z</time>
      </trkpt>
      <trkpt lat="42.76104" lon="-0.10407">
        <ele>1822.5880126953</ele>
        <time>2017-05-23T04:59:56Z</time>
      </trkpt>
      <trkpt lat="42.76107" lon="-0.10417">
        <ele>1822.8170166016</ele>
        <time>2017-05-23T05:00:01Z</time>
      </trkpt>
      <trkpt lat="42.7611" lon="-0.10426">
        <ele>1823.0610351562</ele>
        <time>2017-05-23T05:00:06Z</time>
      </trkpt>
      <trkpt lat="42.7611" lon="-0.10436">
        <ele>1823.3399658203</ele>
        <time>2017-05-23T05:00:12Z</time>
      </trkpt>
      <trkpt lat="42.76113" lon="-0.10446">
        <ele>1823.6090087891</ele>
        <time>2017-05-23T05:00:18Z</time>
      </trkpt>
      <trkpt lat="42.76115" lon="-0.10457">
        <ele>1823.8310546875</ele>
        <time>2017-05-23T05:00:24Z</time>
      </trkpt>
      <trkpt lat="42.7612" lon="-0.1048">
        <ele>1823.9000244141</ele>
        <time>2017-05-23T05:00:34Z</time>
      </trkpt>
      <trkpt lat="42.76124" lon="-0.10491">
        <ele>1823.9699707031</ele>
        <time>2017-05-23T05:00:40Z</time>
      </trkpt>
      <trkpt lat="42.76125" lon="-0.10502">
        <ele>1824.1639404297</ele>
        <time>2017-05-23T05:00:47Z</time>
      </trkpt>
      <trkpt lat="42.76127" lon="-0.10513">
        <ele>1824.3189697266</ele>
        <time>2017-05-23T05:00:52Z</time>
      </trkpt>
      <trkpt lat="42.7613" lon="-0.10523">
        <ele>1824.5069580078</ele>
        <time>2017-05-23T05:00:58Z</time>
      </trkpt>
      <trkpt lat="42.76132" lon="-0.10533">
        <ele>1824.7309570312</ele>
        <time>2017-05-23T05:01:06Z</time>
      </trkpt>
      <trkpt lat="42.76132" lon="-0.10544">
        <ele>1824.9739990234</ele>
        <time>2017-05-23T05:01:13Z</time>
      </trkpt>
      <trkpt lat="42.76136" lon="-0.10555">
        <ele>1824.7960205078</ele>
        <time>2017-05-23T05:01:18Z</time>
      </trkpt>
      <trkpt lat="42.76139" lon="-0.10564">
        <ele>1824.4940185547</ele>
        <time>2017-05-23T05:01:23Z</time>
      </trkpt>
      <trkpt lat="42.76143" lon="-0.10573">
        <ele>1824.1629638672</ele>
        <time>2017-05-23T05:01:31Z</time>
      </trkpt>
      <trkpt lat="42.76148" lon="-0.10582">
        <ele>1824.0379638672</ele>
        <time>2017-05-23T05:01:39Z</time>
      </trkpt>
      <trkpt lat="42.76153" lon="-0.1059">
        <ele>1823.9840087891</ele>
        <time>2017-05-23T05:01:44Z</time>
      </trkpt>
      <trkpt lat="42.76157" lon="-0.10598">
        <ele>1823.9370117188</ele>
        <time>2017-05-23T05:01:51Z</time>
      </trkpt>
      <trkpt lat="42.76162" lon="-0.10607">
        <ele>1823.9720458984</ele>
        <time>2017-05-23T05:01:58Z</time>
      </trkpt>
      <trkpt lat="42.76167" lon="-0.10616">
        <ele>1824.0560302734</ele>
        <time>2017-05-23T05:02:04Z</time>
      </trkpt>
      <trkpt lat="42.76173" lon="-0.10621">
        <ele>1824.5290527344</ele>
        <time>2017-05-23T05:02:11Z</time>
      </trkpt>
      <trkpt lat="42.76178" lon="-0.10633">
        <ele>1825.2700195312</ele>
        <time>2017-05-23T05:02:21Z</time>
      </trkpt>
      <trkpt lat="42.76182" lon="-0.10643">
        <ele>1825.6590576172</ele>
        <time>2017-05-23T05:02:27Z</time>
      </trkpt>
      <trkpt lat="42.76188" lon="-0.1065">
        <ele>1826.0190429688</ele>
        <time>2017-05-23T05:02:32Z</time>
      </trkpt>
      <trkpt lat="42.76192" lon="-0.10658">
        <ele>1826.9399414062</ele>
        <time>2017-05-23T05:02:41Z</time>
      </trkpt>
      <trkpt lat="42.76196" lon="-0.10666">
        <ele>1827.6639404297</ele>
        <time>2017-05-23T05:02:48Z</time>
      </trkpt>
      <trkpt lat="42.76201" lon="-0.10675">
        <ele>1828.3039550781</ele>
        <time>2017-05-23T05:02:55Z</time>
      </trkpt>
      <trkpt lat="42.76205" lon="-0.10685">
        <ele>1828.7760009766</ele>
        <time>2017-05-23T05:03:01Z</time>
      </trkpt>
      <trkpt lat="42.76208" lon="-0.10707">
        <ele>1829.4429931641</ele>
        <time>2017-05-23T05:03:09Z</time>
      </trkpt>
      <trkpt lat="42.7621" lon="-0.10718">
        <ele>1829.8929443359</ele>
        <time>2017-05-23T05:03:14Z</time>
      </trkpt>
      <trkpt lat="42.76209" lon="-0.10728">
        <ele>1830.5870361328</ele>
        <time>2017-05-23T05:03:23Z</time>
      </trkpt>
      <trkpt lat="42.76209" lon="-0.10738">
        <ele>1831.1529541016</ele>
        <time>2017-05-23T05:03:31Z</time>
      </trkpt>
      <trkpt lat="42.76212" lon="-0.10748">
        <ele>1831.5069580078</ele>
        <time>2017-05-23T05:03:36Z</time>
      </trkpt>
      <trkpt lat="42.76217" lon="-0.10755">
        <ele>1832.0710449219</ele>
        <time>2017-05-23T05:03:43Z</time>
      </trkpt>
      <trkpt lat="42.7622" lon="-0.10764">
        <ele>1832.6490478516</ele>
        <time>2017-05-23T05:03:50Z</time>
      </trkpt>
      <trkpt lat="42.76227" lon="-0.10773">
        <ele>1833.1350097656</ele>
        <time>2017-05-23T05:03:56Z</time>
      </trkpt>
      <trkpt lat="42.76233" lon="-0.1078">
        <ele>1833.6199951172</ele>
        <time>2017-05-23T05:04:02Z</time>
      </trkpt>
      <trkpt lat="42.76237" lon="-0.10789">
        <ele>1834.0629882812</ele>
        <time>2017-05-23T05:04:08Z</time>
      </trkpt>
      <trkpt lat="42.76239" lon="-0.108">
        <ele>1834.9770507812</ele>
        <time>2017-05-23T05:04:20Z</time>
      </trkpt>
      <trkpt lat="42.76243" lon="-0.10812">
        <ele>1835.3890380859</ele>
        <time>2017-05-23T05:04:25Z</time>
      </trkpt>
      <trkpt lat="42.76245" lon="-0.10821">
        <ele>1835.9219970703</ele>
        <time>2017-05-23T05:04:31Z</time>
      </trkpt>
      <trkpt lat="42.76247" lon="-0.10832">
        <ele>1836.3480224609</ele>
        <time>2017-05-23T05:04:36Z</time>
      </trkpt>
      <trkpt lat="42.76252" lon="-0.10841">
        <ele>1837.0240478516</ele>
        <time>2017-05-23T05:04:44Z</time>
      </trkpt>
      <trkpt lat="42.76257" lon="-0.10848">
        <ele>1837.8459472656</ele>
        <time>2017-05-23T05:04:53Z</time>
      </trkpt>
      <trkpt lat="42.76261" lon="-0.10857">
        <ele>1838.6810302734</ele>
        <time>2017-05-23T05:05:01Z</time>
      </trkpt>
      <trkpt lat="42.76274" lon="-0.10866">
        <ele>1839.8120117188</ele>
        <time>2017-05-23T05:05:12Z</time>
      </trkpt>
      <trkpt lat="42.76281" lon="-0.10872">
        <ele>1840.3100585938</ele>
        <time>2017-05-23T05:05:17Z</time>
      </trkpt>
      <trkpt lat="42.76289" lon="-0.10873">
        <ele>1840.7790527344</ele>
        <time>2017-05-23T05:05:22Z</time>
      </trkpt>
      <trkpt lat="42.76296" lon="-0.10874">
        <ele>1841.5529785156</ele>
        <time>2017-05-23T05:05:31Z</time>
      </trkpt>
      <trkpt lat="42.76302" lon="-0.10883">
        <ele>1842.0040283203</ele>
        <time>2017-05-23T05:05:37Z</time>
      </trkpt>
      <trkpt lat="42.76309" lon="-0.10888">
        <ele>1842.5610351562</ele>
        <time>2017-05-23T05:05:46Z</time>
      </trkpt>
      <trkpt lat="42.76316" lon="-0.10891">
        <ele>1843.0080566406</ele>
        <time>2017-05-23T05:05:55Z</time>
      </trkpt>
      <trkpt lat="42.76323" lon="-0.10893">
        <ele>1843.6619873047</ele>
        <time>2017-05-23T05:06:07Z</time>
      </trkpt>
      <trkpt lat="42.76325" lon="-0.10903">
        <ele>1843.9649658203</ele>
        <time>2017-05-23T05:06:14Z</time>
      </trkpt>
      <trkpt lat="42.7633" lon="-0.1091">
        <ele>1844.1870117188</ele>
        <time>2017-05-23T05:06:20Z</time>
      </trkpt>
      <trkpt lat="42.76335" lon="-0.10903">
        <ele>1848.8690185547</ele>
        <time>2017-05-23T05:09:10Z</time>
      </trkpt>
      <trkpt lat="42.76331" lon="-0.10913">
        <ele>1857.3160400391</ele>
        <time>2017-05-23T05:13:36Z</time>
      </trkpt>
      <trkpt lat="42.76331" lon="-0.10936">
        <ele>1857.4969482422</ele>
        <time>2017-05-23T05:13:47Z</time>
      </trkpt>
      <trkpt lat="42.76334" lon="-0.10945">
        <ele>1857.123046875</ele>
        <time>2017-05-23T05:13:56Z</time>
      </trkpt>
      <trkpt lat="42.76337" lon="-0.10954">
        <ele>1856.5510253906</ele>
        <time>2017-05-23T05:14:02Z</time>
      </trkpt>
      <trkpt lat="42.76338" lon="-0.10964">
        <ele>1855.9549560547</ele>
        <time>2017-05-23T05:14:08Z</time>
      </trkpt>
      <trkpt lat="42.76338" lon="-0.10974">
        <ele>1855.1800537109</ele>
        <time>2017-05-23T05:14:14Z</time>
      </trkpt>
      <trkpt lat="42.76335" lon="-0.10984">
        <ele>1853.9410400391</ele>
        <time>2017-05-23T05:14:24Z</time>
      </trkpt>
      <trkpt lat="42.76335" lon="-0.10995">
        <ele>1852.9959716797</ele>
        <time>2017-05-23T05:14:34Z</time>
      </trkpt>
      <trkpt lat="42.7634" lon="-0.11003">
        <ele>1851.8659667969</ele>
        <time>2017-05-23T05:14:44Z</time>
      </trkpt>
      <trkpt lat="42.76346" lon="-0.11009">
        <ele>1851.2209472656</ele>
        <time>2017-05-23T05:14:52Z</time>
      </trkpt>
      <trkpt lat="42.76351" lon="-0.11017">
        <ele>1850.6860351562</ele>
        <time>2017-05-23T05:15:02Z</time>
      </trkpt>
      <trkpt lat="42.76358" lon="-0.11021">
        <ele>1850.4599609375</ele>
        <time>2017-05-23T05:15:07Z</time>
      </trkpt>
      <trkpt lat="42.76363" lon="-0.11028">
        <ele>1850.1979980469</ele>
        <time>2017-05-23T05:15:14Z</time>
      </trkpt>
      <trkpt lat="42.76367" lon="-0.11037">
        <ele>1849.9749755859</ele>
        <time>2017-05-23T05:15:22Z</time>
      </trkpt>
      <trkpt lat="42.76372" lon="-0.11047">
        <ele>1849.7900390625</ele>
        <time>2017-05-23T05:15:29Z</time>
      </trkpt>
      <trkpt lat="42.76378" lon="-0.11053">
        <ele>1849.6490478516</ele>
        <time>2017-05-23T05:15:36Z</time>
      </trkpt>
      <trkpt lat="42.76375" lon="-0.11064">
        <ele>1849.4139404297</ele>
        <time>2017-05-23T05:15:45Z</time>
      </trkpt>
      <trkpt lat="42.76376" lon="-0.11073">
        <ele>1849.1789550781</ele>
        <time>2017-05-23T05:15:52Z</time>
      </trkpt>
      <trkpt lat="42.76382" lon="-0.1108">
        <ele>1848.9410400391</ele>
        <time>2017-05-23T05:15:58Z</time>
      </trkpt>
      <trkpt lat="42.76387" lon="-0.11089">
        <ele>1848.5600585938</ele>
        <time>2017-05-23T05:16:09Z</time>
      </trkpt>
      <trkpt lat="42.76388" lon="-0.111">
        <ele>1848.2829589844</ele>
        <time>2017-05-23T05:16:20Z</time>
      </trkpt>
      <trkpt lat="42.76395" lon="-0.11104">
        <ele>1849.0290527344</ele>
        <time>2017-05-23T05:16:55Z</time>
      </trkpt>
      <trkpt lat="42.76391" lon="-0.11094">
        <ele>1850.4449462891</ele>
        <time>2017-05-23T05:17:04Z</time>
      </trkpt>
      <trkpt lat="42.76383" lon="-0.111">
        <ele>1853.4820556641</ele>
        <time>2017-05-23T05:17:20Z</time>
      </trkpt>
      <trkpt lat="42.76376" lon="-0.11105">
        <ele>1854.4189453125</ele>
        <time>2017-05-23T05:17:27Z</time>
      </trkpt>
      <trkpt lat="42.76383" lon="-0.11107">
        <ele>1856.6860351562</ele>
        <time>2017-05-23T05:17:48Z</time>
      </trkpt>
      <trkpt lat="42.76389" lon="-0.11115">
        <ele>1857.6490478516</ele>
        <time>2017-05-23T05:17:55Z</time>
      </trkpt>
      <trkpt lat="42.76392" lon="-0.11124">
        <ele>1858.2840576172</ele>
        <time>2017-05-23T05:18:00Z</time>
      </trkpt>
      <trkpt lat="42.76399" lon="-0.11131">
        <ele>1859.2590332031</ele>
        <time>2017-05-23T05:18:09Z</time>
      </trkpt>
      <trkpt lat="42.76392" lon="-0.11133">
        <ele>1859.8530273438</ele>
        <time>2017-05-23T05:18:15Z</time>
      </trkpt>
      <trkpt lat="42.76384" lon="-0.11139">
        <ele>1860.66796875</ele>
        <time>2017-05-23T05:18:23Z</time>
      </trkpt>
      <trkpt lat="42.76371" lon="-0.11149">
        <ele>1861.9150390625</ele>
        <time>2017-05-23T05:18:35Z</time>
      </trkpt>
      <trkpt lat="42.76364" lon="-0.11151">
        <ele>1862.4200439453</ele>
        <time>2017-05-23T05:18:40Z</time>
      </trkpt>
      <trkpt lat="42.76356" lon="-0.11156">
        <ele>1862.9119873047</ele>
        <time>2017-05-23T05:18:45Z</time>
      </trkpt>
      <trkpt lat="42.76349" lon="-0.11161">
        <ele>1863.3699951172</ele>
        <time>2017-05-23T05:18:50Z</time>
      </trkpt>
      <trkpt lat="42.76357" lon="-0.11163">
        <ele>1866.5959472656</ele>
        <time>2017-05-23T05:19:20Z</time>
      </trkpt>
      <trkpt lat="42.7637" lon="-0.11172">
        <ele>1867.8859863281</ele>
        <time>2017-05-23T05:19:28Z</time>
      </trkpt>
      <trkpt lat="42.76379" lon="-0.11174">
        <ele>1869.4880371094</ele>
        <time>2017-05-23T05:19:38Z</time>
      </trkpt>
      <trkpt lat="42.76386" lon="-0.11177">
        <ele>1871.2419433594</ele>
        <time>2017-05-23T05:19:49Z</time>
      </trkpt>
      <trkpt lat="42.76378" lon="-0.11183">
        <ele>1873.2449951172</ele>
        <time>2017-05-23T05:20:04Z</time>
      </trkpt>
      <trkpt lat="42.76361" lon="-0.11194">
        <ele>1874.3499755859</ele>
        <time>2017-05-23T05:20:12Z</time>
      </trkpt>
      <trkpt lat="42.76347" lon="-0.11202">
        <ele>1875.376953125</ele>
        <time>2017-05-23T05:20:20Z</time>
      </trkpt>
      <trkpt lat="42.76339" lon="-0.11201">
        <ele>1876.6159667969</ele>
        <time>2017-05-23T05:20:30Z</time>
      </trkpt>
      <trkpt lat="42.76332" lon="-0.11205">
        <ele>1877.2139892578</ele>
        <time>2017-05-23T05:20:35Z</time>
      </trkpt>
      <trkpt lat="42.76325" lon="-0.1121">
        <ele>1877.8210449219</ele>
        <time>2017-05-23T05:20:46Z</time>
      </trkpt>
      <trkpt lat="42.76327" lon="-0.11221">
        <ele>1878.5050048828</ele>
        <time>2017-05-23T05:21:16Z</time>
      </trkpt>
      <trkpt lat="42.76321" lon="-0.11228">
        <ele>1879.6369628906</ele>
        <time>2017-05-23T05:21:58Z</time>
      </trkpt>
      <trkpt lat="42.76329" lon="-0.11223">
        <ele>1880.4969482422</ele>
        <time>2017-05-23T05:22:10Z</time>
      </trkpt>
      <trkpt lat="42.76336" lon="-0.11227">
        <ele>1881.1650390625</ele>
        <time>2017-05-23T05:22:17Z</time>
      </trkpt>
      <trkpt lat="42.76343" lon="-0.11225">
        <ele>1881.9090576172</ele>
        <time>2017-05-23T05:22:24Z</time>
      </trkpt>
      <trkpt lat="42.7635" lon="-0.11228">
        <ele>1883.6290283203</ele>
        <time>2017-05-23T05:22:37Z</time>
      </trkpt>
      <trkpt lat="42.76357" lon="-0.11234">
        <ele>1884.6099853516</ele>
        <time>2017-05-23T05:22:44Z</time>
      </trkpt>
      <trkpt lat="42.76349" lon="-0.11233">
        <ele>1887.1750488281</ele>
        <time>2017-05-23T05:23:03Z</time>
      </trkpt>
      <trkpt lat="42.76341" lon="-0.11236">
        <ele>1888.7110595703</ele>
        <time>2017-05-23T05:23:12Z</time>
      </trkpt>
      <trkpt lat="42.76335" lon="-0.11243">
        <ele>1889.9870605469</ele>
        <time>2017-05-23T05:23:20Z</time>
      </trkpt>
      <trkpt lat="42.76327" lon="-0.11247">
        <ele>1890.8070068359</ele>
        <time>2017-05-23T05:23:25Z</time>
      </trkpt>
      <trkpt lat="42.7632" lon="-0.11253">
        <ele>1891.9279785156</ele>
        <time>2017-05-23T05:23:32Z</time>
      </trkpt>
      <trkpt lat="42.76314" lon="-0.11258">
        <ele>1892.8640136719</ele>
        <time>2017-05-23T05:23:38Z</time>
      </trkpt>
      <trkpt lat="42.76307" lon="-0.11262">
        <ele>1894.0379638672</ele>
        <time>2017-05-23T05:23:46Z</time>
      </trkpt>
      <trkpt lat="42.76314" lon="-0.11261">
        <ele>1899.6280517578</ele>
        <time>2017-05-23T05:24:16Z</time>
      </trkpt>
      <trkpt lat="42.76321" lon="-0.11267">
        <ele>1903.2049560547</ele>
        <time>2017-05-23T05:24:32Z</time>
      </trkpt>
      <trkpt lat="42.76331" lon="-0.11271">
        <ele>1904.1490478516</ele>
        <time>2017-05-23T05:24:41Z</time>
      </trkpt>
      <trkpt lat="42.76324" lon="-0.11275">
        <ele>1906.4749755859</ele>
        <time>2017-05-23T05:24:57Z</time>
      </trkpt>
      <trkpt lat="42.76317" lon="-0.11279">
        <ele>1908.4110107422</ele>
        <time>2017-05-23T05:25:08Z</time>
      </trkpt>
      <trkpt lat="42.76324" lon="-0.11283">
        <ele>1909.3869628906</ele>
        <time>2017-05-23T05:25:14Z</time>
      </trkpt>
      <trkpt lat="42.76332" lon="-0.11281">
        <ele>1910.6149902344</ele>
        <time>2017-05-23T05:25:20Z</time>
      </trkpt>
      <trkpt lat="42.76338" lon="-0.11276">
        <ele>1913.0489501953</ele>
        <time>2017-05-23T05:25:36Z</time>
      </trkpt>
      <trkpt lat="42.76336" lon="-0.11265">
        <ele>1921.1669921875</ele>
        <time>2017-05-23T05:27:13Z</time>
      </trkpt>
      <trkpt lat="42.76344" lon="-0.11269">
        <ele>1927.8549804688</ele>
        <time>2017-05-23T05:28:20Z</time>
      </trkpt>
      <trkpt lat="42.76351" lon="-0.11272">
        <ele>1930.5030517578</ele>
        <time>2017-05-23T05:28:34Z</time>
      </trkpt>
      <trkpt lat="42.76357" lon="-0.11266">
        <ele>1937.875</ele>
        <time>2017-05-23T05:29:10Z</time>
      </trkpt>
      <trkpt lat="42.76363" lon="-0.11269">
        <ele>1938.8609619141</ele>
        <time>2017-05-23T05:29:16Z</time>
      </trkpt>
      <trkpt lat="42.76365" lon="-0.1128">
        <ele>1940.0069580078</ele>
        <time>2017-05-23T05:29:24Z</time>
      </trkpt>
      <trkpt lat="42.7637" lon="-0.11288">
        <ele>1941.0930175781</ele>
        <time>2017-05-23T05:29:33Z</time>
      </trkpt>
      <trkpt lat="42.76376" lon="-0.11293">
        <ele>1942.2390136719</ele>
        <time>2017-05-23T05:29:44Z</time>
      </trkpt>
      <trkpt lat="42.76384" lon="-0.11293">
        <ele>1942.7800292969</ele>
        <time>2017-05-23T05:29:50Z</time>
      </trkpt>
      <trkpt lat="42.76392" lon="-0.11295">
        <ele>1944.3100585938</ele>
        <time>2017-05-23T05:30:10Z</time>
      </trkpt>
      <trkpt lat="42.76399" lon="-0.11298">
        <ele>1945.0369873047</ele>
        <time>2017-05-23T05:30:21Z</time>
      </trkpt>
      <trkpt lat="42.76406" lon="-0.11301">
        <ele>1945.4880371094</ele>
        <time>2017-05-23T05:30:29Z</time>
      </trkpt>
      <trkpt lat="42.76413" lon="-0.11303">
        <ele>1945.8719482422</ele>
        <time>2017-05-23T05:30:37Z</time>
      </trkpt>
      <trkpt lat="42.76421" lon="-0.11304">
        <ele>1946.4849853516</ele>
        <time>2017-05-23T05:31:01Z</time>
      </trkpt>
      <trkpt lat="42.76428" lon="-0.11301">
        <ele>1947.8659667969</ele>
        <time>2017-05-23T05:31:21Z</time>
      </trkpt>
      <trkpt lat="42.76434" lon="-0.11295">
        <ele>1949.5610351562</ele>
        <time>2017-05-23T05:31:44Z</time>
      </trkpt>
      <trkpt lat="42.76433" lon="-0.11285">
        <ele>1950.3740234375</ele>
        <time>2017-05-23T05:31:57Z</time>
      </trkpt>
      <trkpt lat="42.76436" lon="-0.11274">
        <ele>1950.9969482422</ele>
        <time>2017-05-23T05:32:14Z</time>
      </trkpt>
      <trkpt lat="42.76444" lon="-0.11272">
        <ele>1951.29296875</ele>
        <time>2017-05-23T05:32:21Z</time>
      </trkpt>
      <trkpt lat="42.76447" lon="-0.11261">
        <ele>1951.7989501953</ele>
        <time>2017-05-23T05:32:34Z</time>
      </trkpt>
      <trkpt lat="42.76453" lon="-0.11253">
        <ele>1952.0639648438</ele>
        <time>2017-05-23T05:32:42Z</time>
      </trkpt>
      <trkpt lat="42.7646" lon="-0.11251">
        <ele>1952.2719726562</ele>
        <time>2017-05-23T05:32:48Z</time>
      </trkpt>
      <trkpt lat="42.76468" lon="-0.11251">
        <ele>1952.5329589844</ele>
        <time>2017-05-23T05:32:55Z</time>
      </trkpt>
      <trkpt lat="42.76476" lon="-0.11254">
        <ele>1952.8840332031</ele>
        <time>2017-05-23T05:33:04Z</time>
      </trkpt>
      <trkpt lat="42.76483" lon="-0.11255">
        <ele>1953.2580566406</ele>
        <time>2017-05-23T05:33:12Z</time>
      </trkpt>
      <trkpt lat="42.76491" lon="-0.11254">
        <ele>1953.6099853516</ele>
        <time>2017-05-23T05:33:20Z</time>
      </trkpt>
      <trkpt lat="42.76496" lon="-0.11248">
        <ele>1954.1739501953</ele>
        <time>2017-05-23T05:33:31Z</time>
      </trkpt>
      <trkpt lat="42.76504" lon="-0.1125">
        <ele>1955.2700195312</ele>
        <time>2017-05-23T05:33:57Z</time>
      </trkpt>
      <trkpt lat="42.76512" lon="-0.11248">
        <ele>1956.0989990234</ele>
        <time>2017-05-23T05:34:07Z</time>
      </trkpt>
      <trkpt lat="42.76519" lon="-0.11251">
        <ele>1960.0550537109</ele>
        <time>2017-05-23T05:34:28Z</time>
      </trkpt>
      <trkpt lat="42.76527" lon="-0.11253">
        <ele>1970.1169433594</ele>
        <time>2017-05-23T05:35:15Z</time>
      </trkpt>
      <trkpt lat="42.76534" lon="-0.11256">
        <ele>1972.4899902344</ele>
        <time>2017-05-23T05:35:27Z</time>
      </trkpt>
      <trkpt lat="42.76542" lon="-0.11254">
        <ele>1974.33203125</ele>
        <time>2017-05-23T05:35:36Z</time>
      </trkpt>
      <trkpt lat="42.76549" lon="-0.11251">
        <ele>1975.6810302734</ele>
        <time>2017-05-23T05:35:44Z</time>
      </trkpt>
      <trkpt lat="42.76557" lon="-0.11251">
        <ele>1976.7669677734</ele>
        <time>2017-05-23T05:35:51Z</time>
      </trkpt>
      <trkpt lat="42.76564" lon="-0.11254">
        <ele>1977.7719726562</ele>
        <time>2017-05-23T05:35:58Z</time>
      </trkpt>
      <trkpt lat="42.7657" lon="-0.11261">
        <ele>1979.0739746094</ele>
        <time>2017-05-23T05:36:08Z</time>
      </trkpt>
      <trkpt lat="42.76575" lon="-0.11268">
        <ele>1980.5169677734</ele>
        <time>2017-05-23T05:36:23Z</time>
      </trkpt>
      <trkpt lat="42.76572" lon="-0.11278">
        <ele>1980.8280029297</ele>
        <time>2017-05-23T05:36:28Z</time>
      </trkpt>
      <trkpt lat="42.76571" lon="-0.11289">
        <ele>1981.2679443359</ele>
        <time>2017-05-23T05:36:38Z</time>
      </trkpt>
      <trkpt lat="42.76568" lon="-0.11298">
        <ele>1981.5260009766</ele>
        <time>2017-05-23T05:36:48Z</time>
      </trkpt>
      <trkpt lat="42.76569" lon="-0.11309">
        <ele>1981.5880126953</ele>
        <time>2017-05-23T05:36:56Z</time>
      </trkpt>
      <trkpt lat="42.76574" lon="-0.11317">
        <ele>1981.5209960938</ele>
        <time>2017-05-23T05:37:07Z</time>
      </trkpt>
      <trkpt lat="42.76577" lon="-0.11326">
        <ele>1981.3149414062</ele>
        <time>2017-05-23T05:37:19Z</time>
      </trkpt>
      <trkpt lat="42.76577" lon="-0.11338">
        <ele>1981.2170410156</ele>
        <time>2017-05-23T05:37:26Z</time>
      </trkpt>
      <trkpt lat="42.76579" lon="-0.11348">
        <ele>1981.0660400391</ele>
        <time>2017-05-23T05:37:31Z</time>
      </trkpt>
      <trkpt lat="42.76577" lon="-0.11337">
        <ele>1980.7349853516</ele>
        <time>2017-05-23T05:38:32Z</time>
      </trkpt>
      <trkpt lat="42.76582" lon="-0.11345">
        <ele>1980.9000244141</ele>
        <time>2017-05-23T05:39:19Z</time>
      </trkpt>
      <trkpt lat="42.76587" lon="-0.11353">
        <ele>1981.0119628906</ele>
        <time>2017-05-23T05:39:25Z</time>
      </trkpt>
      <trkpt lat="42.76592" lon="-0.11361">
        <ele>1981.1169433594</ele>
        <time>2017-05-23T05:39:31Z</time>
      </trkpt>
      <trkpt lat="42.76598" lon="-0.11369">
        <ele>1981.2559814453</ele>
        <time>2017-05-23T05:39:38Z</time>
      </trkpt>
      <trkpt lat="42.76602" lon="-0.11379">
        <ele>1981.4110107422</ele>
        <time>2017-05-23T05:39:47Z</time>
      </trkpt>
      <trkpt lat="42.76605" lon="-0.11388">
        <ele>1981.5479736328</ele>
        <time>2017-05-23T05:39:58Z</time>
      </trkpt>
      <trkpt lat="42.76609" lon="-0.11397">
        <ele>1981.6290283203</ele>
        <time>2017-05-23T05:40:06Z</time>
      </trkpt>
      <trkpt lat="42.76615" lon="-0.11402">
        <ele>1981.7030029297</ele>
        <time>2017-05-23T05:40:17Z</time>
      </trkpt>
      <trkpt lat="42.76619" lon="-0.11413">
        <ele>1981.7180175781</ele>
        <time>2017-05-23T05:40:23Z</time>
      </trkpt>
      <trkpt lat="42.76625" lon="-0.11422">
        <ele>1981.7449951172</ele>
        <time>2017-05-23T05:40:29Z</time>
      </trkpt>
      <trkpt lat="42.76632" lon="-0.11429">
        <ele>1981.7790527344</ele>
        <time>2017-05-23T05:40:34Z</time>
      </trkpt>
      <trkpt lat="42.76639" lon="-0.11433">
        <ele>1981.8649902344</ele>
        <time>2017-05-23T05:40:42Z</time>
      </trkpt>
      <trkpt lat="42.76644" lon="-0.1144">
        <ele>1981.9549560547</ele>
        <time>2017-05-23T05:40:49Z</time>
      </trkpt>
      <trkpt lat="42.76649" lon="-0.11448">
        <ele>1982.0129394531</ele>
        <time>2017-05-23T05:40:55Z</time>
      </trkpt>
      <trkpt lat="42.76657" lon="-0.11452">
        <ele>1982.0720214844</ele>
        <time>2017-05-23T05:41:01Z</time>
      </trkpt>
      <trkpt lat="42.76664" lon="-0.11458">
        <ele>1982.1479492188</ele>
        <time>2017-05-23T05:41:09Z</time>
      </trkpt>
      <trkpt lat="42.76672" lon="-0.11462">
        <ele>1982.20703125</ele>
        <time>2017-05-23T05:41:17Z</time>
      </trkpt>
      <trkpt lat="42.76678" lon="-0.11468">
        <ele>1982.3959960938</ele>
        <time>2017-05-23T05:41:34Z</time>
      </trkpt>
      <trkpt lat="42.76684" lon="-0.11478">
        <ele>1982.4150390625</ele>
        <time>2017-05-23T05:41:41Z</time>
      </trkpt>
      <trkpt lat="42.76688" lon="-0.11486">
        <ele>1982.333984375</ele>
        <time>2017-05-23T05:41:51Z</time>
      </trkpt>
      <trkpt lat="42.76691" lon="-0.11497">
        <ele>1982.2449951172</ele>
        <time>2017-05-23T05:41:58Z</time>
      </trkpt>
      <trkpt lat="42.76695" lon="-0.11507">
        <ele>1982.1610107422</ele>
        <time>2017-05-23T05:42:04Z</time>
      </trkpt>
      <trkpt lat="42.76695" lon="-0.11517">
        <ele>1982.0389404297</ele>
        <time>2017-05-23T05:42:11Z</time>
      </trkpt>
      <trkpt lat="42.76702" lon="-0.11524">
        <ele>1981.9260253906</ele>
        <time>2017-05-23T05:42:18Z</time>
      </trkpt>
      <trkpt lat="42.76709" lon="-0.11527">
        <ele>1981.8380126953</ele>
        <time>2017-05-23T05:42:26Z</time>
      </trkpt>
      <trkpt lat="42.76717" lon="-0.11532">
        <ele>1981.8229980469</ele>
        <time>2017-05-23T05:42:31Z</time>
      </trkpt>
      <trkpt lat="42.76724" lon="-0.11535">
        <ele>1981.875</ele>
        <time>2017-05-23T05:42:43Z</time>
      </trkpt>
      <trkpt lat="42.76732" lon="-0.11534">
        <ele>1981.9620361328</ele>
        <time>2017-05-23T05:42:53Z</time>
      </trkpt>
      <trkpt lat="42.76739" lon="-0.11539">
        <ele>1982.0610351562</ele>
        <time>2017-05-23T05:43:00Z</time>
      </trkpt>
      <trkpt lat="42.7675" lon="-0.11558">
        <ele>1982.4580078125</ele>
        <time>2017-05-23T05:43:18Z</time>
      </trkpt>
      <trkpt lat="42.76755" lon="-0.11567">
        <ele>1982.6519775391</ele>
        <time>2017-05-23T05:43:25Z</time>
      </trkpt>
      <trkpt lat="42.76757" lon="-0.11578">
        <ele>1983.0550537109</ele>
        <time>2017-05-23T05:43:37Z</time>
      </trkpt>
      <trkpt lat="42.76757" lon="-0.1159">
        <ele>1983.4449462891</ele>
        <time>2017-05-23T05:43:48Z</time>
      </trkpt>
      <trkpt lat="42.76759" lon="-0.11601">
        <ele>1983.7729492188</ele>
        <time>2017-05-23T05:43:57Z</time>
      </trkpt>
      <trkpt lat="42.76758" lon="-0.11612">
        <ele>1984.1199951172</ele>
        <time>2017-05-23T05:44:06Z</time>
      </trkpt>
      <trkpt lat="42.76761" lon="-0.11623">
        <ele>1984.3890380859</ele>
        <time>2017-05-23T05:44:12Z</time>
      </trkpt>
      <trkpt lat="42.76763" lon="-0.11632">
        <ele>1985.1929931641</ele>
        <time>2017-05-23T05:44:28Z</time>
      </trkpt>
      <trkpt lat="42.76764" lon="-0.11642">
        <ele>1985.4689941406</ele>
        <time>2017-05-23T05:44:33Z</time>
      </trkpt>
      <trkpt lat="42.76758" lon="-0.1165">
        <ele>1986.3170166016</ele>
        <time>2017-05-23T05:44:47Z</time>
      </trkpt>
      <trkpt lat="42.76762" lon="-0.1166">
        <ele>1986.7559814453</ele>
        <time>2017-05-23T05:44:54Z</time>
      </trkpt>
      <trkpt lat="42.76766" lon="-0.11672">
        <ele>1987.6309814453</ele>
        <time>2017-05-23T05:45:08Z</time>
      </trkpt>
      <trkpt lat="42.76768" lon="-0.11682">
        <ele>1988.1629638672</ele>
        <time>2017-05-23T05:45:16Z</time>
      </trkpt>
      <trkpt lat="42.7677" lon="-0.11692">
        <ele>1988.9129638672</ele>
        <time>2017-05-23T05:45:27Z</time>
      </trkpt>
      <trkpt lat="42.7677" lon="-0.11703">
        <ele>1989.8940429688</ele>
        <time>2017-05-23T05:45:40Z</time>
      </trkpt>
      <trkpt lat="42.76767" lon="-0.11714">
        <ele>1990.8630371094</ele>
        <time>2017-05-23T05:45:52Z</time>
      </trkpt>
      <trkpt lat="42.76764" lon="-0.11723">
        <ele>1991.5930175781</ele>
        <time>2017-05-23T05:46:01Z</time>
      </trkpt>
      <trkpt lat="42.76766" lon="-0.11733">
        <ele>1992.3439941406</ele>
        <time>2017-05-23T05:46:11Z</time>
      </trkpt>
      <trkpt lat="42.7677" lon="-0.11743">
        <ele>1992.9670410156</ele>
        <time>2017-05-23T05:46:20Z</time>
      </trkpt>
      <trkpt lat="42.76773" lon="-0.11752">
        <ele>1994.0980224609</ele>
        <time>2017-05-23T05:46:37Z</time>
      </trkpt>
      <trkpt lat="42.76779" lon="-0.11761">
        <ele>1995.1259765625</ele>
        <time>2017-05-23T05:46:55Z</time>
      </trkpt>
      <trkpt lat="42.76786" lon="-0.11764">
        <ele>1995.5920410156</ele>
        <time>2017-05-23T05:47:04Z</time>
      </trkpt>
      <trkpt lat="42.76794" lon="-0.11763">
        <ele>1995.8840332031</ele>
        <time>2017-05-23T05:47:11Z</time>
      </trkpt>
      <trkpt lat="42.76802" lon="-0.11763">
        <ele>1996.4040527344</ele>
        <time>2017-05-23T05:47:21Z</time>
      </trkpt>
      <trkpt lat="42.76809" lon="-0.1176">
        <ele>1996.5560302734</ele>
        <time>2017-05-23T05:47:33Z</time>
      </trkpt>
      <trkpt lat="42.76816" lon="-0.11755">
        <ele>1997.9310302734</ele>
        <time>2017-05-23T05:47:44Z</time>
      </trkpt>
      <trkpt lat="42.76822" lon="-0.11749">
        <ele>1999.7290039062</ele>
        <time>2017-05-23T05:47:55Z</time>
      </trkpt>
      <trkpt lat="42.7683" lon="-0.11747">
        <ele>2001.0589599609</ele>
        <time>2017-05-23T05:48:02Z</time>
      </trkpt>
      <trkpt lat="42.76838" lon="-0.11743">
        <ele>2002.3210449219</ele>
        <time>2017-05-23T05:48:09Z</time>
      </trkpt>
      <trkpt lat="42.76845" lon="-0.11738">
        <ele>2003.5649414062</ele>
        <time>2017-05-23T05:48:16Z</time>
      </trkpt>
      <trkpt lat="42.76851" lon="-0.11733">
        <ele>2004.3919677734</ele>
        <time>2017-05-23T05:48:21Z</time>
      </trkpt>
      <trkpt lat="42.76857" lon="-0.11726">
        <ele>2005.8330078125</ele>
        <time>2017-05-23T05:48:30Z</time>
      </trkpt>
      <trkpt lat="42.76863" lon="-0.1172">
        <ele>2007.1910400391</ele>
        <time>2017-05-23T05:48:38Z</time>
      </trkpt>
      <trkpt lat="42.76868" lon="-0.11713">
        <ele>2008.6149902344</ele>
        <time>2017-05-23T05:48:45Z</time>
      </trkpt>
      <trkpt lat="42.76875" lon="-0.11709">
        <ele>2010.4749755859</ele>
        <time>2017-05-23T05:48:53Z</time>
      </trkpt>
      <trkpt lat="42.76882" lon="-0.11704">
        <ele>2013.4219970703</ele>
        <time>2017-05-23T05:49:03Z</time>
      </trkpt>
      <trkpt lat="42.76889" lon="-0.11699">
        <ele>2017.0050048828</ele>
        <time>2017-05-23T05:49:15Z</time>
      </trkpt>
      <trkpt lat="42.76896" lon="-0.11697">
        <ele>2018.8919677734</ele>
        <time>2017-05-23T05:49:21Z</time>
      </trkpt>
      <trkpt lat="42.76903" lon="-0.11692">
        <ele>2021.1369628906</ele>
        <time>2017-05-23T05:49:28Z</time>
      </trkpt>
      <trkpt lat="42.76909" lon="-0.11687">
        <ele>2027.1440429688</ele>
        <time>2017-05-23T05:49:47Z</time>
      </trkpt>
      <trkpt lat="42.76917" lon="-0.11685">
        <ele>2029.1669921875</ele>
        <time>2017-05-23T05:49:54Z</time>
      </trkpt>
      <trkpt lat="42.76932" lon="-0.1168">
        <ele>2031.7399902344</ele>
        <time>2017-05-23T05:50:04Z</time>
      </trkpt>
      <trkpt lat="42.76939" lon="-0.11681">
        <ele>2034.3950195312</ele>
        <time>2017-05-23T05:50:14Z</time>
      </trkpt>
      <trkpt lat="42.76947" lon="-0.11679">
        <ele>2039.0550537109</ele>
        <time>2017-05-23T05:50:29Z</time>
      </trkpt>
      <trkpt lat="42.76954" lon="-0.11676">
        <ele>2040.6920166016</ele>
        <time>2017-05-23T05:50:34Z</time>
      </trkpt>
      <trkpt lat="42.76958" lon="-0.11667">
        <ele>2042.9410400391</ele>
        <time>2017-05-23T05:50:41Z</time>
      </trkpt>
      <trkpt lat="42.76966" lon="-0.11665">
        <ele>2047.6130371094</ele>
        <time>2017-05-23T05:50:53Z</time>
      </trkpt>
      <trkpt lat="42.76982" lon="-0.11662">
        <ele>2054.7080078125</ele>
        <time>2017-05-23T05:51:05Z</time>
      </trkpt>
      <trkpt lat="42.76987" lon="-0.11655">
        <ele>2061.2260742188</ele>
        <time>2017-05-23T05:51:14Z</time>
      </trkpt>
      <trkpt lat="42.76995" lon="-0.11657">
        <ele>2067.7829589844</ele>
        <time>2017-05-23T05:51:22Z</time>
      </trkpt>
      <trkpt lat="42.77003" lon="-0.11659">
        <ele>2074.8920898438</ele>
        <time>2017-05-23T05:51:30Z</time>
      </trkpt>
      <trkpt lat="42.7701" lon="-0.11663">
        <ele>2082.537109375</ele>
        <time>2017-05-23T05:51:38Z</time>
      </trkpt>
      <trkpt lat="42.77018" lon="-0.11664">
        <ele>2088.2041015625</ele>
        <time>2017-05-23T05:51:45Z</time>
      </trkpt>
      <trkpt lat="42.77018" lon="-0.11673">
        <ele>2101.3940429688</ele>
        <time>2017-05-23T05:52:07Z</time>
      </trkpt>
      <trkpt lat="42.77026" lon="-0.11674">
        <ele>2135.2290039062</ele>
        <time>2017-05-23T05:52:40Z</time>
      </trkpt>
      <trkpt lat="42.77033" lon="-0.1167">
        <ele>2154.2160644531</ele>
        <time>2017-05-23T05:52:51Z</time>
      </trkpt>
      <trkpt lat="42.7704" lon="-0.11665">
        <ele>2164.7690429688</ele>
        <time>2017-05-23T05:52:57Z</time>
      </trkpt>
      <trkpt lat="42.77048" lon="-0.11667">
        <ele>2176.3139648438</ele>
        <time>2017-05-23T05:53:04Z</time>
      </trkpt>
      <trkpt lat="42.77055" lon="-0.11665">
        <ele>2183.7570800781</ele>
        <time>2017-05-23T05:53:09Z</time>
      </trkpt>
      <trkpt lat="42.77063" lon="-0.11665">
        <ele>2190.6750488281</ele>
        <time>2017-05-23T05:53:15Z</time>
      </trkpt>
      <trkpt lat="42.7707" lon="-0.1167">
        <ele>2205.1340332031</ele>
        <time>2017-05-23T05:53:28Z</time>
      </trkpt>
      <trkpt lat="42.77078" lon="-0.11672">
        <ele>2215.6311035156</ele>
        <time>2017-05-23T05:53:40Z</time>
      </trkpt>
      <trkpt lat="42.77087" lon="-0.11669">
        <ele>2225.1931152344</ele>
        <time>2017-05-23T05:53:54Z</time>
      </trkpt>
      <trkpt lat="42.77094" lon="-0.11672">
        <ele>2230.4069824219</ele>
        <time>2017-05-23T05:54:04Z</time>
      </trkpt>
      <trkpt lat="42.77102" lon="-0.11673">
        <ele>2233.5500488281</ele>
        <time>2017-05-23T05:54:15Z</time>
      </trkpt>
      <trkpt lat="42.7711" lon="-0.11673">
        <ele>2234.1450195312</ele>
        <time>2017-05-23T05:54:22Z</time>
      </trkpt>
      <trkpt lat="42.77118" lon="-0.11676">
        <ele>2231.1279296875</ele>
        <time>2017-05-23T05:54:40Z</time>
      </trkpt>
      <trkpt lat="42.77127" lon="-0.11682">
        <ele>2226.7709960938</ele>
        <time>2017-05-23T05:54:53Z</time>
      </trkpt>
      <trkpt lat="42.77135" lon="-0.11681">
        <ele>2223.2629394531</ele>
        <time>2017-05-23T05:55:04Z</time>
      </trkpt>
      <trkpt lat="42.77141" lon="-0.11675">
        <ele>2220.8811035156</ele>
        <time>2017-05-23T05:55:11Z</time>
      </trkpt>
      <trkpt lat="42.77149" lon="-0.11678">
        <ele>2216.7570800781</ele>
        <time>2017-05-23T05:55:28Z</time>
      </trkpt>
      <trkpt lat="42.77155" lon="-0.11687">
        <ele>2215.2548828125</ele>
        <time>2017-05-23T05:55:35Z</time>
      </trkpt>
      <trkpt lat="42.77162" lon="-0.11695">
        <ele>2213.4938964844</ele>
        <time>2017-05-23T05:55:43Z</time>
      </trkpt>
      <trkpt lat="42.77158" lon="-0.11704">
        <ele>2210.3859863281</ele>
        <time>2017-05-23T05:55:56Z</time>
      </trkpt>
      <trkpt lat="42.77158" lon="-0.11715">
        <ele>2205.5590820312</ele>
        <time>2017-05-23T05:56:10Z</time>
      </trkpt>
      <trkpt lat="42.7716" lon="-0.11724">
        <ele>2200.5510253906</ele>
        <time>2017-05-23T05:56:26Z</time>
      </trkpt>
      <trkpt lat="42.77167" lon="-0.11729">
        <ele>2197.6889648438</ele>
        <time>2017-05-23T05:56:39Z</time>
      </trkpt>
      <trkpt lat="42.77175" lon="-0.11733">
        <ele>2195.3510742188</ele>
        <time>2017-05-23T05:56:54Z</time>
      </trkpt>
      <trkpt lat="42.77182" lon="-0.1173">
        <ele>2194.0581054688</ele>
        <time>2017-05-23T05:57:06Z</time>
      </trkpt>
      <trkpt lat="42.77189" lon="-0.11736">
        <ele>2192.6149902344</ele>
        <time>2017-05-23T05:57:28Z</time>
      </trkpt>
      <trkpt lat="42.77188" lon="-0.11747">
        <ele>2191.87890625</ele>
        <time>2017-05-23T05:57:34Z</time>
      </trkpt>
      <trkpt lat="42.77195" lon="-0.11741">
        <ele>2189.7028808594</ele>
        <time>2017-05-23T05:58:01Z</time>
      </trkpt>
      <trkpt lat="42.77199" lon="-0.11732">
        <ele>2188.4499511719</ele>
        <time>2017-05-23T05:58:15Z</time>
      </trkpt>
      <trkpt lat="42.77204" lon="-0.11724">
        <ele>2187.0930175781</ele>
        <time>2017-05-23T05:58:29Z</time>
      </trkpt>
      <trkpt lat="42.77209" lon="-0.11716">
        <ele>2184.7241210938</ele>
        <time>2017-05-23T05:58:54Z</time>
      </trkpt>
      <trkpt lat="42.77212" lon="-0.11707">
        <ele>2184.2709960938</ele>
        <time>2017-05-23T05:59:21Z</time>
      </trkpt>
      <trkpt lat="42.77218" lon="-0.11701">
        <ele>2183.9870605469</ele>
        <time>2017-05-23T05:59:35Z</time>
      </trkpt>
      <trkpt lat="42.77221" lon="-0.11692">
        <ele>2183.8798828125</ele>
        <time>2017-05-23T05:59:51Z</time>
      </trkpt>
      <trkpt lat="42.77228" lon="-0.11695">
        <ele>2184.3610839844</ele>
        <time>2017-05-23T06:01:02Z</time>
      </trkpt>
      <trkpt lat="42.77231" lon="-0.11705">
        <ele>2184.37890625</ele>
        <time>2017-05-23T06:01:10Z</time>
      </trkpt>
      <trkpt lat="42.77234" lon="-0.11715">
        <ele>2184.3630371094</ele>
        <time>2017-05-23T06:01:18Z</time>
      </trkpt>
      <trkpt lat="42.77236" lon="-0.11725">
        <ele>2184.5480957031</ele>
        <time>2017-05-23T06:02:18Z</time>
      </trkpt>
      <trkpt lat="42.77242" lon="-0.1173">
        <ele>2184.2309570312</ele>
        <time>2017-05-23T06:02:25Z</time>
      </trkpt>
      <trkpt lat="42.7725" lon="-0.11735">
        <ele>2183.7548828125</ele>
        <time>2017-05-23T06:02:36Z</time>
      </trkpt>
      <trkpt lat="42.77255" lon="-0.11742">
        <ele>2183.4499511719</ele>
        <time>2017-05-23T06:02:47Z</time>
      </trkpt>
      <trkpt lat="42.77258" lon="-0.1175">
        <ele>2183.3168945312</ele>
        <time>2017-05-23T06:02:52Z</time>
      </trkpt>
      <trkpt lat="42.77261" lon="-0.1176">
        <ele>2183.2280273438</ele>
        <time>2017-05-23T06:03:00Z</time>
      </trkpt>
      <trkpt lat="42.77263" lon="-0.1177">
        <ele>2183.2241210938</ele>
        <time>2017-05-23T06:03:08Z</time>
      </trkpt>
      <trkpt lat="42.77262" lon="-0.1178">
        <ele>2183.3020019531</ele>
        <time>2017-05-23T06:03:28Z</time>
      </trkpt>
      <trkpt lat="42.77261" lon="-0.1179">
        <ele>2183.4050292969</ele>
        <time>2017-05-23T06:03:54Z</time>
      </trkpt>
      <trkpt lat="42.77264" lon="-0.11801">
        <ele>2183.5480957031</ele>
        <time>2017-05-23T06:04:03Z</time>
      </trkpt>
      <trkpt lat="42.77266" lon="-0.1181">
        <ele>2183.6049804688</ele>
        <time>2017-05-23T06:04:08Z</time>
      </trkpt>
      <trkpt lat="42.77265" lon="-0.11821">
        <ele>2183.7109375</ele>
        <time>2017-05-23T06:04:15Z</time>
      </trkpt>
      <trkpt lat="42.77265" lon="-0.11831">
        <ele>2183.9741210938</ele>
        <time>2017-05-23T06:04:28Z</time>
      </trkpt>
      <trkpt lat="42.77264" lon="-0.11842">
        <ele>2184.0891113281</ele>
        <time>2017-05-23T06:04:33Z</time>
      </trkpt>
      <trkpt lat="42.77264" lon="-0.11852">
        <ele>2184.2819824219</ele>
        <time>2017-05-23T06:04:41Z</time>
      </trkpt>
      <trkpt lat="42.7726" lon="-0.11861">
        <ele>2184.4379882812</ele>
        <time>2017-05-23T06:04:48Z</time>
      </trkpt>
      <trkpt lat="42.77262" lon="-0.11871">
        <ele>2184.7380371094</ele>
        <time>2017-05-23T06:05:03Z</time>
      </trkpt>
      <trkpt lat="42.77268" lon="-0.11877">
        <ele>2184.8269042969</ele>
        <time>2017-05-23T06:05:08Z</time>
      </trkpt>
      <trkpt lat="42.77274" lon="-0.11885">
        <ele>2184.9250488281</ele>
        <time>2017-05-23T06:05:13Z</time>
      </trkpt>
      <trkpt lat="42.77279" lon="-0.11893">
        <ele>2185.2170410156</ele>
        <time>2017-05-23T06:05:24Z</time>
      </trkpt>
      <trkpt lat="42.77283" lon="-0.11902">
        <ele>2185.6110839844</ele>
        <time>2017-05-23T06:05:39Z</time>
      </trkpt>
      <trkpt lat="42.77282" lon="-0.11912">
        <ele>2185.7309570312</ele>
        <time>2017-05-23T06:05:45Z</time>
      </trkpt>
      <trkpt lat="42.77275" lon="-0.11918">
        <ele>2185.8149414062</ele>
        <time>2017-05-23T06:05:51Z</time>
      </trkpt>
      <trkpt lat="42.77269" lon="-0.11923">
        <ele>2185.9929199219</ele>
        <time>2017-05-23T06:06:00Z</time>
      </trkpt>
      <trkpt lat="42.77262" lon="-0.11926">
        <ele>2186.2839355469</ele>
        <time>2017-05-23T06:06:11Z</time>
      </trkpt>
      <trkpt lat="42.77255" lon="-0.1193">
        <ele>2186.626953125</ele>
        <time>2017-05-23T06:06:24Z</time>
      </trkpt>
      <trkpt lat="42.7726" lon="-0.11938">
        <ele>2187.3059082031</ele>
        <time>2017-05-23T06:06:40Z</time>
      </trkpt>
      <trkpt lat="42.77267" lon="-0.11942">
        <ele>2187.8259277344</ele>
        <time>2017-05-23T06:06:57Z</time>
      </trkpt>
      <trkpt lat="42.77278" lon="-0.11947">
        <ele>2188.0390625</ele>
        <time>2017-05-23T06:07:04Z</time>
      </trkpt>
      <trkpt lat="42.77294" lon="-0.11958">
        <ele>2188.6330566406</ele>
        <time>2017-05-23T06:07:22Z</time>
      </trkpt>
      <trkpt lat="42.7729" lon="-0.11967">
        <ele>2196.7529296875</ele>
        <time>2017-05-23T06:10:00Z</time>
      </trkpt>
      <trkpt lat="42.77283" lon="-0.11971">
        <ele>2197.9489746094</ele>
        <time>2017-05-23T06:10:05Z</time>
      </trkpt>
      <trkpt lat="42.77278" lon="-0.11979">
        <ele>2199.1999511719</ele>
        <time>2017-05-23T06:10:11Z</time>
      </trkpt>
      <trkpt lat="42.77272" lon="-0.11985">
        <ele>2201.0900878906</ele>
        <time>2017-05-23T06:10:23Z</time>
      </trkpt>
      <trkpt lat="42.77265" lon="-0.11989">
        <ele>2202.8950195312</ele>
        <time>2017-05-23T06:10:35Z</time>
      </trkpt>
      <trkpt lat="42.77273" lon="-0.11993">
        <ele>2207.0791015625</ele>
        <time>2017-05-23T06:11:02Z</time>
      </trkpt>
      <trkpt lat="42.77278" lon="-0.12">
        <ele>2209.1669921875</ele>
        <time>2017-05-23T06:11:18Z</time>
      </trkpt>
      <trkpt lat="42.77272" lon="-0.12007">
        <ele>2212.5219726562</ele>
        <time>2017-05-23T06:11:53Z</time>
      </trkpt>
      <trkpt lat="42.77267" lon="-0.12015">
        <ele>2213.1909179688</ele>
        <time>2017-05-23T06:11:58Z</time>
      </trkpt>
      <trkpt lat="42.77275" lon="-0.12017">
        <ele>2215.1398925781</ele>
        <time>2017-05-23T06:12:14Z</time>
      </trkpt>
      <trkpt lat="42.77283" lon="-0.1202">
        <ele>2215.7329101562</ele>
        <time>2017-05-23T06:12:21Z</time>
      </trkpt>
      <trkpt lat="42.77286" lon="-0.12029">
        <ele>2217.3930664062</ele>
        <time>2017-05-23T06:12:44Z</time>
      </trkpt>
      <trkpt lat="42.77277" lon="-0.12034">
        <ele>2221.1311035156</ele>
        <time>2017-05-23T06:13:17Z</time>
      </trkpt>
      <trkpt lat="42.77284" lon="-0.12039">
        <ele>2225.3459472656</ele>
        <time>2017-05-23T06:13:42Z</time>
      </trkpt>
      <trkpt lat="42.77284" lon="-0.12049">
        <ele>2228.0400390625</ele>
        <time>2017-05-23T06:14:02Z</time>
      </trkpt>
      <trkpt lat="42.77279" lon="-0.12056">
        <ele>2230.2829589844</ele>
        <time>2017-05-23T06:14:21Z</time>
      </trkpt>
      <trkpt lat="42.77284" lon="-0.12065">
        <ele>2232.20703125</ele>
        <time>2017-05-23T06:14:36Z</time>
      </trkpt>
      <trkpt lat="42.77281" lon="-0.12073">
        <ele>2235.4809570312</ele>
        <time>2017-05-23T06:15:10Z</time>
      </trkpt>
      <trkpt lat="42.77287" lon="-0.12082">
        <ele>2240.1169433594</ele>
        <time>2017-05-23T06:15:48Z</time>
      </trkpt>
      <trkpt lat="42.77292" lon="-0.1209">
        <ele>2241.4089355469</ele>
        <time>2017-05-23T06:16:03Z</time>
      </trkpt>
      <trkpt lat="42.77286" lon="-0.12085">
        <ele>2243.1630859375</ele>
        <time>2017-05-23T06:16:23Z</time>
      </trkpt>
      <trkpt lat="42.77278" lon="-0.12087">
        <ele>2243.9560546875</ele>
        <time>2017-05-23T06:16:30Z</time>
      </trkpt>
      <trkpt lat="42.7728" lon="-0.12096">
        <ele>2247.4169921875</ele>
        <time>2017-05-23T06:17:07Z</time>
      </trkpt>
      <trkpt lat="42.77275" lon="-0.12103">
        <ele>2251.0969238281</ele>
        <time>2017-05-23T06:17:53Z</time>
      </trkpt>
      <trkpt lat="42.77277" lon="-0.12113">
        <ele>2252.8520507812</ele>
        <time>2017-05-23T06:18:06Z</time>
      </trkpt>
      <trkpt lat="42.77282" lon="-0.1212">
        <ele>2254.9270019531</ele>
        <time>2017-05-23T06:18:27Z</time>
      </trkpt>
      <trkpt lat="42.77284" lon="-0.12129">
        <ele>2256.2770996094</ele>
        <time>2017-05-23T06:18:41Z</time>
      </trkpt>
      <trkpt lat="42.77278" lon="-0.12123">
        <ele>2257.6130371094</ele>
        <time>2017-05-23T06:18:54Z</time>
      </trkpt>
      <trkpt lat="42.77271" lon="-0.12119">
        <ele>2260.1120605469</ele>
        <time>2017-05-23T06:19:23Z</time>
      </trkpt>
      <trkpt lat="42.77273" lon="-0.12129">
        <ele>2261.1120605469</ele>
        <time>2017-05-23T06:19:35Z</time>
      </trkpt>
      <trkpt lat="42.77265" lon="-0.12125">
        <ele>2263.2260742188</ele>
        <time>2017-05-23T06:20:02Z</time>
      </trkpt>
      <trkpt lat="42.7726" lon="-0.12119">
        <ele>2264.2299804688</ele>
        <time>2017-05-23T06:20:12Z</time>
      </trkpt>
      <trkpt lat="42.77252" lon="-0.12119">
        <ele>2265.875</ele>
        <time>2017-05-23T06:20:27Z</time>
      </trkpt>
      <trkpt lat="42.77249" lon="-0.1211">
        <ele>2267.373046875</ele>
        <time>2017-05-23T06:20:49Z</time>
      </trkpt>
      <trkpt lat="42.77242" lon="-0.12114">
        <ele>2270.6840820312</ele>
        <time>2017-05-23T06:21:16Z</time>
      </trkpt>
      <trkpt lat="42.77235" lon="-0.12119">
        <ele>2271.6750488281</ele>
        <time>2017-05-23T06:21:23Z</time>
      </trkpt>
      <trkpt lat="42.77229" lon="-0.12123">
        <ele>2273.1220703125</ele>
        <time>2017-05-23T06:21:33Z</time>
      </trkpt>
      <trkpt lat="42.77222" lon="-0.12119">
        <ele>2274.5910644531</ele>
        <time>2017-05-23T06:21:42Z</time>
      </trkpt>
      <trkpt lat="42.77221" lon="-0.12109">
        <ele>2277.126953125</ele>
        <time>2017-05-23T06:22:01Z</time>
      </trkpt>
      <trkpt lat="42.77216" lon="-0.12116">
        <ele>2283.8979492188</ele>
        <time>2017-05-23T06:22:58Z</time>
      </trkpt>
      <trkpt lat="42.77214" lon="-0.12125">
        <ele>2296.1918945312</ele>
        <time>2017-05-23T06:24:10Z</time>
      </trkpt>
      <trkpt lat="42.77208" lon="-0.1212">
        <ele>2299.2639160156</ele>
        <time>2017-05-23T06:24:30Z</time>
      </trkpt>
      <trkpt lat="42.77214" lon="-0.12115">
        <ele>2305.0390625</ele>
        <time>2017-05-23T06:26:19Z</time>
      </trkpt>
      <trkpt lat="42.77217" lon="-0.12124">
        <ele>2308.8200683594</ele>
        <time>2017-05-23T06:26:50Z</time>
      </trkpt>
      <trkpt lat="42.77224" lon="-0.12129">
        <ele>2310.6489257812</ele>
        <time>2017-05-23T06:27:04Z</time>
      </trkpt>
      <trkpt lat="42.77228" lon="-0.12137">
        <ele>2311.748046875</ele>
        <time>2017-05-23T06:27:14Z</time>
      </trkpt>
      <trkpt lat="42.77232" lon="-0.12146">
        <ele>2312.8139648438</ele>
        <time>2017-05-23T06:27:27Z</time>
      </trkpt>
      <trkpt lat="42.77229" lon="-0.12156">
        <ele>2314.8759765625</ele>
        <time>2017-05-23T06:27:58Z</time>
      </trkpt>
      <trkpt lat="42.77223" lon="-0.12161">
        <ele>2315.3889160156</ele>
        <time>2017-05-23T06:28:07Z</time>
      </trkpt>
      <trkpt lat="42.77216" lon="-0.12165">
        <ele>2316.0969238281</ele>
        <time>2017-05-23T06:28:18Z</time>
      </trkpt>
      <trkpt lat="42.77222" lon="-0.12172">
        <ele>2318.5849609375</ele>
        <time>2017-05-23T06:29:02Z</time>
      </trkpt>
      <trkpt lat="42.77228" lon="-0.12178">
        <ele>2319.4099121094</ele>
        <time>2017-05-23T06:29:16Z</time>
      </trkpt>
      <trkpt lat="42.77222" lon="-0.12183">
        <ele>2321.0891113281</ele>
        <time>2017-05-23T06:29:43Z</time>
      </trkpt>
      <trkpt lat="42.77214" lon="-0.12185">
        <ele>2321.919921875</ele>
        <time>2017-05-23T06:29:54Z</time>
      </trkpt>
      <trkpt lat="42.77221" lon="-0.1219">
        <ele>2323.8459472656</ele>
        <time>2017-05-23T06:30:20Z</time>
      </trkpt>
      <trkpt lat="42.77215" lon="-0.12197">
        <ele>2325.5520019531</ele>
        <time>2017-05-23T06:30:52Z</time>
      </trkpt>
      <trkpt lat="42.77207" lon="-0.12196">
        <ele>2326.8090820312</ele>
        <time>2017-05-23T06:31:05Z</time>
      </trkpt>
      <trkpt lat="42.77199" lon="-0.12193">
        <ele>2327.7109375</ele>
        <time>2017-05-23T06:31:14Z</time>
      </trkpt>
      <trkpt lat="42.77192" lon="-0.12194">
        <ele>2329.45703125</ele>
        <time>2017-05-23T06:31:40Z</time>
      </trkpt>
      <trkpt lat="42.77195" lon="-0.12204">
        <ele>2331.7009277344</ele>
        <time>2017-05-23T06:32:21Z</time>
      </trkpt>
      <trkpt lat="42.77199" lon="-0.12213">
        <ele>2333.5190429688</ele>
        <time>2017-05-23T06:32:34Z</time>
      </trkpt>
      <trkpt lat="42.77201" lon="-0.12222">
        <ele>2335.1721191406</ele>
        <time>2017-05-23T06:32:46Z</time>
      </trkpt>
      <trkpt lat="42.77209" lon="-0.12225">
        <ele>2337.4650878906</ele>
        <time>2017-05-23T06:33:03Z</time>
      </trkpt>
      <trkpt lat="42.77217" lon="-0.12227">
        <ele>2338.8898925781</ele>
        <time>2017-05-23T06:33:24Z</time>
      </trkpt>
      <trkpt lat="42.77217" lon="-0.12238">
        <ele>2342.1599121094</ele>
        <time>2017-05-23T06:33:50Z</time>
      </trkpt>
      <trkpt lat="42.77209" lon="-0.1224">
        <ele>2345.1931152344</ele>
        <time>2017-05-23T06:34:06Z</time>
      </trkpt>
      <trkpt lat="42.77202" lon="-0.12238">
        <ele>2348.0949707031</ele>
        <time>2017-05-23T06:34:18Z</time>
      </trkpt>
      <trkpt lat="42.77195" lon="-0.12235">
        <ele>2350.5490722656</ele>
        <time>2017-05-23T06:34:28Z</time>
      </trkpt>
      <trkpt lat="42.77188" lon="-0.1223">
        <ele>2353.294921875</ele>
        <time>2017-05-23T06:34:40Z</time>
      </trkpt>
      <trkpt lat="42.77183" lon="-0.12238">
        <ele>2358.8168945312</ele>
        <time>2017-05-23T06:35:16Z</time>
      </trkpt>
      <trkpt lat="42.77185" lon="-0.12248">
        <ele>2361.9560546875</ele>
        <time>2017-05-23T06:35:29Z</time>
      </trkpt>
      <trkpt lat="42.77187" lon="-0.12258">
        <ele>2364.9619140625</ele>
        <time>2017-05-23T06:35:43Z</time>
      </trkpt>
      <trkpt lat="42.7719" lon="-0.12267">
        <ele>2367.2548828125</ele>
        <time>2017-05-23T06:35:56Z</time>
      </trkpt>
      <trkpt lat="42.77193" lon="-0.12276">
        <ele>2370.7919921875</ele>
        <time>2017-05-23T06:36:17Z</time>
      </trkpt>
      <trkpt lat="42.77188" lon="-0.12268">
        <ele>2377.6110839844</ele>
        <time>2017-05-23T06:36:51Z</time>
      </trkpt>
      <trkpt lat="42.7718" lon="-0.12265">
        <ele>2379.2570800781</ele>
        <time>2017-05-23T06:36:58Z</time>
      </trkpt>
      <trkpt lat="42.77173" lon="-0.12263">
        <ele>2380.83203125</ele>
        <time>2017-05-23T06:37:05Z</time>
      </trkpt>
      <trkpt lat="42.77175" lon="-0.12272">
        <ele>2383.0581054688</ele>
        <time>2017-05-23T06:37:20Z</time>
      </trkpt>
      <trkpt lat="42.77178" lon="-0.12283">
        <ele>2386.0920410156</ele>
        <time>2017-05-23T06:37:32Z</time>
      </trkpt>
      <trkpt lat="42.77182" lon="-0.12291">
        <ele>2389.625</ele>
        <time>2017-05-23T06:37:47Z</time>
      </trkpt>
      <trkpt lat="42.77175" lon="-0.12292">
        <ele>2396.1770019531</ele>
        <time>2017-05-23T06:38:25Z</time>
      </trkpt>
      <trkpt lat="42.77168" lon="-0.12287">
        <ele>2398.0920410156</ele>
        <time>2017-05-23T06:38:36Z</time>
      </trkpt>
      <trkpt lat="42.77162" lon="-0.12281">
        <ele>2400.0891113281</ele>
        <time>2017-05-23T06:38:48Z</time>
      </trkpt>
      <trkpt lat="42.77159" lon="-0.12292">
        <ele>2402.6359863281</ele>
        <time>2017-05-23T06:39:05Z</time>
      </trkpt>
      <trkpt lat="42.77153" lon="-0.12287">
        <ele>2405.837890625</ele>
        <time>2017-05-23T06:39:35Z</time>
      </trkpt>
      <trkpt lat="42.77153" lon="-0.12297">
        <ele>2410.0681152344</ele>
        <time>2017-05-23T06:40:12Z</time>
      </trkpt>
      <trkpt lat="42.77155" lon="-0.12307">
        <ele>2411.8579101562</ele>
        <time>2017-05-23T06:40:22Z</time>
      </trkpt>
      <trkpt lat="42.77157" lon="-0.12316">
        <ele>2414.0930175781</ele>
        <time>2017-05-23T06:40:36Z</time>
      </trkpt>
      <trkpt lat="42.77161" lon="-0.12325">
        <ele>2415.7529296875</ele>
        <time>2017-05-23T06:40:48Z</time>
      </trkpt>
      <trkpt lat="42.77167" lon="-0.12331">
        <ele>2417.2939453125</ele>
        <time>2017-05-23T06:40:59Z</time>
      </trkpt>
      <trkpt lat="42.77174" lon="-0.12336">
        <ele>2418.6770019531</ele>
        <time>2017-05-23T06:41:11Z</time>
      </trkpt>
      <trkpt lat="42.77181" lon="-0.12337">
        <ele>2420.1320800781</ele>
        <time>2017-05-23T06:41:23Z</time>
      </trkpt>
      <trkpt lat="42.77189" lon="-0.12339">
        <ele>2421.5300292969</ele>
        <time>2017-05-23T06:41:35Z</time>
      </trkpt>
      <trkpt lat="42.77194" lon="-0.12346">
        <ele>2423.0991210938</ele>
        <time>2017-05-23T06:41:59Z</time>
      </trkpt>
      <trkpt lat="42.772" lon="-0.12341">
        <ele>2426.5090332031</ele>
        <time>2017-05-23T06:43:09Z</time>
      </trkpt>
      <trkpt lat="42.77208" lon="-0.12336">
        <ele>2430.3898925781</ele>
        <time>2017-05-23T06:43:53Z</time>
      </trkpt>
      <trkpt lat="42.77211" lon="-0.12346">
        <ele>2434.2849121094</ele>
        <time>2017-05-23T06:44:50Z</time>
      </trkpt>
      <trkpt lat="42.77215" lon="-0.12354">
        <ele>2435.3869628906</ele>
        <time>2017-05-23T06:45:01Z</time>
      </trkpt>
      <trkpt lat="42.77222" lon="-0.1236">
        <ele>2436.4350585938</ele>
        <time>2017-05-23T06:45:12Z</time>
      </trkpt>
      <trkpt lat="42.77229" lon="-0.12363">
        <ele>2444.6989746094</ele>
        <time>2017-05-23T06:47:27Z</time>
      </trkpt>
      <trkpt lat="42.77236" lon="-0.12366">
        <ele>2446.7580566406</ele>
        <time>2017-05-23T06:47:42Z</time>
      </trkpt>
      <trkpt lat="42.77232" lon="-0.12375">
        <ele>2449.1049804688</ele>
        <time>2017-05-23T06:48:02Z</time>
      </trkpt>
      <trkpt lat="42.77233" lon="-0.12384">
        <ele>2450.6020507812</ele>
        <time>2017-05-23T06:48:27Z</time>
      </trkpt>
      <trkpt lat="42.77236" lon="-0.12393">
        <ele>2451.7319335938</ele>
        <time>2017-05-23T06:48:39Z</time>
      </trkpt>
      <trkpt lat="42.77236" lon="-0.12403">
        <ele>2452.9519042969</ele>
        <time>2017-05-23T06:48:53Z</time>
      </trkpt>
      <trkpt lat="42.77235" lon="-0.12413">
        <ele>2454.373046875</ele>
        <time>2017-05-23T06:49:11Z</time>
      </trkpt>
      <trkpt lat="42.77238" lon="-0.12423">
        <ele>2455.4460449219</ele>
        <time>2017-05-23T06:49:28Z</time>
      </trkpt>
      <trkpt lat="42.7724" lon="-0.12432">
        <ele>2456.2561035156</ele>
        <time>2017-05-23T06:49:43Z</time>
      </trkpt>
      <trkpt lat="42.77245" lon="-0.12439">
        <ele>2459.4680175781</ele>
        <time>2017-05-23T06:50:42Z</time>
      </trkpt>
      <trkpt lat="42.7724" lon="-0.12447">
        <ele>2461.1120605469</ele>
        <time>2017-05-23T06:51:14Z</time>
      </trkpt>
      <trkpt lat="42.77245" lon="-0.12455">
        <ele>2470.1740722656</ele>
        <time>2017-05-23T06:54:06Z</time>
      </trkpt>
      <trkpt lat="42.7724" lon="-0.12463">
        <ele>2472.0910644531</ele>
        <time>2017-05-23T06:54:21Z</time>
      </trkpt>
      <trkpt lat="42.77232" lon="-0.12464">
        <ele>2473.5290527344</ele>
        <time>2017-05-23T06:54:34Z</time>
      </trkpt>
      <trkpt lat="42.77226" lon="-0.1246">
        <ele>2474.5170898438</ele>
        <time>2017-05-23T06:54:44Z</time>
      </trkpt>
      <trkpt lat="42.77219" lon="-0.12459">
        <ele>2475.3510742188</ele>
        <time>2017-05-23T06:54:52Z</time>
      </trkpt>
      <trkpt lat="42.77211" lon="-0.12458">
        <ele>2476.3010253906</ele>
        <time>2017-05-23T06:55:02Z</time>
      </trkpt>
      <trkpt lat="42.77204" lon="-0.12455">
        <ele>2477.1169433594</ele>
        <time>2017-05-23T06:55:12Z</time>
      </trkpt>
      <trkpt lat="42.77196" lon="-0.12452">
        <ele>2477.8649902344</ele>
        <time>2017-05-23T06:55:22Z</time>
      </trkpt>
      <trkpt lat="42.7719" lon="-0.12447">
        <ele>2478.4360351562</ele>
        <time>2017-05-23T06:55:30Z</time>
      </trkpt>
      <trkpt lat="42.77184" lon="-0.1244">
        <ele>2480.6101074219</ele>
        <time>2017-05-23T06:56:25Z</time>
      </trkpt>
      <trkpt lat="42.77188" lon="-0.12449">
        <ele>2481.2060546875</ele>
        <time>2017-05-23T06:56:32Z</time>
      </trkpt>
      <trkpt lat="42.7719" lon="-0.12459">
        <ele>2481.8349609375</ele>
        <time>2017-05-23T06:56:40Z</time>
      </trkpt>
      <trkpt lat="42.77194" lon="-0.12468">
        <ele>2482.37109375</ele>
        <time>2017-05-23T06:56:47Z</time>
      </trkpt>
      <trkpt lat="42.77199" lon="-0.12476">
        <ele>2483.0639648438</ele>
        <time>2017-05-23T06:56:56Z</time>
      </trkpt>
      <trkpt lat="42.77203" lon="-0.12484">
        <ele>2483.8811035156</ele>
        <time>2017-05-23T06:57:07Z</time>
      </trkpt>
      <trkpt lat="42.77209" lon="-0.12491">
        <ele>2484.3969726562</ele>
        <time>2017-05-23T06:57:14Z</time>
      </trkpt>
      <trkpt lat="42.77213" lon="-0.125">
        <ele>2485.2390136719</ele>
        <time>2017-05-23T06:57:24Z</time>
      </trkpt>
      <trkpt lat="42.77217" lon="-0.1251">
        <ele>2486.2041015625</ele>
        <time>2017-05-23T06:57:34Z</time>
      </trkpt>
      <trkpt lat="42.7722" lon="-0.12519">
        <ele>2487.9509277344</ele>
        <time>2017-05-23T06:57:49Z</time>
      </trkpt>
      <trkpt lat="42.77225" lon="-0.12527">
        <ele>2489.251953125</ele>
        <time>2017-05-23T06:57:59Z</time>
      </trkpt>
      <trkpt lat="42.77218" lon="-0.12527">
        <ele>2491.9580078125</ele>
        <time>2017-05-23T06:58:30Z</time>
      </trkpt>
      <trkpt lat="42.7722" lon="-0.12537">
        <ele>2495.0700683594</ele>
        <time>2017-05-23T06:58:53Z</time>
      </trkpt>
      <trkpt lat="42.77218" lon="-0.12547">
        <ele>2501.74609375</ele>
        <time>2017-05-23T06:59:42Z</time>
      </trkpt>
      <trkpt lat="42.7722" lon="-0.12556">
        <ele>2504.1411132812</ele>
        <time>2017-05-23T06:59:56Z</time>
      </trkpt>
      <trkpt lat="42.77226" lon="-0.12563">
        <ele>2506.2971191406</ele>
        <time>2017-05-23T07:00:10Z</time>
      </trkpt>
      <trkpt lat="42.77234" lon="-0.12565">
        <ele>2507.3410644531</ele>
        <time>2017-05-23T07:00:17Z</time>
      </trkpt>
      <trkpt lat="42.77242" lon="-0.12564">
        <ele>2510.0581054688</ele>
        <time>2017-05-23T07:00:47Z</time>
      </trkpt>
      <trkpt lat="42.77249" lon="-0.12563">
        <ele>2512.1259765625</ele>
        <time>2017-05-23T07:00:59Z</time>
      </trkpt>
      <trkpt lat="42.77248" lon="-0.12574">
        <ele>2516.376953125</ele>
        <time>2017-05-23T07:01:23Z</time>
      </trkpt>
      <trkpt lat="42.77243" lon="-0.12583">
        <ele>2518.5329589844</ele>
        <time>2017-05-23T07:01:35Z</time>
      </trkpt>
      <trkpt lat="42.77238" lon="-0.1259">
        <ele>2520.2810058594</ele>
        <time>2017-05-23T07:01:45Z</time>
      </trkpt>
      <trkpt lat="42.77246" lon="-0.12591">
        <ele>2522.6560058594</ele>
        <time>2017-05-23T07:01:59Z</time>
      </trkpt>
      <trkpt lat="42.77254" lon="-0.12591">
        <ele>2524.20703125</ele>
        <time>2017-05-23T07:02:09Z</time>
      </trkpt>
      <trkpt lat="42.77261" lon="-0.12591">
        <ele>2525.4050292969</ele>
        <time>2017-05-23T07:02:17Z</time>
      </trkpt>
      <trkpt lat="42.77269" lon="-0.12591">
        <ele>2526.7900390625</ele>
        <time>2017-05-23T07:02:27Z</time>
      </trkpt>
      <trkpt lat="42.77276" lon="-0.12593">
        <ele>2527.8999023438</ele>
        <time>2017-05-23T07:02:36Z</time>
      </trkpt>
      <trkpt lat="42.77283" lon="-0.12595">
        <ele>2529.7490234375</ele>
        <time>2017-05-23T07:02:53Z</time>
      </trkpt>
      <trkpt lat="42.7729" lon="-0.126">
        <ele>2531.5439453125</ele>
        <time>2017-05-23T07:03:28Z</time>
      </trkpt>
      <trkpt lat="42.77296" lon="-0.12604">
        <ele>2532.9350585938</ele>
        <time>2017-05-23T07:03:41Z</time>
      </trkpt>
      <trkpt lat="42.77304" lon="-0.12607">
        <ele>2533.7199707031</ele>
        <time>2017-05-23T07:03:49Z</time>
      </trkpt>
      <trkpt lat="42.77311" lon="-0.12611">
        <ele>2535.1489257812</ele>
        <time>2017-05-23T07:04:02Z</time>
      </trkpt>
      <trkpt lat="42.77304" lon="-0.12614">
        <ele>2537.2880859375</ele>
        <time>2017-05-23T07:04:21Z</time>
      </trkpt>
      <trkpt lat="42.77296" lon="-0.12616">
        <ele>2541.5119628906</ele>
        <time>2017-05-23T07:05:22Z</time>
      </trkpt>
      <trkpt lat="42.77289" lon="-0.12621">
        <ele>2543.4528808594</ele>
        <time>2017-05-23T07:05:30Z</time>
      </trkpt>
      <trkpt lat="42.77282" lon="-0.12627">
        <ele>2545.1931152344</ele>
        <time>2017-05-23T07:05:38Z</time>
      </trkpt>
      <trkpt lat="42.77276" lon="-0.12632">
        <ele>2547.5720214844</ele>
        <time>2017-05-23T07:05:50Z</time>
      </trkpt>
      <trkpt lat="42.77269" lon="-0.12638">
        <ele>2549.0739746094</ele>
        <time>2017-05-23T07:05:58Z</time>
      </trkpt>
      <trkpt lat="42.77264" lon="-0.12644">
        <ele>2550.6708984375</ele>
        <time>2017-05-23T07:06:07Z</time>
      </trkpt>
      <trkpt lat="42.77258" lon="-0.12649">
        <ele>2552.3659667969</ele>
        <time>2017-05-23T07:06:17Z</time>
      </trkpt>
      <trkpt lat="42.77253" lon="-0.12657">
        <ele>2555.2729492188</ele>
        <time>2017-05-23T07:06:58Z</time>
      </trkpt>
      <trkpt lat="42.77245" lon="-0.12659">
        <ele>2558.1420898438</ele>
        <time>2017-05-23T07:07:20Z</time>
      </trkpt>
      <trkpt lat="42.77238" lon="-0.12662">
        <ele>2559.6259765625</ele>
        <time>2017-05-23T07:07:29Z</time>
      </trkpt>
      <trkpt lat="42.77232" lon="-0.12669">
        <ele>2561.5400390625</ele>
        <time>2017-05-23T07:07:42Z</time>
      </trkpt>
      <trkpt lat="42.77225" lon="-0.12675">
        <ele>2562.7370605469</ele>
        <time>2017-05-23T07:07:51Z</time>
      </trkpt>
      <trkpt lat="42.77218" lon="-0.12676">
        <ele>2563.8740234375</ele>
        <time>2017-05-23T07:08:00Z</time>
      </trkpt>
      <trkpt lat="42.77211" lon="-0.12674">
        <ele>2564.8291015625</ele>
        <time>2017-05-23T07:08:08Z</time>
      </trkpt>
      <trkpt lat="42.77203" lon="-0.12674">
        <ele>2565.9951171875</ele>
        <time>2017-05-23T07:08:18Z</time>
      </trkpt>
      <trkpt lat="42.77196" lon="-0.1267">
        <ele>2567.2670898438</ele>
        <time>2017-05-23T07:08:30Z</time>
      </trkpt>
      <trkpt lat="42.77188" lon="-0.12667">
        <ele>2568.1999511719</ele>
        <time>2017-05-23T07:08:40Z</time>
      </trkpt>
      <trkpt lat="42.77181" lon="-0.12666">
        <ele>2569.3630371094</ele>
        <time>2017-05-23T07:08:54Z</time>
      </trkpt>
      <trkpt lat="42.77173" lon="-0.12664">
        <ele>2570.7600097656</ele>
        <time>2017-05-23T07:09:32Z</time>
      </trkpt>
      <trkpt lat="42.77165" lon="-0.12665">
        <ele>2571.6489257812</ele>
        <time>2017-05-23T07:09:41Z</time>
      </trkpt>
      <trkpt lat="42.77158" lon="-0.12668">
        <ele>2572.1311035156</ele>
        <time>2017-05-23T07:09:46Z</time>
      </trkpt>
      <trkpt lat="42.77158" lon="-0.1268">
        <ele>2573.5249023438</ele>
        <time>2017-05-23T07:10:00Z</time>
      </trkpt>
      <trkpt lat="42.77162" lon="-0.12688">
        <ele>2574.1879882812</ele>
        <time>2017-05-23T07:10:07Z</time>
      </trkpt>
      <trkpt lat="42.77163" lon="-0.12698">
        <ele>2586.5600585938</ele>
        <time>2017-05-23T07:14:06Z</time>
      </trkpt>
      <trkpt lat="42.77166" lon="-0.12707">
        <ele>2588.5339355469</ele>
        <time>2017-05-23T07:14:16Z</time>
      </trkpt>
      <trkpt lat="42.7717" lon="-0.12717">
        <ele>2590.4790039062</ele>
        <time>2017-05-23T07:14:28Z</time>
      </trkpt>
      <trkpt lat="42.77173" lon="-0.12725">
        <ele>2592.0629882812</ele>
        <time>2017-05-23T07:14:40Z</time>
      </trkpt>
      <trkpt lat="42.77179" lon="-0.12732">
        <ele>2593.0590820312</ele>
        <time>2017-05-23T07:14:49Z</time>
      </trkpt>
      <trkpt lat="42.77184" lon="-0.1274">
        <ele>2594.1520996094</ele>
        <time>2017-05-23T07:15:03Z</time>
      </trkpt>
      <trkpt lat="42.7719" lon="-0.12748">
        <ele>2595.0109863281</ele>
        <time>2017-05-23T07:15:13Z</time>
      </trkpt>
      <trkpt lat="42.77197" lon="-0.12752">
        <ele>2595.7160644531</ele>
        <time>2017-05-23T07:15:22Z</time>
      </trkpt>
      <trkpt lat="42.77203" lon="-0.12757">
        <ele>2596.4440917969</ele>
        <time>2017-05-23T07:15:32Z</time>
      </trkpt>
      <trkpt lat="42.7721" lon="-0.12761">
        <ele>2597.2800292969</ele>
        <time>2017-05-23T07:15:43Z</time>
      </trkpt>
      <trkpt lat="42.77217" lon="-0.12765">
        <ele>2598.0659179688</ele>
        <time>2017-05-23T07:15:53Z</time>
      </trkpt>
      <trkpt lat="42.77224" lon="-0.12768">
        <ele>2598.998046875</ele>
        <time>2017-05-23T07:16:05Z</time>
      </trkpt>
      <trkpt lat="42.77232" lon="-0.12769">
        <ele>2599.6750488281</ele>
        <time>2017-05-23T07:16:14Z</time>
      </trkpt>
      <trkpt lat="42.77239" lon="-0.12771">
        <ele>2600.6831054688</ele>
        <time>2017-05-23T07:16:27Z</time>
      </trkpt>
      <trkpt lat="42.77232" lon="-0.12777">
        <ele>2603.2109375</ele>
        <time>2017-05-23T07:16:56Z</time>
      </trkpt>
      <trkpt lat="42.77225" lon="-0.1278">
        <ele>2604.1569824219</ele>
        <time>2017-05-23T07:17:04Z</time>
      </trkpt>
      <trkpt lat="42.77217" lon="-0.12783">
        <ele>2605.5048828125</ele>
        <time>2017-05-23T07:17:15Z</time>
      </trkpt>
      <trkpt lat="42.77211" lon="-0.12787">
        <ele>2606.7009277344</ele>
        <time>2017-05-23T07:17:25Z</time>
      </trkpt>
      <trkpt lat="42.77212" lon="-0.12798">
        <ele>2608.9279785156</ele>
        <time>2017-05-23T07:17:46Z</time>
      </trkpt>
      <trkpt lat="42.7722" lon="-0.12801">
        <ele>2610.0349121094</ele>
        <time>2017-05-23T07:17:55Z</time>
      </trkpt>
      <trkpt lat="42.77227" lon="-0.12802">
        <ele>2611.3920898438</ele>
        <time>2017-05-23T07:18:06Z</time>
      </trkpt>
      <trkpt lat="42.77234" lon="-0.12804">
        <ele>2612.9370117188</ele>
        <time>2017-05-23T07:18:18Z</time>
      </trkpt>
      <trkpt lat="42.77242" lon="-0.12806">
        <ele>2614.7099609375</ele>
        <time>2017-05-23T07:18:30Z</time>
      </trkpt>
      <trkpt lat="42.77249" lon="-0.12809">
        <ele>2616.4418945312</ele>
        <time>2017-05-23T07:18:41Z</time>
      </trkpt>
      <trkpt lat="42.77242" lon="-0.12813">
        <ele>2623.4829101562</ele>
        <time>2017-05-23T07:20:32Z</time>
      </trkpt>
      <trkpt lat="42.77236" lon="-0.12818">
        <ele>2625.5649414062</ele>
        <time>2017-05-23T07:20:41Z</time>
      </trkpt>
      <trkpt lat="42.7723" lon="-0.12824">
        <ele>2628.3330078125</ele>
        <time>2017-05-23T07:20:55Z</time>
      </trkpt>
      <trkpt lat="42.77223" lon="-0.12828">
        <ele>2630.1589355469</ele>
        <time>2017-05-23T07:21:06Z</time>
      </trkpt>
      <trkpt lat="42.77215" lon="-0.1283">
        <ele>2631.8210449219</ele>
        <time>2017-05-23T07:21:18Z</time>
      </trkpt>
      <trkpt lat="42.77208" lon="-0.12833">
        <ele>2633.1369628906</ele>
        <time>2017-05-23T07:21:28Z</time>
      </trkpt>
      <trkpt lat="42.77201" lon="-0.12838">
        <ele>2634.4709472656</ele>
        <time>2017-05-23T07:21:39Z</time>
      </trkpt>
      <trkpt lat="42.77195" lon="-0.12843">
        <ele>2635.4838867188</ele>
        <time>2017-05-23T07:21:48Z</time>
      </trkpt>
      <trkpt lat="42.77187" lon="-0.12847">
        <ele>2636.375</ele>
        <time>2017-05-23T07:21:57Z</time>
      </trkpt>
      <trkpt lat="42.77181" lon="-0.12852">
        <ele>2637.5830078125</ele>
        <time>2017-05-23T07:22:07Z</time>
      </trkpt>
      <trkpt lat="42.77172" lon="-0.12855">
        <ele>2638.6259765625</ele>
        <time>2017-05-23T07:22:17Z</time>
      </trkpt>
      <trkpt lat="42.77167" lon="-0.12862">
        <ele>2640.080078125</ele>
        <time>2017-05-23T07:22:31Z</time>
      </trkpt>
      <trkpt lat="42.7717" lon="-0.12872">
        <ele>2641.7890625</ele>
        <time>2017-05-23T07:23:04Z</time>
      </trkpt>
      <trkpt lat="42.77177" lon="-0.12879">
        <ele>2643.3210449219</ele>
        <time>2017-05-23T07:23:14Z</time>
      </trkpt>
      <trkpt lat="42.77183" lon="-0.12884">
        <ele>2644.5778808594</ele>
        <time>2017-05-23T07:23:23Z</time>
      </trkpt>
      <trkpt lat="42.7719" lon="-0.1289">
        <ele>2645.5979003906</ele>
        <time>2017-05-23T07:23:31Z</time>
      </trkpt>
      <trkpt lat="42.77196" lon="-0.12895">
        <ele>2646.75390625</ele>
        <time>2017-05-23T07:23:41Z</time>
      </trkpt>
      <trkpt lat="42.77189" lon="-0.12897">
        <ele>2649.9479980469</ele>
        <time>2017-05-23T07:24:19Z</time>
      </trkpt>
      <trkpt lat="42.77181" lon="-0.12899">
        <ele>2651.0100097656</ele>
        <time>2017-05-23T07:24:28Z</time>
      </trkpt>
      <trkpt lat="42.77174" lon="-0.12901">
        <ele>2651.8959960938</ele>
        <time>2017-05-23T07:24:36Z</time>
      </trkpt>
      <trkpt lat="42.77177" lon="-0.12909">
        <ele>2653.4079589844</ele>
        <time>2017-05-23T07:24:52Z</time>
      </trkpt>
      <trkpt lat="42.77182" lon="-0.12917">
        <ele>2654.5390625</ele>
        <time>2017-05-23T07:25:13Z</time>
      </trkpt>
      <trkpt lat="42.77188" lon="-0.12922">
        <ele>2656.6430664062</ele>
        <time>2017-05-23T07:25:41Z</time>
      </trkpt>
      <trkpt lat="42.77195" lon="-0.12922">
        <ele>2657.5949707031</ele>
        <time>2017-05-23T07:25:50Z</time>
      </trkpt>
      <trkpt lat="42.77187" lon="-0.12924">
        <ele>2659.4560546875</ele>
        <time>2017-05-23T07:26:10Z</time>
      </trkpt>
      <trkpt lat="42.77179" lon="-0.12924">
        <ele>2660.080078125</ele>
        <time>2017-05-23T07:26:17Z</time>
      </trkpt>
      <trkpt lat="42.77171" lon="-0.12923">
        <ele>2660.9819335938</ele>
        <time>2017-05-23T07:26:25Z</time>
      </trkpt>
      <trkpt lat="42.77164" lon="-0.12924">
        <ele>2662.0769042969</ele>
        <time>2017-05-23T07:26:34Z</time>
      </trkpt>
      <trkpt lat="42.77166" lon="-0.12933">
        <ele>2663.3068847656</ele>
        <time>2017-05-23T07:26:48Z</time>
      </trkpt>
      <trkpt lat="42.7717" lon="-0.12941">
        <ele>2665.041015625</ele>
        <time>2017-05-23T07:27:12Z</time>
      </trkpt>
      <trkpt lat="42.77177" lon="-0.12944">
        <ele>2666.1079101562</ele>
        <time>2017-05-23T07:27:20Z</time>
      </trkpt>
      <trkpt lat="42.77172" lon="-0.12951">
        <ele>2671.9350585938</ele>
        <time>2017-05-23T07:28:11Z</time>
      </trkpt>
      <trkpt lat="42.77165" lon="-0.12955">
        <ele>2676.3610839844</ele>
        <time>2017-05-23T07:29:12Z</time>
      </trkpt>
      <trkpt lat="42.77158" lon="-0.12953">
        <ele>2681.8000488281</ele>
        <time>2017-05-23T07:30:52Z</time>
      </trkpt>
      <trkpt lat="42.77152" lon="-0.12961">
        <ele>2683.2849121094</ele>
        <time>2017-05-23T07:31:05Z</time>
      </trkpt>
      <trkpt lat="42.77145" lon="-0.12966">
        <ele>2684.0759277344</ele>
        <time>2017-05-23T07:31:37Z</time>
      </trkpt>
      <trkpt lat="42.77138" lon="-0.12971">
        <ele>2684.7370605469</ele>
        <time>2017-05-23T07:31:44Z</time>
      </trkpt>
      <trkpt lat="42.77132" lon="-0.12978">
        <ele>2685.6560058594</ele>
        <time>2017-05-23T07:31:55Z</time>
      </trkpt>
      <trkpt lat="42.77126" lon="-0.12985">
        <ele>2686.8210449219</ele>
        <time>2017-05-23T07:32:11Z</time>
      </trkpt>
      <trkpt lat="42.77121" lon="-0.12994">
        <ele>2687.5029296875</ele>
        <time>2017-05-23T07:32:21Z</time>
      </trkpt>
      <trkpt lat="42.77116" lon="-0.13001">
        <ele>2688.0529785156</ele>
        <time>2017-05-23T07:32:29Z</time>
      </trkpt>
      <trkpt lat="42.77114" lon="-0.1301">
        <ele>2688.7060546875</ele>
        <time>2017-05-23T07:32:38Z</time>
      </trkpt>
      <trkpt lat="42.77109" lon="-0.13018">
        <ele>2689.5471191406</ele>
        <time>2017-05-23T07:32:49Z</time>
      </trkpt>
      <trkpt lat="42.77106" lon="-0.13027">
        <ele>2690.5209960938</ele>
        <time>2017-05-23T07:33:07Z</time>
      </trkpt>
      <trkpt lat="42.77109" lon="-0.13036">
        <ele>2691.5</ele>
        <time>2017-05-23T07:33:17Z</time>
      </trkpt>
      <trkpt lat="42.77111" lon="-0.13046">
        <ele>2692.3889160156</ele>
        <time>2017-05-23T07:33:26Z</time>
      </trkpt>
      <trkpt lat="42.77104" lon="-0.13042">
        <ele>2694.1149902344</ele>
        <time>2017-05-23T07:33:43Z</time>
      </trkpt>
      <trkpt lat="42.77098" lon="-0.13036">
        <ele>2695.041015625</ele>
        <time>2017-05-23T07:33:52Z</time>
      </trkpt>
      <trkpt lat="42.77091" lon="-0.1303">
        <ele>2696.0549316406</ele>
        <time>2017-05-23T07:34:02Z</time>
      </trkpt>
      <trkpt lat="42.77084" lon="-0.13025">
        <ele>2697.7839355469</ele>
        <time>2017-05-23T07:34:18Z</time>
      </trkpt>
      <trkpt lat="42.77076" lon="-0.13024">
        <ele>2699.0529785156</ele>
        <time>2017-05-23T07:34:30Z</time>
      </trkpt>
      <trkpt lat="42.77069" lon="-0.1303">
        <ele>2699.5649414062</ele>
        <time>2017-05-23T07:34:35Z</time>
      </trkpt>
      <trkpt lat="42.77065" lon="-0.13039">
        <ele>2700.2380371094</ele>
        <time>2017-05-23T07:34:42Z</time>
      </trkpt>
      <trkpt lat="42.7706" lon="-0.13048">
        <ele>2700.9150390625</ele>
        <time>2017-05-23T07:34:48Z</time>
      </trkpt>
      <trkpt lat="42.77054" lon="-0.13042">
        <ele>2703.1860351562</ele>
        <time>2017-05-23T07:35:08Z</time>
      </trkpt>
      <trkpt lat="42.77052" lon="-0.13032">
        <ele>2704.083984375</ele>
        <time>2017-05-23T07:35:16Z</time>
      </trkpt>
      <trkpt lat="42.77045" lon="-0.13038">
        <ele>2706.373046875</ele>
        <time>2017-05-23T07:36:01Z</time>
      </trkpt>
      <trkpt lat="42.77043" lon="-0.13048">
        <ele>2707.8369140625</ele>
        <time>2017-05-23T07:36:09Z</time>
      </trkpt>
      <trkpt lat="42.77033" lon="-0.13061">
        <ele>2710.337890625</ele>
        <time>2017-05-23T07:36:24Z</time>
      </trkpt>
      <trkpt lat="42.77027" lon="-0.13068">
        <ele>2712.6918945312</ele>
        <time>2017-05-23T07:36:39Z</time>
      </trkpt>
      <trkpt lat="42.77021" lon="-0.13075">
        <ele>2714.7141113281</ele>
        <time>2017-05-23T07:36:53Z</time>
      </trkpt>
      <trkpt lat="42.77013" lon="-0.1308">
        <ele>2717.2260742188</ele>
        <time>2017-05-23T07:37:08Z</time>
      </trkpt>
      <trkpt lat="42.77006" lon="-0.13086">
        <ele>2719.4599609375</ele>
        <time>2017-05-23T07:37:20Z</time>
      </trkpt>
      <trkpt lat="42.76999" lon="-0.13086">
        <ele>2721.3869628906</ele>
        <time>2017-05-23T07:37:30Z</time>
      </trkpt>
      <trkpt lat="42.76991" lon="-0.1309">
        <ele>2724.0290527344</ele>
        <time>2017-05-23T07:37:44Z</time>
      </trkpt>
      <trkpt lat="42.76984" lon="-0.13086">
        <ele>2726.8649902344</ele>
        <time>2017-05-23T07:38:20Z</time>
      </trkpt>
      <trkpt lat="42.76976" lon="-0.13087">
        <ele>2728.5239257812</ele>
        <time>2017-05-23T07:38:25Z</time>
      </trkpt>
      <trkpt lat="42.76969" lon="-0.13088">
        <ele>2731.7548828125</ele>
        <time>2017-05-23T07:38:36Z</time>
      </trkpt>
      <trkpt lat="42.76969" lon="-0.13098">
        <ele>2733.8759765625</ele>
        <time>2017-05-23T07:38:43Z</time>
      </trkpt>
      <trkpt lat="42.76971" lon="-0.13108">
        <ele>2736.2419433594</ele>
        <time>2017-05-23T07:38:51Z</time>
      </trkpt>
      <trkpt lat="42.76973" lon="-0.13118">
        <ele>2738.5380859375</ele>
        <time>2017-05-23T07:38:59Z</time>
      </trkpt>
      <trkpt lat="42.76974" lon="-0.13128">
        <ele>2740.3920898438</ele>
        <time>2017-05-23T07:39:06Z</time>
      </trkpt>
      <trkpt lat="42.76975" lon="-0.13138">
        <ele>2742.6010742188</ele>
        <time>2017-05-23T07:39:15Z</time>
      </trkpt>
      <trkpt lat="42.76977" lon="-0.13148">
        <ele>2744.4079589844</ele>
        <time>2017-05-23T07:39:23Z</time>
      </trkpt>
      <trkpt lat="42.7698" lon="-0.13159">
        <ele>2751.373046875</ele>
        <time>2017-05-23T07:40:17Z</time>
      </trkpt>
      <trkpt lat="42.76983" lon="-0.13169">
        <ele>2753.3620605469</ele>
        <time>2017-05-23T07:40:26Z</time>
      </trkpt>
      <trkpt lat="42.76988" lon="-0.13176">
        <ele>2755.1931152344</ele>
        <time>2017-05-23T07:40:35Z</time>
      </trkpt>
      <trkpt lat="42.76981" lon="-0.13174">
        <ele>2758.1188964844</ele>
        <time>2017-05-23T07:40:55Z</time>
      </trkpt>
      <trkpt lat="42.76974" lon="-0.13172">
        <ele>2759.666015625</ele>
        <time>2017-05-23T07:41:03Z</time>
      </trkpt>
      <trkpt lat="42.76966" lon="-0.1317">
        <ele>2761.5290527344</ele>
        <time>2017-05-23T07:41:14Z</time>
      </trkpt>
      <trkpt lat="42.76959" lon="-0.13168">
        <ele>2763.2729492188</ele>
        <time>2017-05-23T07:41:24Z</time>
      </trkpt>
      <trkpt lat="42.76951" lon="-0.13165">
        <ele>2765.5681152344</ele>
        <time>2017-05-23T07:41:39Z</time>
      </trkpt>
      <trkpt lat="42.76944" lon="-0.13161">
        <ele>2767.0769042969</ele>
        <time>2017-05-23T07:41:49Z</time>
      </trkpt>
      <trkpt lat="42.76938" lon="-0.13168">
        <ele>2769.0939941406</ele>
        <time>2017-05-23T07:42:13Z</time>
      </trkpt>
      <trkpt lat="42.7694" lon="-0.13178">
        <ele>2770.0390625</ele>
        <time>2017-05-23T07:42:19Z</time>
      </trkpt>
      <trkpt lat="42.76942" lon="-0.13187">
        <ele>2771.5061035156</ele>
        <time>2017-05-23T07:42:29Z</time>
      </trkpt>
      <trkpt lat="42.76946" lon="-0.13196">
        <ele>2772.5769042969</ele>
        <time>2017-05-23T07:42:37Z</time>
      </trkpt>
      <trkpt lat="42.76951" lon="-0.13204">
        <ele>2774.0339355469</ele>
        <time>2017-05-23T07:42:49Z</time>
      </trkpt>
      <trkpt lat="42.76953" lon="-0.13213">
        <ele>2775.8930664062</ele>
        <time>2017-05-23T07:43:06Z</time>
      </trkpt>
      <trkpt lat="42.76957" lon="-0.13222">
        <ele>2776.9250488281</ele>
        <time>2017-05-23T07:43:16Z</time>
      </trkpt>
      <trkpt lat="42.76961" lon="-0.13231">
        <ele>2777.8969726562</ele>
        <time>2017-05-23T07:43:26Z</time>
      </trkpt>
      <trkpt lat="42.76964" lon="-0.1324">
        <ele>2779.0070800781</ele>
        <time>2017-05-23T07:43:38Z</time>
      </trkpt>
      <trkpt lat="42.76968" lon="-0.13249">
        <ele>2779.7028808594</ele>
        <time>2017-05-23T07:43:46Z</time>
      </trkpt>
      <trkpt lat="42.76974" lon="-0.13256">
        <ele>2781.0659179688</ele>
        <time>2017-05-23T07:44:16Z</time>
      </trkpt>
      <trkpt lat="42.76974" lon="-0.13245">
        <ele>2782.166015625</ele>
        <time>2017-05-23T07:44:32Z</time>
      </trkpt>
      <trkpt lat="42.76966" lon="-0.13244">
        <ele>2784.4260253906</ele>
        <time>2017-05-23T07:44:46Z</time>
      </trkpt>
      <trkpt lat="42.76958" lon="-0.13243">
        <ele>2786.0920410156</ele>
        <time>2017-05-23T07:44:57Z</time>
      </trkpt>
      <trkpt lat="42.76951" lon="-0.13244">
        <ele>2788.4169921875</ele>
        <time>2017-05-23T07:45:13Z</time>
      </trkpt>
      <trkpt lat="42.76943" lon="-0.13246">
        <ele>2790.1069335938</ele>
        <time>2017-05-23T07:45:25Z</time>
      </trkpt>
      <trkpt lat="42.76936" lon="-0.13247">
        <ele>2792.1101074219</ele>
        <time>2017-05-23T07:45:39Z</time>
      </trkpt>
      <trkpt lat="42.76929" lon="-0.13248">
        <ele>2794.4599609375</ele>
        <time>2017-05-23T07:46:02Z</time>
      </trkpt>
      <trkpt lat="42.7692" lon="-0.13244">
        <ele>2795.9169921875</ele>
        <time>2017-05-23T07:46:12Z</time>
      </trkpt>
      <trkpt lat="42.76913" lon="-0.13243">
        <ele>2796.7561035156</ele>
        <time>2017-05-23T07:46:19Z</time>
      </trkpt>
      <trkpt lat="42.76911" lon="-0.13254">
        <ele>2799.4929199219</ele>
        <time>2017-05-23T07:47:08Z</time>
      </trkpt>
      <trkpt lat="42.76911" lon="-0.13265">
        <ele>2801.0949707031</ele>
        <time>2017-05-23T07:47:16Z</time>
      </trkpt>
      <trkpt lat="42.76912" lon="-0.13274">
        <ele>2803.0549316406</ele>
        <time>2017-05-23T07:47:27Z</time>
      </trkpt>
      <trkpt lat="42.76914" lon="-0.13284">
        <ele>2804.9890136719</ele>
        <time>2017-05-23T07:47:39Z</time>
      </trkpt>
      <trkpt lat="42.76917" lon="-0.13294">
        <ele>2807.1459960938</ele>
        <time>2017-05-23T07:47:54Z</time>
      </trkpt>
      <trkpt lat="42.76918" lon="-0.13304">
        <ele>2808.9431152344</ele>
        <time>2017-05-23T07:48:07Z</time>
      </trkpt>
      <trkpt lat="42.7692" lon="-0.13314">
        <ele>2810.1049804688</ele>
        <time>2017-05-23T07:48:15Z</time>
      </trkpt>
      <trkpt lat="42.76922" lon="-0.13324">
        <ele>2811.3798828125</ele>
        <time>2017-05-23T07:48:24Z</time>
      </trkpt>
      <trkpt lat="42.76922" lon="-0.13334">
        <ele>2812.7299804688</ele>
        <time>2017-05-23T07:48:34Z</time>
      </trkpt>
      <trkpt lat="42.76924" lon="-0.13344">
        <ele>2814.0310058594</ele>
        <time>2017-05-23T07:48:44Z</time>
      </trkpt>
      <trkpt lat="42.76926" lon="-0.13354">
        <ele>2815.41796875</ele>
        <time>2017-05-23T07:48:55Z</time>
      </trkpt>
      <trkpt lat="42.7693" lon="-0.13363">
        <ele>2816.7451171875</ele>
        <time>2017-05-23T07:49:06Z</time>
      </trkpt>
      <trkpt lat="42.76927" lon="-0.13373">
        <ele>2820.6188964844</ele>
        <time>2017-05-23T07:49:41Z</time>
      </trkpt>
      <trkpt lat="42.76925" lon="-0.13364">
        <ele>2822.3940429688</ele>
        <time>2017-05-23T07:49:54Z</time>
      </trkpt>
      <trkpt lat="42.76917" lon="-0.13362">
        <ele>2823.8249511719</ele>
        <time>2017-05-23T07:50:04Z</time>
      </trkpt>
      <trkpt lat="42.7691" lon="-0.1336">
        <ele>2825.4990234375</ele>
        <time>2017-05-23T07:50:14Z</time>
      </trkpt>
      <trkpt lat="42.76904" lon="-0.13355">
        <ele>2826.6599121094</ele>
        <time>2017-05-23T07:50:20Z</time>
      </trkpt>
      <trkpt lat="42.76898" lon="-0.1335">
        <ele>2828.9641113281</ele>
        <time>2017-05-23T07:50:55Z</time>
      </trkpt>
      <trkpt lat="42.76898" lon="-0.13361">
        <ele>2831.1931152344</ele>
        <time>2017-05-23T07:51:16Z</time>
      </trkpt>
      <trkpt lat="42.76901" lon="-0.13373">
        <ele>2832.9008789062</ele>
        <time>2017-05-23T07:51:22Z</time>
      </trkpt>
      <trkpt lat="42.76905" lon="-0.1338">
        <ele>2834.4990234375</ele>
        <time>2017-05-23T07:51:28Z</time>
      </trkpt>
      <trkpt lat="42.76909" lon="-0.13389">
        <ele>2836.9399414062</ele>
        <time>2017-05-23T07:51:38Z</time>
      </trkpt>
      <trkpt lat="42.76915" lon="-0.13397">
        <ele>2838.9370117188</ele>
        <time>2017-05-23T07:51:47Z</time>
      </trkpt>
      <trkpt lat="42.76921" lon="-0.13403">
        <ele>2840.5300292969</ele>
        <time>2017-05-23T07:51:55Z</time>
      </trkpt>
      <trkpt lat="42.76927" lon="-0.13408">
        <ele>2842.1420898438</ele>
        <time>2017-05-23T07:52:04Z</time>
      </trkpt>
      <trkpt lat="42.76934" lon="-0.13414">
        <ele>2843.7470703125</ele>
        <time>2017-05-23T07:52:14Z</time>
      </trkpt>
      <trkpt lat="42.76941" lon="-0.13417">
        <ele>2845.044921875</ele>
        <time>2017-05-23T07:52:23Z</time>
      </trkpt>
      <trkpt lat="42.76948" lon="-0.13422">
        <ele>2846.8449707031</ele>
        <time>2017-05-23T07:52:37Z</time>
      </trkpt>
      <trkpt lat="42.76955" lon="-0.13428">
        <ele>2847.7980957031</ele>
        <time>2017-05-23T07:52:45Z</time>
      </trkpt>
      <trkpt lat="42.76961" lon="-0.13436">
        <ele>2848.9140625</ele>
        <time>2017-05-23T07:52:55Z</time>
      </trkpt>
      <trkpt lat="42.76965" lon="-0.13445">
        <ele>2849.6508789062</ele>
        <time>2017-05-23T07:53:02Z</time>
      </trkpt>
      <trkpt lat="42.76968" lon="-0.13454">
        <ele>2851.9799804688</ele>
        <time>2017-05-23T07:54:01Z</time>
      </trkpt>
      <trkpt lat="42.76972" lon="-0.13463">
        <ele>2853.4221191406</ele>
        <time>2017-05-23T07:54:12Z</time>
      </trkpt>
      <trkpt lat="42.76975" lon="-0.13472">
        <ele>2854.625</ele>
        <time>2017-05-23T07:54:22Z</time>
      </trkpt>
      <trkpt lat="42.76978" lon="-0.13481">
        <ele>2855.7109375</ele>
        <time>2017-05-23T07:54:32Z</time>
      </trkpt>
      <trkpt lat="42.76981" lon="-0.13491">
        <ele>2856.6140136719</ele>
        <time>2017-05-23T07:54:41Z</time>
      </trkpt>
      <trkpt lat="42.76985" lon="-0.135">
        <ele>2857.912109375</ele>
        <time>2017-05-23T07:54:55Z</time>
      </trkpt>
      <trkpt lat="42.76988" lon="-0.1351">
        <ele>2859.4489746094</ele>
        <time>2017-05-23T07:55:23Z</time>
      </trkpt>
      <trkpt lat="42.76992" lon="-0.13519">
        <ele>2860.4528808594</ele>
        <time>2017-05-23T07:55:32Z</time>
      </trkpt>
      <trkpt lat="42.76997" lon="-0.13526">
        <ele>2861.7338867188</ele>
        <time>2017-05-23T07:55:44Z</time>
      </trkpt>
      <trkpt lat="42.77001" lon="-0.13534">
        <ele>2862.9060058594</ele>
        <time>2017-05-23T07:55:54Z</time>
      </trkpt>
      <trkpt lat="42.77002" lon="-0.13544">
        <ele>2863.9880371094</ele>
        <time>2017-05-23T07:56:03Z</time>
      </trkpt>
      <trkpt lat="42.77007" lon="-0.13552">
        <ele>2865.3479003906</ele>
        <time>2017-05-23T07:56:14Z</time>
      </trkpt>
      <trkpt lat="42.7701" lon="-0.13561">
        <ele>2866.2609863281</ele>
        <time>2017-05-23T07:56:21Z</time>
      </trkpt>
      <trkpt lat="42.77014" lon="-0.13571">
        <ele>2867.5869140625</ele>
        <time>2017-05-23T07:56:31Z</time>
      </trkpt>
      <trkpt lat="42.77018" lon="-0.13578">
        <ele>2868.9799804688</ele>
        <time>2017-05-23T07:56:41Z</time>
      </trkpt>
      <trkpt lat="42.77023" lon="-0.13587">
        <ele>2870.7880859375</ele>
        <time>2017-05-23T07:56:53Z</time>
      </trkpt>
      <trkpt lat="42.77027" lon="-0.13596">
        <ele>2872.5310058594</ele>
        <time>2017-05-23T07:57:06Z</time>
      </trkpt>
      <trkpt lat="42.77033" lon="-0.13603">
        <ele>2876.4750976562</ele>
        <time>2017-05-23T07:57:42Z</time>
      </trkpt>
      <trkpt lat="42.77039" lon="-0.13609">
        <ele>2879.3798828125</ele>
        <time>2017-05-23T07:57:59Z</time>
      </trkpt>
      <trkpt lat="42.77045" lon="-0.13615">
        <ele>2881.1499023438</ele>
        <time>2017-05-23T07:58:09Z</time>
      </trkpt>
      <trkpt lat="42.77051" lon="-0.13621">
        <ele>2882.9289550781</ele>
        <time>2017-05-23T07:58:19Z</time>
      </trkpt>
      <trkpt lat="42.77057" lon="-0.13625">
        <ele>2885.1079101562</ele>
        <time>2017-05-23T07:58:42Z</time>
      </trkpt>
      <trkpt lat="42.77063" lon="-0.13632">
        <ele>2887.5590820312</ele>
        <time>2017-05-23T07:58:53Z</time>
      </trkpt>
      <trkpt lat="42.77071" lon="-0.13636">
        <ele>2889.958984375</ele>
        <time>2017-05-23T07:59:05Z</time>
      </trkpt>
      <trkpt lat="42.77078" lon="-0.1364">
        <ele>2892.2839355469</ele>
        <time>2017-05-23T07:59:17Z</time>
      </trkpt>
      <trkpt lat="42.77085" lon="-0.13644">
        <ele>2894.6999511719</ele>
        <time>2017-05-23T07:59:30Z</time>
      </trkpt>
      <trkpt lat="42.77093" lon="-0.13646">
        <ele>2896.3859863281</ele>
        <time>2017-05-23T07:59:40Z</time>
      </trkpt>
      <trkpt lat="42.771" lon="-0.13651">
        <ele>2898.037109375</ele>
        <time>2017-05-23T07:59:51Z</time>
      </trkpt>
      <trkpt lat="42.77106" lon="-0.13657">
        <ele>2899.0358886719</ele>
        <time>2017-05-23T07:59:58Z</time>
      </trkpt>
      <trkpt lat="42.77098" lon="-0.13658">
        <ele>2907.8798828125</ele>
        <time>2017-05-23T08:01:43Z</time>
      </trkpt>
      <trkpt lat="42.77091" lon="-0.13656">
        <ele>2909.5791015625</ele>
        <time>2017-05-23T08:01:57Z</time>
      </trkpt>
      <trkpt lat="42.77084" lon="-0.13655">
        <ele>2910.41796875</ele>
        <time>2017-05-23T08:02:06Z</time>
      </trkpt>
      <trkpt lat="42.77076" lon="-0.13657">
        <ele>2911.4230957031</ele>
        <time>2017-05-23T08:02:17Z</time>
      </trkpt>
      <trkpt lat="42.77069" lon="-0.13658">
        <ele>2912.2351074219</ele>
        <time>2017-05-23T08:02:27Z</time>
      </trkpt>
      <trkpt lat="42.7706" lon="-0.13658">
        <ele>2912.9819335938</ele>
        <time>2017-05-23T08:02:37Z</time>
      </trkpt>
      <trkpt lat="42.77053" lon="-0.13656">
        <ele>2913.5048828125</ele>
        <time>2017-05-23T08:02:44Z</time>
      </trkpt>
      <trkpt lat="42.77045" lon="-0.13657">
        <ele>2914.1120605469</ele>
        <time>2017-05-23T08:02:52Z</time>
      </trkpt>
      <trkpt lat="42.77037" lon="-0.13657">
        <ele>2914.7260742188</ele>
        <time>2017-05-23T08:03:00Z</time>
      </trkpt>
      <trkpt lat="42.77031" lon="-0.1366">
        <ele>2915.3479003906</ele>
        <time>2017-05-23T08:03:22Z</time>
      </trkpt>
      <trkpt lat="42.77023" lon="-0.13661">
        <ele>2917.7780761719</ele>
        <time>2017-05-23T08:03:52Z</time>
      </trkpt>
      <trkpt lat="42.77016" lon="-0.13663">
        <ele>2919.0390625</ele>
        <time>2017-05-23T08:04:02Z</time>
      </trkpt>
      <trkpt lat="42.77008" lon="-0.13664">
        <ele>2920.0458984375</ele>
        <time>2017-05-23T08:04:11Z</time>
      </trkpt>
      <trkpt lat="42.77004" lon="-0.13672">
        <ele>2920.7919921875</ele>
        <time>2017-05-23T08:04:18Z</time>
      </trkpt>
      <trkpt lat="42.77006" lon="-0.13682">
        <ele>2921.3269042969</ele>
        <time>2017-05-23T08:04:23Z</time>
      </trkpt>
      <trkpt lat="42.77008" lon="-0.13692">
        <ele>2921.9709472656</ele>
        <time>2017-05-23T08:04:29Z</time>
      </trkpt>
      <trkpt lat="42.77012" lon="-0.13701">
        <ele>2922.7041015625</ele>
        <time>2017-05-23T08:04:36Z</time>
      </trkpt>
      <trkpt lat="42.77015" lon="-0.1371">
        <ele>2923.7829589844</ele>
        <time>2017-05-23T08:04:47Z</time>
      </trkpt>
      <trkpt lat="42.7702" lon="-0.13718">
        <ele>2924.8049316406</ele>
        <time>2017-05-23T08:04:58Z</time>
      </trkpt>
      <trkpt lat="42.77024" lon="-0.13726">
        <ele>2926.2270507812</ele>
        <time>2017-05-23T08:05:12Z</time>
      </trkpt>
      <trkpt lat="42.7703" lon="-0.13733">
        <ele>2927.4670410156</ele>
        <time>2017-05-23T08:05:23Z</time>
      </trkpt>
      <trkpt lat="42.77035" lon="-0.13741">
        <ele>2929.6740722656</ele>
        <time>2017-05-23T08:05:39Z</time>
      </trkpt>
      <trkpt lat="42.77041" lon="-0.13749">
        <ele>2931.3310546875</ele>
        <time>2017-05-23T08:05:50Z</time>
      </trkpt>
      <trkpt lat="42.77047" lon="-0.13755">
        <ele>2933.3181152344</ele>
        <time>2017-05-23T08:06:03Z</time>
      </trkpt>
      <trkpt lat="42.77053" lon="-0.1376">
        <ele>2935.037109375</ele>
        <time>2017-05-23T08:06:16Z</time>
      </trkpt>
      <trkpt lat="42.77059" lon="-0.13768">
        <ele>2936.3889160156</ele>
        <time>2017-05-23T08:06:24Z</time>
      </trkpt>
      <trkpt lat="42.77062" lon="-0.13776">
        <ele>2938.2009277344</ele>
        <time>2017-05-23T08:06:35Z</time>
      </trkpt>
      <trkpt lat="42.77064" lon="-0.13786">
        <ele>2940.3659667969</ele>
        <time>2017-05-23T08:06:48Z</time>
      </trkpt>
      <trkpt lat="42.77069" lon="-0.13793">
        <ele>2941.998046875</ele>
        <time>2017-05-23T08:06:58Z</time>
      </trkpt>
      <trkpt lat="42.77074" lon="-0.13802">
        <ele>2943.7770996094</ele>
        <time>2017-05-23T08:07:09Z</time>
      </trkpt>
      <trkpt lat="42.77078" lon="-0.13811">
        <ele>2947.6040039062</ele>
        <time>2017-05-23T08:07:42Z</time>
      </trkpt>
      <trkpt lat="42.77083" lon="-0.1382">
        <ele>2949.0568847656</ele>
        <time>2017-05-23T08:07:50Z</time>
      </trkpt>
      <trkpt lat="42.77086" lon="-0.13829">
        <ele>2950.5969238281</ele>
        <time>2017-05-23T08:07:59Z</time>
      </trkpt>
      <trkpt lat="42.77091" lon="-0.13836">
        <ele>2952.5148925781</ele>
        <time>2017-05-23T08:08:11Z</time>
      </trkpt>
      <trkpt lat="42.77097" lon="-0.13843">
        <ele>2953.6650390625</ele>
        <time>2017-05-23T08:08:19Z</time>
      </trkpt>
      <trkpt lat="42.771" lon="-0.13852">
        <ele>2954.9760742188</ele>
        <time>2017-05-23T08:08:29Z</time>
      </trkpt>
      <trkpt lat="42.77105" lon="-0.13861">
        <ele>2956.6870117188</ele>
        <time>2017-05-23T08:08:43Z</time>
      </trkpt>
      <trkpt lat="42.77109" lon="-0.13853">
        <ele>2960.6389160156</ele>
        <time>2017-05-23T08:10:37Z</time>
      </trkpt>
      <trkpt lat="42.77103" lon="-0.13858">
        <ele>2965.1940917969</ele>
        <time>2017-05-23T08:11:10Z</time>
      </trkpt>
      <trkpt lat="42.77095" lon="-0.13859">
        <ele>2966.9609375</ele>
        <time>2017-05-23T08:11:22Z</time>
      </trkpt>
      <trkpt lat="42.77088" lon="-0.1386">
        <ele>2968.3039550781</ele>
        <time>2017-05-23T08:11:33Z</time>
      </trkpt>
      <trkpt lat="42.77081" lon="-0.13861">
        <ele>2969.7429199219</ele>
        <time>2017-05-23T08:11:47Z</time>
      </trkpt>
      <trkpt lat="42.77073" lon="-0.13861">
        <ele>2970.7290039062</ele>
        <time>2017-05-23T08:11:58Z</time>
      </trkpt>
      <trkpt lat="42.77065" lon="-0.13858">
        <ele>2971.8798828125</ele>
        <time>2017-05-23T08:12:12Z</time>
      </trkpt>
      <trkpt lat="42.77058" lon="-0.13858">
        <ele>2972.6340332031</ele>
        <time>2017-05-23T08:12:22Z</time>
      </trkpt>
      <trkpt lat="42.77052" lon="-0.13865">
        <ele>2973.3889160156</ele>
        <time>2017-05-23T08:12:34Z</time>
      </trkpt>
      <trkpt lat="42.77051" lon="-0.13878">
        <ele>2973.873046875</ele>
        <time>2017-05-23T08:12:40Z</time>
      </trkpt>
      <trkpt lat="42.77052" lon="-0.13889">
        <ele>2974.2670898438</ele>
        <time>2017-05-23T08:12:45Z</time>
      </trkpt>
      <trkpt lat="42.77057" lon="-0.13909">
        <ele>2975.1000976562</ele>
        <time>2017-05-23T08:12:56Z</time>
      </trkpt>
      <trkpt lat="42.77061" lon="-0.13917">
        <ele>2975.666015625</ele>
        <time>2017-05-23T08:13:04Z</time>
      </trkpt>
      <trkpt lat="42.77059" lon="-0.13927">
        <ele>2976.7709960938</ele>
        <time>2017-05-23T08:13:32Z</time>
      </trkpt>
      <trkpt lat="42.77059" lon="-0.13939">
        <ele>2978.1411132812</ele>
        <time>2017-05-23T08:13:55Z</time>
      </trkpt>
      <trkpt lat="42.77059" lon="-0.13949">
        <ele>2978.9060058594</ele>
        <time>2017-05-23T08:14:09Z</time>
      </trkpt>
      <trkpt lat="42.77059" lon="-0.13959">
        <ele>2979.2990722656</ele>
        <time>2017-05-23T08:14:17Z</time>
      </trkpt>
      <trkpt lat="42.77061" lon="-0.13969">
        <ele>2979.83203125</ele>
        <time>2017-05-23T08:14:29Z</time>
      </trkpt>
      <trkpt lat="42.77063" lon="-0.13978">
        <ele>2980.2409667969</ele>
        <time>2017-05-23T08:14:39Z</time>
      </trkpt>
      <trkpt lat="42.77066" lon="-0.13988">
        <ele>2980.5930175781</ele>
        <time>2017-05-23T08:14:48Z</time>
      </trkpt>
      <trkpt lat="42.77064" lon="-0.13997">
        <ele>2981.0439453125</ele>
        <time>2017-05-23T08:15:00Z</time>
      </trkpt>
      <trkpt lat="42.77065" lon="-0.14008">
        <ele>2981.4040527344</ele>
        <time>2017-05-23T08:15:10Z</time>
      </trkpt>
      <trkpt lat="42.77065" lon="-0.14017">
        <ele>2981.6201171875</ele>
        <time>2017-05-23T08:15:16Z</time>
      </trkpt>
      <trkpt lat="42.77066" lon="-0.14027">
        <ele>2982.0791015625</ele>
        <time>2017-05-23T08:15:28Z</time>
      </trkpt>
      <trkpt lat="42.77066" lon="-0.14037">
        <ele>2982.3740234375</ele>
        <time>2017-05-23T08:15:35Z</time>
      </trkpt>
      <trkpt lat="42.77068" lon="-0.14046">
        <ele>2982.873046875</ele>
        <time>2017-05-23T08:15:44Z</time>
      </trkpt>
      <trkpt lat="42.77069" lon="-0.14057">
        <ele>2983.5539550781</ele>
        <time>2017-05-23T08:15:56Z</time>
      </trkpt>
      <trkpt lat="42.7707" lon="-0.14067">
        <ele>2984.1179199219</ele>
        <time>2017-05-23T08:16:05Z</time>
      </trkpt>
      <trkpt lat="42.7707" lon="-0.14077">
        <ele>2984.8679199219</ele>
        <time>2017-05-23T08:16:16Z</time>
      </trkpt>
      <trkpt lat="42.77072" lon="-0.14087">
        <ele>2985.8000488281</ele>
        <time>2017-05-23T08:16:28Z</time>
      </trkpt>
      <trkpt lat="42.77072" lon="-0.14098">
        <ele>2986.3068847656</ele>
        <time>2017-05-23T08:16:34Z</time>
      </trkpt>
      <trkpt lat="42.77073" lon="-0.14108">
        <ele>2987.2150878906</ele>
        <time>2017-05-23T08:16:44Z</time>
      </trkpt>
      <trkpt lat="42.77073" lon="-0.14118">
        <ele>2988.3310546875</ele>
        <time>2017-05-23T08:16:53Z</time>
      </trkpt>
      <trkpt lat="42.77072" lon="-0.14128">
        <ele>2989.9020996094</ele>
        <time>2017-05-23T08:17:04Z</time>
      </trkpt>
      <trkpt lat="42.77075" lon="-0.14138">
        <ele>2990.876953125</ele>
        <time>2017-05-23T08:17:11Z</time>
      </trkpt>
      <trkpt lat="42.77077" lon="-0.14148">
        <ele>2995.9890136719</ele>
        <time>2017-05-23T08:18:03Z</time>
      </trkpt>
      <trkpt lat="42.77078" lon="-0.14158">
        <ele>2996.8039550781</ele>
        <time>2017-05-23T08:18:10Z</time>
      </trkpt>
      <trkpt lat="42.77079" lon="-0.14168">
        <ele>2997.7141113281</ele>
        <time>2017-05-23T08:18:19Z</time>
      </trkpt>
      <trkpt lat="42.77078" lon="-0.14178">
        <ele>2998.3620605469</ele>
        <time>2017-05-23T08:18:27Z</time>
      </trkpt>
      <trkpt lat="42.7708" lon="-0.14188">
        <ele>2999.0969238281</ele>
        <time>2017-05-23T08:18:37Z</time>
      </trkpt>
      <trkpt lat="42.77082" lon="-0.14198">
        <ele>2999.6889648438</ele>
        <time>2017-05-23T08:18:44Z</time>
      </trkpt>
      <trkpt lat="42.77083" lon="-0.14208">
        <ele>3000.3010253906</ele>
        <time>2017-05-23T08:18:50Z</time>
      </trkpt>
      <trkpt lat="42.77083" lon="-0.14218">
        <ele>3001.1740722656</ele>
        <time>2017-05-23T08:18:58Z</time>
      </trkpt>
      <trkpt lat="42.77082" lon="-0.14228">
        <ele>3002.7309570312</ele>
        <time>2017-05-23T08:19:11Z</time>
      </trkpt>
      <trkpt lat="42.7708" lon="-0.14238">
        <ele>3003.833984375</ele>
        <time>2017-05-23T08:19:19Z</time>
      </trkpt>
      <trkpt lat="42.77082" lon="-0.14248">
        <ele>3006.0539550781</ele>
        <time>2017-05-23T08:19:33Z</time>
      </trkpt>
      <trkpt lat="42.77083" lon="-0.14258">
        <ele>3007.6940917969</ele>
        <time>2017-05-23T08:19:43Z</time>
      </trkpt>
      <trkpt lat="42.77086" lon="-0.14268">
        <ele>3008.8349609375</ele>
        <time>2017-05-23T08:19:50Z</time>
      </trkpt>
      <trkpt lat="42.77088" lon="-0.14277">
        <ele>3010.2661132812</ele>
        <time>2017-05-23T08:19:58Z</time>
      </trkpt>
      <trkpt lat="42.77088" lon="-0.14287">
        <ele>3012.3469238281</ele>
        <time>2017-05-23T08:20:08Z</time>
      </trkpt>
      <trkpt lat="42.77085" lon="-0.14298">
        <ele>3014.6059570312</ele>
        <time>2017-05-23T08:20:18Z</time>
      </trkpt>
      <trkpt lat="42.77086" lon="-0.14309">
        <ele>3016.912109375</ele>
        <time>2017-05-23T08:20:28Z</time>
      </trkpt>
      <trkpt lat="42.77088" lon="-0.1432">
        <ele>3018.7280273438</ele>
        <time>2017-05-23T08:20:36Z</time>
      </trkpt>
      <trkpt lat="42.77091" lon="-0.1433">
        <ele>3020.4799804688</ele>
        <time>2017-05-23T08:20:44Z</time>
      </trkpt>
      <trkpt lat="42.77095" lon="-0.14338">
        <ele>3021.9079589844</ele>
        <time>2017-05-23T08:20:51Z</time>
      </trkpt>
      <trkpt lat="42.77096" lon="-0.14348">
        <ele>3023.8530273438</ele>
        <time>2017-05-23T08:21:01Z</time>
      </trkpt>
      <trkpt lat="42.771" lon="-0.14357">
        <ele>3028.3359375</ele>
        <time>2017-05-23T08:21:40Z</time>
      </trkpt>
      <trkpt lat="42.77102" lon="-0.14366">
        <ele>3030.3630371094</ele>
        <time>2017-05-23T08:21:48Z</time>
      </trkpt>
      <trkpt lat="42.77106" lon="-0.14376">
        <ele>3034.5090332031</ele>
        <time>2017-05-23T08:22:44Z</time>
      </trkpt>
      <trkpt lat="42.77107" lon="-0.14387">
        <ele>3036.3420410156</ele>
        <time>2017-05-23T08:22:51Z</time>
      </trkpt>
      <trkpt lat="42.77108" lon="-0.14397">
        <ele>3037.8259277344</ele>
        <time>2017-05-23T08:22:57Z</time>
      </trkpt>
      <trkpt lat="42.77109" lon="-0.14407">
        <ele>3040.29296875</ele>
        <time>2017-05-23T08:23:08Z</time>
      </trkpt>
      <trkpt lat="42.7711" lon="-0.14417">
        <ele>3042.1359863281</ele>
        <time>2017-05-23T08:23:17Z</time>
      </trkpt>
      <trkpt lat="42.77111" lon="-0.14429">
        <ele>3043.8620605469</ele>
        <time>2017-05-23T08:23:26Z</time>
      </trkpt>
      <trkpt lat="42.77113" lon="-0.14449">
        <ele>3046.5290527344</ele>
        <time>2017-05-23T08:23:40Z</time>
      </trkpt>
      <trkpt lat="42.77118" lon="-0.14459">
        <ele>3047.4719238281</ele>
        <time>2017-05-23T08:23:45Z</time>
      </trkpt>
      <trkpt lat="42.77121" lon="-0.14469">
        <ele>3048.9650878906</ele>
        <time>2017-05-23T08:23:53Z</time>
      </trkpt>
      <trkpt lat="42.77125" lon="-0.14478">
        <ele>3050.3959960938</ele>
        <time>2017-05-23T08:24:01Z</time>
      </trkpt>
      <trkpt lat="42.77127" lon="-0.14488">
        <ele>3051.4108886719</ele>
        <time>2017-05-23T08:24:07Z</time>
      </trkpt>
      <trkpt lat="42.7713" lon="-0.14498">
        <ele>3054.2338867188</ele>
        <time>2017-05-23T08:24:26Z</time>
      </trkpt>
      <trkpt lat="42.77134" lon="-0.14507">
        <ele>3055.5170898438</ele>
        <time>2017-05-23T08:24:36Z</time>
      </trkpt>
      <trkpt lat="42.77135" lon="-0.14517">
        <ele>3056.1240234375</ele>
        <time>2017-05-23T08:24:41Z</time>
      </trkpt>
      <trkpt lat="42.77137" lon="-0.14528">
        <ele>3057.2570800781</ele>
        <time>2017-05-23T08:24:51Z</time>
      </trkpt>
      <trkpt lat="42.7714" lon="-0.14538">
        <ele>3057.8720703125</ele>
        <time>2017-05-23T08:24:57Z</time>
      </trkpt>
      <trkpt lat="42.77141" lon="-0.14549">
        <ele>3058.8100585938</ele>
        <time>2017-05-23T08:25:07Z</time>
      </trkpt>
      <trkpt lat="42.7714" lon="-0.14559">
        <ele>3059.4279785156</ele>
        <time>2017-05-23T08:25:14Z</time>
      </trkpt>
      <trkpt lat="42.7714" lon="-0.14569">
        <ele>3060.0119628906</ele>
        <time>2017-05-23T08:25:21Z</time>
      </trkpt>
      <trkpt lat="42.77142" lon="-0.14579">
        <ele>3060.7770996094</ele>
        <time>2017-05-23T08:25:31Z</time>
      </trkpt>
      <trkpt lat="42.77142" lon="-0.14589">
        <ele>3061.7119140625</ele>
        <time>2017-05-23T08:25:44Z</time>
      </trkpt>
      <trkpt lat="42.77144" lon="-0.146">
        <ele>3062.3688964844</ele>
        <time>2017-05-23T08:25:54Z</time>
      </trkpt>
      <trkpt lat="42.77145" lon="-0.1461">
        <ele>3063.2019042969</ele>
        <time>2017-05-23T08:26:07Z</time>
      </trkpt>
      <trkpt lat="42.77144" lon="-0.1462">
        <ele>3063.8669433594</ele>
        <time>2017-05-23T08:26:18Z</time>
      </trkpt>
      <trkpt lat="42.77141" lon="-0.14629">
        <ele>3064.7250976562</ele>
        <time>2017-05-23T08:26:40Z</time>
      </trkpt>
      <trkpt lat="42.7714" lon="-0.14639">
        <ele>3065.8349609375</ele>
        <time>2017-05-23T08:26:52Z</time>
      </trkpt>
      <trkpt lat="42.77138" lon="-0.14649">
        <ele>3066.958984375</ele>
        <time>2017-05-23T08:27:04Z</time>
      </trkpt>
      <trkpt lat="42.77137" lon="-0.14658">
        <ele>3068.3049316406</ele>
        <time>2017-05-23T08:27:17Z</time>
      </trkpt>
      <trkpt lat="42.77136" lon="-0.14668">
        <ele>3069.3549804688</ele>
        <time>2017-05-23T08:27:27Z</time>
      </trkpt>
      <trkpt lat="42.77137" lon="-0.14679">
        <ele>3070.0668945312</ele>
        <time>2017-05-23T08:27:34Z</time>
      </trkpt>
      <trkpt lat="42.77138" lon="-0.14688">
        <ele>3071.0639648438</ele>
        <time>2017-05-23T08:27:44Z</time>
      </trkpt>
      <trkpt lat="42.77139" lon="-0.14698">
        <ele>3073.58203125</ele>
        <time>2017-05-23T08:28:18Z</time>
      </trkpt>
      <trkpt lat="42.77143" lon="-0.14707">
        <ele>3074.6398925781</ele>
        <time>2017-05-23T08:28:29Z</time>
      </trkpt>
      <trkpt lat="42.77143" lon="-0.14717">
        <ele>3075.3479003906</ele>
        <time>2017-05-23T08:28:37Z</time>
      </trkpt>
      <trkpt lat="42.77144" lon="-0.14727">
        <ele>3076.1049804688</ele>
        <time>2017-05-23T08:28:46Z</time>
      </trkpt>
      <trkpt lat="42.77151" lon="-0.14732">
        <ele>3077.2360839844</ele>
        <time>2017-05-23T08:29:00Z</time>
      </trkpt>
      <trkpt lat="42.77158" lon="-0.14735">
        <ele>3077.6850585938</ele>
        <time>2017-05-23T08:29:06Z</time>
      </trkpt>
      <trkpt lat="42.77166" lon="-0.14735">
        <ele>3078.1040039062</ele>
        <time>2017-05-23T08:29:12Z</time>
      </trkpt>
      <trkpt lat="42.77174" lon="-0.14733">
        <ele>3079.2150878906</ele>
        <time>2017-05-23T08:29:27Z</time>
      </trkpt>
      <trkpt lat="42.77183" lon="-0.14728">
        <ele>3079.7380371094</ele>
        <time>2017-05-23T08:29:34Z</time>
      </trkpt>
      <trkpt lat="42.77197" lon="-0.14723">
        <ele>3080.8239746094</ele>
        <time>2017-05-23T08:29:46Z</time>
      </trkpt>
      <trkpt lat="42.77204" lon="-0.14718">
        <ele>3082.0119628906</ele>
        <time>2017-05-23T08:29:55Z</time>
      </trkpt>
      <trkpt lat="42.7721" lon="-0.14723">
        <ele>3085.0161132812</ele>
        <time>2017-05-23T08:30:11Z</time>
      </trkpt>
      <trkpt lat="42.77211" lon="-0.14734">
        <ele>3087.1950683594</ele>
        <time>2017-05-23T08:30:22Z</time>
      </trkpt>
      <trkpt lat="42.77211" lon="-0.14744">
        <ele>3089.0520019531</ele>
        <time>2017-05-23T08:30:32Z</time>
      </trkpt>
      <trkpt lat="42.77211" lon="-0.14755">
        <ele>3091.916015625</ele>
        <time>2017-05-23T08:30:49Z</time>
      </trkpt>
      <trkpt lat="42.77213" lon="-0.14765">
        <ele>3094.6069335938</ele>
        <time>2017-05-23T08:31:16Z</time>
      </trkpt>
      <trkpt lat="42.77212" lon="-0.14775">
        <ele>3097.7690429688</ele>
        <time>2017-05-23T08:31:33Z</time>
      </trkpt>
      <trkpt lat="42.77214" lon="-0.14785">
        <ele>3099.5390625</ele>
        <time>2017-05-23T08:31:42Z</time>
      </trkpt>
      <trkpt lat="42.77212" lon="-0.14795">
        <ele>3102.8159179688</ele>
        <time>2017-05-23T08:31:56Z</time>
      </trkpt>
      <trkpt lat="42.77212" lon="-0.14806">
        <ele>3105.3779296875</ele>
        <time>2017-05-23T08:32:06Z</time>
      </trkpt>
      <trkpt lat="42.77213" lon="-0.14816">
        <ele>3108.3330078125</ele>
        <time>2017-05-23T08:32:18Z</time>
      </trkpt>
      <trkpt lat="42.77213" lon="-0.14826">
        <ele>3111.0139160156</ele>
        <time>2017-05-23T08:32:30Z</time>
      </trkpt>
      <trkpt lat="42.77214" lon="-0.14837">
        <ele>3113.5190429688</ele>
        <time>2017-05-23T08:32:42Z</time>
      </trkpt>
      <trkpt lat="42.77213" lon="-0.14847">
        <ele>3115.6079101562</ele>
        <time>2017-05-23T08:32:53Z</time>
      </trkpt>
      <trkpt lat="42.77213" lon="-0.14857">
        <ele>3117.626953125</ele>
        <time>2017-05-23T08:33:04Z</time>
      </trkpt>
      <trkpt lat="42.77212" lon="-0.14868">
        <ele>3119.8168945312</ele>
        <time>2017-05-23T08:33:16Z</time>
      </trkpt>
      <trkpt lat="42.7722" lon="-0.14865">
        <ele>3123.3068847656</ele>
        <time>2017-05-23T08:33:58Z</time>
      </trkpt>
      <trkpt lat="42.77215" lon="-0.14873">
        <ele>3132.0659179688</ele>
        <time>2017-05-23T08:34:40Z</time>
      </trkpt>
      <trkpt lat="42.77217" lon="-0.14883">
        <ele>3135.87890625</ele>
        <time>2017-05-23T08:34:51Z</time>
      </trkpt>
      <trkpt lat="42.77216" lon="-0.14893">
        <ele>3139.0559082031</ele>
        <time>2017-05-23T08:35:02Z</time>
      </trkpt>
      <trkpt lat="42.77215" lon="-0.14905">
        <ele>3143.1079101562</ele>
        <time>2017-05-23T08:35:31Z</time>
      </trkpt>
      <trkpt lat="42.77216" lon="-0.14915">
        <ele>3144.8259277344</ele>
        <time>2017-05-23T08:35:40Z</time>
      </trkpt>
      <trkpt lat="42.77221" lon="-0.14906">
        <ele>3148.8210449219</ele>
        <time>2017-05-23T08:36:41Z</time>
      </trkpt>
      <trkpt lat="42.77228" lon="-0.14903">
        <ele>3150.8400878906</ele>
        <time>2017-05-23T08:36:51Z</time>
      </trkpt>
      <trkpt lat="42.77235" lon="-0.14899">
        <ele>3152.4309082031</ele>
        <time>2017-05-23T08:37:00Z</time>
      </trkpt>
      <trkpt lat="42.77242" lon="-0.14895">
        <ele>3154.2990722656</ele>
        <time>2017-05-23T08:37:13Z</time>
      </trkpt>
      <trkpt lat="42.77248" lon="-0.14901">
        <ele>3159.3190917969</ele>
        <time>2017-05-23T08:38:46Z</time>
      </trkpt>
      <trkpt lat="42.77248" lon="-0.14911">
        <ele>3160.5349121094</ele>
        <time>2017-05-23T08:38:59Z</time>
      </trkpt>
      <trkpt lat="42.77246" lon="-0.14921">
        <ele>3162.544921875</ele>
        <time>2017-05-23T08:39:53Z</time>
      </trkpt>
      <trkpt lat="42.77245" lon="-0.14932">
        <ele>3163.4541015625</ele>
        <time>2017-05-23T08:40:05Z</time>
      </trkpt>
      <trkpt lat="42.77253" lon="-0.1493">
        <ele>3166.1079101562</ele>
        <time>2017-05-23T08:41:06Z</time>
      </trkpt>
      <trkpt lat="42.7726" lon="-0.14927">
        <ele>3166.9260253906</ele>
        <time>2017-05-23T08:41:25Z</time>
      </trkpt>
      <trkpt lat="42.77267" lon="-0.14925">
        <ele>3167.6630859375</ele>
        <time>2017-05-23T08:41:37Z</time>
      </trkpt>
      <trkpt lat="42.77274" lon="-0.14919">
        <ele>3168.3669433594</ele>
        <time>2017-05-23T08:41:49Z</time>
      </trkpt>
      <trkpt lat="42.7728" lon="-0.14914">
        <ele>3169.7260742188</ele>
        <time>2017-05-23T08:42:20Z</time>
      </trkpt>
      <trkpt lat="42.77282" lon="-0.14902">
        <ele>3173.2648925781</ele>
        <time>2017-05-23T08:44:21Z</time>
      </trkpt>
      <trkpt lat="42.77296" lon="-0.14828">
        <ele>3179.4709472656</ele>
        <time>2017-05-23T08:44:45Z</time>
      </trkpt>
      <trkpt lat="42.77291" lon="-0.1482">
        <ele>3180.9499511719</ele>
        <time>2017-05-23T08:45:10Z</time>
      </trkpt>
      <trkpt lat="42.77251" lon="-0.14724">
        <ele>3192.8469238281</ele>
        <time>2017-05-23T08:47:52Z</time>
      </trkpt>
      <trkpt lat="42.77266" lon="-0.14762">
        <ele>3193.3068847656</ele>
        <time>2017-05-23T08:48:48Z</time>
      </trkpt>
      <trkpt lat="42.77268" lon="-0.14771">
        <ele>3193.5419921875</ele>
        <time>2017-05-23T08:49:20Z</time>
      </trkpt>
      <trkpt lat="42.77272" lon="-0.1478">
        <ele>3194.1101074219</ele>
        <time>2017-05-23T08:50:12Z</time>
      </trkpt>
      <trkpt lat="42.77278" lon="-0.14787">
        <ele>3194.6889648438</ele>
        <time>2017-05-23T08:51:03Z</time>
      </trkpt>
      <trkpt lat="42.77283" lon="-0.14793">
        <ele>3196.1110839844</ele>
        <time>2017-05-23T08:52:45Z</time>
      </trkpt>
      <trkpt lat="42.77291" lon="-0.14795">
        <ele>3197.3190917969</ele>
        <time>2017-05-23T08:54:16Z</time>
      </trkpt>
      <trkpt lat="42.77295" lon="-0.14786">
        <ele>3199.0009765625</ele>
        <time>2017-05-23T08:56:01Z</time>
      </trkpt>
      <trkpt lat="42.77302" lon="-0.14785">
        <ele>3199.4240722656</ele>
        <time>2017-05-23T08:56:38Z</time>
      </trkpt>
      <trkpt lat="42.77309" lon="-0.14783">
        <ele>3200.0700683594</ele>
        <time>2017-05-23T08:58:02Z</time>
      </trkpt>
      <trkpt lat="42.77316" lon="-0.14788">
        <ele>3200.3840332031</ele>
        <time>2017-05-23T08:58:40Z</time>
      </trkpt>
      <trkpt lat="42.77323" lon="-0.14791">
        <ele>3200.5339355469</ele>
        <time>2017-05-23T08:58:55Z</time>
      </trkpt>
      <trkpt lat="42.77331" lon="-0.14791">
        <ele>3201.2229003906</ele>
        <time>2017-05-23T09:01:01Z</time>
      </trkpt>
      <trkpt lat="42.77338" lon="-0.1479">
        <ele>3202.0769042969</ele>
        <time>2017-05-23T09:03:10Z</time>
      </trkpt>
      <trkpt lat="42.77345" lon="-0.14795">
        <ele>3202.6879882812</ele>
        <time>2017-05-23T09:04:12Z</time>
      </trkpt>
      <trkpt lat="42.7735" lon="-0.14804">
        <ele>3203.87109375</ele>
        <time>2017-05-23T09:04:56Z</time>
      </trkpt>
      <trkpt lat="42.77357" lon="-0.14797">
        <ele>3208.25390625</ele>
        <time>2017-05-23T09:06:35Z</time>
      </trkpt>
      <trkpt lat="42.77358" lon="-0.14787">
        <ele>3209.8630371094</ele>
        <time>2017-05-23T09:07:03Z</time>
      </trkpt>
      <trkpt lat="42.77365" lon="-0.14791">
        <ele>3219.2351074219</ele>
        <time>2017-05-23T09:08:06Z</time>
      </trkpt>
      <trkpt lat="42.77373" lon="-0.14787">
        <ele>3221.7451171875</ele>
        <time>2017-05-23T09:08:22Z</time>
      </trkpt>
      <trkpt lat="42.7738" lon="-0.14783">
        <ele>3228.0139160156</ele>
        <time>2017-05-23T09:09:15Z</time>
      </trkpt>
      <trkpt lat="42.77384" lon="-0.14774">
        <ele>3230.4108886719</ele>
        <time>2017-05-23T09:09:29Z</time>
      </trkpt>
      <trkpt lat="42.77383" lon="-0.14762">
        <ele>3233.5090332031</ele>
        <time>2017-05-23T09:09:51Z</time>
      </trkpt>
      <trkpt lat="42.77386" lon="-0.14752">
        <ele>3238.4760742188</ele>
        <time>2017-05-23T09:10:09Z</time>
      </trkpt>
      <trkpt lat="42.7739" lon="-0.14743">
        <ele>3241.6450195312</ele>
        <time>2017-05-23T09:10:20Z</time>
      </trkpt>
      <trkpt lat="42.77397" lon="-0.14744">
        <ele>3259.4909667969</ele>
        <time>2017-05-23T09:13:02Z</time>
      </trkpt>
      <trkpt lat="42.77403" lon="-0.14738">
        <ele>3273.2219238281</ele>
        <time>2017-05-23T09:15:34Z</time>
      </trkpt>
      <trkpt lat="42.7741" lon="-0.14734">
        <ele>3284.1860351562</ele>
        <time>2017-05-23T09:19:40Z</time>
      </trkpt>
      <trkpt lat="42.77405" lon="-0.14727">
        <ele>3285.0769042969</ele>
        <time>2017-05-23T09:19:49Z</time>
      </trkpt>
      <trkpt lat="42.77397" lon="-0.14724">
        <ele>3285.9499511719</ele>
        <time>2017-05-23T09:19:57Z</time>
      </trkpt>
      <trkpt lat="42.77394" lon="-0.14732">
        <ele>3286.83203125</ele>
        <time>2017-05-23T09:20:47Z</time>
      </trkpt>
      <trkpt lat="42.774" lon="-0.14729">
        <ele>3291.830078125</ele>
        <time>2017-05-23T09:24:36Z</time>
      </trkpt>
      <trkpt lat="42.77396" lon="-0.14736">
        <ele>3293.3278808594</ele>
        <time>2017-05-23T09:27:33Z</time>
      </trkpt>
      <trkpt lat="42.77389" lon="-0.14732">
        <ele>3296.501953125</ele>
        <time>2017-05-23T09:33:05Z</time>
      </trkpt>
      <trkpt lat="42.77387" lon="-0.14742">
        <ele>3296.8869628906</ele>
        <time>2017-05-23T09:33:32Z</time>
      </trkpt>
      <trkpt lat="42.77385" lon="-0.14753">
        <ele>3297.0229492188</ele>
        <time>2017-05-23T09:33:42Z</time>
      </trkpt>
      <trkpt lat="42.77383" lon="-0.14762">
        <ele>3297.1730957031</ele>
        <time>2017-05-23T09:34:02Z</time>
      </trkpt>
      <trkpt lat="42.77376" lon="-0.14766">
        <ele>3297.24609375</ele>
        <time>2017-05-23T09:34:35Z</time>
      </trkpt>
      <trkpt lat="42.7737" lon="-0.1477">
        <ele>3295.7849121094</ele>
        <time>2017-05-23T09:41:43Z</time>
      </trkpt>
      <trkpt lat="42.77366" lon="-0.14778">
        <ele>3295.6770019531</ele>
        <time>2017-05-23T09:41:48Z</time>
      </trkpt>
      <trkpt lat="42.77357" lon="-0.14779">
        <ele>3295.4660644531</ele>
        <time>2017-05-23T09:41:59Z</time>
      </trkpt>
      <trkpt lat="42.77349" lon="-0.14781">
        <ele>3295.2351074219</ele>
        <time>2017-05-23T09:42:11Z</time>
      </trkpt>
      <trkpt lat="42.77342" lon="-0.14781">
        <ele>3294.666015625</ele>
        <time>2017-05-23T09:42:59Z</time>
      </trkpt>
      <trkpt lat="42.77335" lon="-0.14777">
        <ele>3294.4860839844</ele>
        <time>2017-05-23T09:43:07Z</time>
      </trkpt>
      <trkpt lat="42.77312" lon="-0.14763">
        <ele>3285.7680664062</ele>
        <time>2017-05-23T09:43:21Z</time>
      </trkpt>
      <trkpt lat="42.77127" lon="-0.14157">
        <ele>3088.7609863281</ele>
        <time>2017-05-23T09:52:16Z</time>
      </trkpt>
      <trkpt lat="42.77128" lon="-0.14117">
        <ele>3078.0910644531</ele>
        <time>2017-05-23T09:52:20Z</time>
      </trkpt>
      <trkpt lat="42.77126" lon="-0.14082">
        <ele>3066.9780273438</ele>
        <time>2017-05-23T09:52:23Z</time>
      </trkpt>
      <trkpt lat="42.7714" lon="-0.14029">
        <ele>3053.3811035156</ele>
        <time>2017-05-23T09:52:28Z</time>
      </trkpt>
      <trkpt lat="42.77148" lon="-0.13988">
        <ele>3046.2438964844</ele>
        <time>2017-05-23T09:52:32Z</time>
      </trkpt>
      <trkpt lat="42.76947" lon="-0.13448">
        <ele>2935.3120117188</ele>
        <time>2017-05-23T09:54:13Z</time>
      </trkpt>
      <trkpt lat="42.76933" lon="-0.13135">
        <ele>2865.1750488281</ele>
        <time>2017-05-23T09:55:16Z</time>
      </trkpt>
      <trkpt lat="42.77081" lon="-0.12993">
        <ele>2787.6479492188</ele>
        <time>2017-05-23T09:56:25Z</time>
      </trkpt>
      <trkpt lat="42.77086" lon="-0.12984">
        <ele>2777.4641113281</ele>
        <time>2017-05-23T09:56:27Z</time>
      </trkpt>
      <trkpt lat="42.77075" lon="-0.12939">
        <ele>2761.2819824219</ele>
        <time>2017-05-23T09:56:51Z</time>
      </trkpt>
      <trkpt lat="42.77083" lon="-0.12941">
        <ele>2758.7629394531</ele>
        <time>2017-05-23T09:57:01Z</time>
      </trkpt>
      <trkpt lat="42.77089" lon="-0.12948">
        <ele>2756.7709960938</ele>
        <time>2017-05-23T09:57:08Z</time>
      </trkpt>
      <trkpt lat="42.77107" lon="-0.12953">
        <ele>2755.1179199219</ele>
        <time>2017-05-23T09:57:14Z</time>
      </trkpt>
      <trkpt lat="42.7713" lon="-0.12947">
        <ele>2753.3200683594</ele>
        <time>2017-05-23T09:57:21Z</time>
      </trkpt>
      <trkpt lat="42.77147" lon="-0.12942">
        <ele>2746.6489257812</ele>
        <time>2017-05-23T09:57:26Z</time>
      </trkpt>
      <trkpt lat="42.77169" lon="-0.1293">
        <ele>2742.7800292969</ele>
        <time>2017-05-23T09:57:32Z</time>
      </trkpt>
      <trkpt lat="42.7717" lon="-0.12892">
        <ele>2740.1950683594</ele>
        <time>2017-05-23T09:57:37Z</time>
      </trkpt>
      <trkpt lat="42.77232" lon="-0.12404">
        <ele>2542.1311035156</ele>
        <time>2017-05-23T10:00:08Z</time>
      </trkpt>
      <trkpt lat="42.77218" lon="-0.12315">
        <ele>2473.8701171875</ele>
        <time>2017-05-23T10:00:41Z</time>
      </trkpt>
      <trkpt lat="42.77215" lon="-0.12306">
        <ele>2472.2019042969</ele>
        <time>2017-05-23T10:00:43Z</time>
      </trkpt>
      <trkpt lat="42.77216" lon="-0.1229">
        <ele>2468.8840332031</ele>
        <time>2017-05-23T10:01:09Z</time>
      </trkpt>
      <trkpt lat="42.77217" lon="-0.12278">
        <ele>2466.7290039062</ele>
        <time>2017-05-23T10:01:15Z</time>
      </trkpt>
      <trkpt lat="42.77218" lon="-0.12258">
        <ele>2460.6840820312</ele>
        <time>2017-05-23T10:01:22Z</time>
      </trkpt>
      <trkpt lat="42.77208" lon="-0.12252">
        <ele>2452.8081054688</ele>
        <time>2017-05-23T10:01:40Z</time>
      </trkpt>
      <trkpt lat="42.77209" lon="-0.1216">
        <ele>2437.0700683594</ele>
        <time>2017-05-23T10:01:59Z</time>
      </trkpt>
      <trkpt lat="42.77225" lon="-0.12131">
        <ele>2433.9089355469</ele>
        <time>2017-05-23T10:02:06Z</time>
      </trkpt>
      <trkpt lat="42.77207" lon="-0.12096">
        <ele>2398.6398925781</ele>
        <time>2017-05-23T10:02:36Z</time>
      </trkpt>
      <trkpt lat="42.77209" lon="-0.12069">
        <ele>2390.7041015625</ele>
        <time>2017-05-23T10:02:42Z</time>
      </trkpt>
      <trkpt lat="42.77209" lon="-0.12057">
        <ele>2386.5659179688</ele>
        <time>2017-05-23T10:03:00Z</time>
      </trkpt>
      <trkpt lat="42.77208" lon="-0.12047">
        <ele>2383.9130859375</ele>
        <time>2017-05-23T10:03:06Z</time>
      </trkpt>
      <trkpt lat="42.7721" lon="-0.12037">
        <ele>2368.5029296875</ele>
        <time>2017-05-23T10:03:17Z</time>
      </trkpt>
      <trkpt lat="42.77208" lon="-0.12026">
        <ele>2355.8110351562</ele>
        <time>2017-05-23T10:03:31Z</time>
      </trkpt>
      <trkpt lat="42.77211" lon="-0.12017">
        <ele>2355.1550292969</ele>
        <time>2017-05-23T10:03:33Z</time>
      </trkpt>
      <trkpt lat="42.7722" lon="-0.11999">
        <ele>2350.5668945312</ele>
        <time>2017-05-23T10:03:38Z</time>
      </trkpt>
      <trkpt lat="42.77231" lon="-0.11979">
        <ele>2344.6669921875</ele>
        <time>2017-05-23T10:03:45Z</time>
      </trkpt>
      <trkpt lat="42.77241" lon="-0.11959">
        <ele>2339.8889160156</ele>
        <time>2017-05-23T10:03:51Z</time>
      </trkpt>
      <trkpt lat="42.76747" lon="-0.11683">
        <ele>2093.4030761719</ele>
        <time>2017-05-23T10:08:03Z</time>
      </trkpt>
      <trkpt lat="42.76661" lon="-0.1146">
        <ele>2036.1879882812</ele>
        <time>2017-05-23T10:08:39Z</time>
      </trkpt>
      <trkpt lat="42.76645" lon="-0.11425">
        <ele>2029.6820068359</ele>
        <time>2017-05-23T10:08:45Z</time>
      </trkpt>
      <trkpt lat="42.76633" lon="-0.11407">
        <ele>2027.5250244141</ele>
        <time>2017-05-23T10:08:50Z</time>
      </trkpt>
      <trkpt lat="42.7662" lon="-0.11394">
        <ele>2022.8830566406</ele>
        <time>2017-05-23T10:08:55Z</time>
      </trkpt>
      <trkpt lat="42.76601" lon="-0.11372">
        <ele>2016.1340332031</ele>
        <time>2017-05-23T10:09:02Z</time>
      </trkpt>
      <trkpt lat="42.76597" lon="-0.11363">
        <ele>2015.5780029297</ele>
        <time>2017-05-23T10:09:05Z</time>
      </trkpt>
      <trkpt lat="42.76587" lon="-0.11343">
        <ele>2010.7550048828</ele>
        <time>2017-05-23T10:09:10Z</time>
      </trkpt>
      <trkpt lat="42.76583" lon="-0.11334">
        <ele>2010.1409912109</ele>
        <time>2017-05-23T10:09:13Z</time>
      </trkpt>
      <trkpt lat="42.76572" lon="-0.11304">
        <ele>2003.7010498047</ele>
        <time>2017-05-23T10:09:20Z</time>
      </trkpt>
      <trkpt lat="42.76578" lon="-0.11301">
        <ele>2001.3950195312</ele>
        <time>2017-05-23T10:11:12Z</time>
      </trkpt>
      <trkpt lat="42.76582" lon="-0.1131">
        <ele>1996.6669921875</ele>
        <time>2017-05-23T10:12:41Z</time>
      </trkpt>
      <trkpt lat="42.76585" lon="-0.11299">
        <ele>1991.5369873047</ele>
        <time>2017-05-23T10:13:33Z</time>
      </trkpt>
      <trkpt lat="42.76575" lon="-0.11291">
        <ele>1990.7750244141</ele>
        <time>2017-05-23T10:13:42Z</time>
      </trkpt>
      <trkpt lat="42.7657" lon="-0.11282">
        <ele>1990.3349609375</ele>
        <time>2017-05-23T10:13:47Z</time>
      </trkpt>
      <trkpt lat="42.76568" lon="-0.11273">
        <ele>1989.6779785156</ele>
        <time>2017-05-23T10:13:55Z</time>
      </trkpt>
      <trkpt lat="42.76566" lon="-0.11262">
        <ele>1989.1049804688</ele>
        <time>2017-05-23T10:14:02Z</time>
      </trkpt>
      <trkpt lat="42.76565" lon="-0.11252">
        <ele>1987.7359619141</ele>
        <time>2017-05-23T10:14:29Z</time>
      </trkpt>
      <trkpt lat="42.76558" lon="-0.11245">
        <ele>1987.2490234375</ele>
        <time>2017-05-23T10:14:36Z</time>
      </trkpt>
      <trkpt lat="42.7655" lon="-0.11246">
        <ele>1986.7840576172</ele>
        <time>2017-05-23T10:14:43Z</time>
      </trkpt>
      <trkpt lat="42.76543" lon="-0.11248">
        <ele>1986.2320556641</ele>
        <time>2017-05-23T10:14:53Z</time>
      </trkpt>
      <trkpt lat="42.76535" lon="-0.11245">
        <ele>1985.7740478516</ele>
        <time>2017-05-23T10:15:03Z</time>
      </trkpt>
      <trkpt lat="42.76528" lon="-0.11245">
        <ele>1985.416015625</ele>
        <time>2017-05-23T10:15:15Z</time>
      </trkpt>
      <trkpt lat="42.7652" lon="-0.11241">
        <ele>1985.1669921875</ele>
        <time>2017-05-23T10:15:37Z</time>
      </trkpt>
      <trkpt lat="42.76514" lon="-0.11235">
        <ele>1985.20703125</ele>
        <time>2017-05-23T10:15:44Z</time>
      </trkpt>
      <trkpt lat="42.76507" lon="-0.11236">
        <ele>1985.4010009766</ele>
        <time>2017-05-23T10:16:07Z</time>
      </trkpt>
      <trkpt lat="42.76503" lon="-0.11245">
        <ele>1985.4239501953</ele>
        <time>2017-05-23T10:16:28Z</time>
      </trkpt>
      <trkpt lat="42.76497" lon="-0.11251">
        <ele>1985.6929931641</ele>
        <time>2017-05-23T10:16:45Z</time>
      </trkpt>
      <trkpt lat="42.76489" lon="-0.11251">
        <ele>1985.876953125</ele>
        <time>2017-05-23T10:16:53Z</time>
      </trkpt>
      <trkpt lat="42.76481" lon="-0.11252">
        <ele>1986.0810546875</ele>
        <time>2017-05-23T10:17:01Z</time>
      </trkpt>
      <trkpt lat="42.76474" lon="-0.1125">
        <ele>1986.3139648438</ele>
        <time>2017-05-23T10:17:11Z</time>
      </trkpt>
      <trkpt lat="42.76465" lon="-0.11252">
        <ele>1986.5319824219</ele>
        <time>2017-05-23T10:17:19Z</time>
      </trkpt>
      <trkpt lat="42.76458" lon="-0.11254">
        <ele>1987.1459960938</ele>
        <time>2017-05-23T10:17:43Z</time>
      </trkpt>
      <trkpt lat="42.76451" lon="-0.11258">
        <ele>1987.6190185547</ele>
        <time>2017-05-23T10:18:01Z</time>
      </trkpt>
      <trkpt lat="42.76444" lon="-0.11262">
        <ele>1988.0770263672</ele>
        <time>2017-05-23T10:18:14Z</time>
      </trkpt>
      <trkpt lat="42.76439" lon="-0.11269">
        <ele>1988.5269775391</ele>
        <time>2017-05-23T10:18:31Z</time>
      </trkpt>
      <trkpt lat="42.76435" lon="-0.11277">
        <ele>1988.7840576172</ele>
        <time>2017-05-23T10:18:48Z</time>
      </trkpt>
      <trkpt lat="42.7643" lon="-0.11285">
        <ele>1989.0030517578</ele>
        <time>2017-05-23T10:19:10Z</time>
      </trkpt>
      <trkpt lat="42.76424" lon="-0.11291">
        <ele>1989.0860595703</ele>
        <time>2017-05-23T10:19:23Z</time>
      </trkpt>
      <trkpt lat="42.76417" lon="-0.11293">
        <ele>1989.1280517578</ele>
        <time>2017-05-23T10:19:33Z</time>
      </trkpt>
      <trkpt lat="42.76408" lon="-0.11296">
        <ele>1989.1519775391</ele>
        <time>2017-05-23T10:19:41Z</time>
      </trkpt>
      <trkpt lat="42.76402" lon="-0.11301">
        <ele>1989.1479492188</ele>
        <time>2017-05-23T10:20:03Z</time>
      </trkpt>
      <trkpt lat="42.76395" lon="-0.11303">
        <ele>1989.1169433594</ele>
        <time>2017-05-23T10:20:14Z</time>
      </trkpt>
      <trkpt lat="42.76387" lon="-0.11302">
        <ele>1989.0340576172</ele>
        <time>2017-05-23T10:20:21Z</time>
      </trkpt>
      <trkpt lat="42.7638" lon="-0.11301">
        <ele>1988.9260253906</ele>
        <time>2017-05-23T10:20:29Z</time>
      </trkpt>
      <trkpt lat="42.76372" lon="-0.11302">
        <ele>1988.8449707031</ele>
        <time>2017-05-23T10:20:34Z</time>
      </trkpt>
      <trkpt lat="42.76365" lon="-0.113">
        <ele>1988.6779785156</ele>
        <time>2017-05-23T10:20:42Z</time>
      </trkpt>
      <trkpt lat="42.76359" lon="-0.11294">
        <ele>1988.3990478516</ele>
        <time>2017-05-23T10:20:55Z</time>
      </trkpt>
      <trkpt lat="42.76355" lon="-0.11285">
        <ele>1988.2819824219</ele>
        <time>2017-05-23T10:21:01Z</time>
      </trkpt>
      <trkpt lat="42.76352" lon="-0.11275">
        <ele>1988.1409912109</ele>
        <time>2017-05-23T10:21:09Z</time>
      </trkpt>
      <trkpt lat="42.76356" lon="-0.11265">
        <ele>1987.8570556641</ele>
        <time>2017-05-23T10:21:23Z</time>
      </trkpt>
      <trkpt lat="42.76351" lon="-0.11255">
        <ele>1987.5660400391</ele>
        <time>2017-05-23T10:21:32Z</time>
      </trkpt>
      <trkpt lat="42.76344" lon="-0.11252">
        <ele>1985.9139404297</ele>
        <time>2017-05-23T10:22:01Z</time>
      </trkpt>
      <trkpt lat="42.76337" lon="-0.11251">
        <ele>1985.5080566406</ele>
        <time>2017-05-23T10:22:29Z</time>
      </trkpt>
      <trkpt lat="42.76337" lon="-0.11226">
        <ele>1982.9880371094</ele>
        <time>2017-05-23T10:22:35Z</time>
      </trkpt>
      <trkpt lat="42.76345" lon="-0.1119">
        <ele>1977.8039550781</ele>
        <time>2017-05-23T10:22:41Z</time>
      </trkpt>
      <trkpt lat="42.7635" lon="-0.11166">
        <ele>1974.2530517578</ele>
        <time>2017-05-23T10:22:46Z</time>
      </trkpt>
      <trkpt lat="42.76354" lon="-0.11144">
        <ele>1968.0570068359</ele>
        <time>2017-05-23T10:22:52Z</time>
      </trkpt>
      <trkpt lat="42.76366" lon="-0.11119">
        <ele>1956.9119873047</ele>
        <time>2017-05-23T10:22:57Z</time>
      </trkpt>
      <trkpt lat="42.76366" lon="-0.11082">
        <ele>1937.9659423828</ele>
        <time>2017-05-23T10:23:03Z</time>
      </trkpt>
      <trkpt lat="42.7636" lon="-0.1105">
        <ele>1931.3969726562</ele>
        <time>2017-05-23T10:23:09Z</time>
      </trkpt>
      <trkpt lat="42.76347" lon="-0.11031">
        <ele>1919.1540527344</ele>
        <time>2017-05-23T10:23:14Z</time>
      </trkpt>
      <trkpt lat="42.76334" lon="-0.10993">
        <ele>1894.5009765625</ele>
        <time>2017-05-23T10:23:20Z</time>
      </trkpt>
      <trkpt lat="42.76324" lon="-0.10976">
        <ele>1891.3229980469</ele>
        <time>2017-05-23T10:23:27Z</time>
      </trkpt>
      <trkpt lat="42.76321" lon="-0.10954">
        <ele>1886.8969726562</ele>
        <time>2017-05-23T10:23:35Z</time>
      </trkpt>
      <trkpt lat="42.76322" lon="-0.10927">
        <ele>1873.7740478516</ele>
        <time>2017-05-23T10:23:42Z</time>
      </trkpt>
      <trkpt lat="42.76325" lon="-0.10904">
        <ele>1867.6479492188</ele>
        <time>2017-05-23T10:23:57Z</time>
      </trkpt>
      <trkpt lat="42.76332" lon="-0.10901">
        <ele>1865.1300048828</ele>
        <time>2017-05-23T10:24:23Z</time>
      </trkpt>
      <trkpt lat="42.76336" lon="-0.10892">
        <ele>1864.4250488281</ele>
        <time>2017-05-23T10:25:58Z</time>
      </trkpt>
      <trkpt lat="42.76329" lon="-0.10896">
        <ele>1866.7320556641</ele>
        <time>2017-05-23T10:27:17Z</time>
      </trkpt>
      <trkpt lat="42.76336" lon="-0.10892">
        <ele>1876.8690185547</ele>
        <time>2017-05-23T10:32:18Z</time>
      </trkpt>
      <trkpt lat="42.76328" lon="-0.10891">
        <ele>1877.2550048828</ele>
        <time>2017-05-23T10:33:04Z</time>
      </trkpt>
      <trkpt lat="42.76321" lon="-0.10893">
        <ele>1877.6049804688</ele>
        <time>2017-05-23T10:33:58Z</time>
      </trkpt>
      <trkpt lat="42.76314" lon="-0.10897">
        <ele>1877.3800048828</ele>
        <time>2017-05-23T10:34:06Z</time>
      </trkpt>
      <trkpt lat="42.7631" lon="-0.10888">
        <ele>1876.9720458984</ele>
        <time>2017-05-23T10:34:18Z</time>
      </trkpt>
      <trkpt lat="42.76305" lon="-0.10881">
        <ele>1876.6810302734</ele>
        <time>2017-05-23T10:34:26Z</time>
      </trkpt>
      <trkpt lat="42.76299" lon="-0.10875">
        <ele>1876.4460449219</ele>
        <time>2017-05-23T10:34:32Z</time>
      </trkpt>
      <trkpt lat="42.76296" lon="-0.10866">
        <ele>1876.1429443359</ele>
        <time>2017-05-23T10:34:40Z</time>
      </trkpt>
      <trkpt lat="42.76289" lon="-0.10862">
        <ele>1875.916015625</ele>
        <time>2017-05-23T10:34:46Z</time>
      </trkpt>
      <trkpt lat="42.76281" lon="-0.10859">
        <ele>1875.5889892578</ele>
        <time>2017-05-23T10:34:55Z</time>
      </trkpt>
      <trkpt lat="42.76267" lon="-0.10852">
        <ele>1875.0970458984</ele>
        <time>2017-05-23T10:35:09Z</time>
      </trkpt>
      <trkpt lat="42.76262" lon="-0.10843">
        <ele>1874.9329833984</ele>
        <time>2017-05-23T10:35:14Z</time>
      </trkpt>
      <trkpt lat="42.76257" lon="-0.10836">
        <ele>1874.7619628906</ele>
        <time>2017-05-23T10:35:19Z</time>
      </trkpt>
      <trkpt lat="42.76253" lon="-0.10827">
        <ele>1874.5250244141</ele>
        <time>2017-05-23T10:35:26Z</time>
      </trkpt>
      <trkpt lat="42.76248" lon="-0.10819">
        <ele>1874.2650146484</ele>
        <time>2017-05-23T10:35:33Z</time>
      </trkpt>
      <trkpt lat="42.76243" lon="-0.10811">
        <ele>1874.0360107422</ele>
        <time>2017-05-23T10:35:39Z</time>
      </trkpt>
      <trkpt lat="42.76239" lon="-0.10799">
        <ele>1873.7299804688</ele>
        <time>2017-05-23T10:35:48Z</time>
      </trkpt>
      <trkpt lat="42.76234" lon="-0.10788">
        <ele>1873.5059814453</ele>
        <time>2017-05-23T10:35:56Z</time>
      </trkpt>
      <trkpt lat="42.76229" lon="-0.1078">
        <ele>1873.3950195312</ele>
        <time>2017-05-23T10:36:01Z</time>
      </trkpt>
      <trkpt lat="42.76226" lon="-0.1077">
        <ele>1873.2359619141</ele>
        <time>2017-05-23T10:36:09Z</time>
      </trkpt>
      <trkpt lat="42.76224" lon="-0.1076">
        <ele>1873.1600341797</ele>
        <time>2017-05-23T10:36:17Z</time>
      </trkpt>
      <trkpt lat="42.76222" lon="-0.1075">
        <ele>1873.1999511719</ele>
        <time>2017-05-23T10:36:24Z</time>
      </trkpt>
      <trkpt lat="42.7622" lon="-0.1074">
        <ele>1873.2840576172</ele>
        <time>2017-05-23T10:36:29Z</time>
      </trkpt>
      <trkpt lat="42.7622" lon="-0.1073">
        <ele>1873.3909912109</ele>
        <time>2017-05-23T10:36:35Z</time>
      </trkpt>
      <trkpt lat="42.76219" lon="-0.10718">
        <ele>1873.5059814453</ele>
        <time>2017-05-23T10:36:41Z</time>
      </trkpt>
      <trkpt lat="42.76218" lon="-0.10707">
        <ele>1873.6419677734</ele>
        <time>2017-05-23T10:36:47Z</time>
      </trkpt>
      <trkpt lat="42.76216" lon="-0.10697">
        <ele>1873.8349609375</ele>
        <time>2017-05-23T10:36:53Z</time>
      </trkpt>
      <trkpt lat="42.76212" lon="-0.10687">
        <ele>1873.9799804688</ele>
        <time>2017-05-23T10:36:58Z</time>
      </trkpt>
      <trkpt lat="42.76206" lon="-0.1068">
        <ele>1874.1479492188</ele>
        <time>2017-05-23T10:37:04Z</time>
      </trkpt>
      <trkpt lat="42.76201" lon="-0.10673">
        <ele>1874.3480224609</ele>
        <time>2017-05-23T10:37:11Z</time>
      </trkpt>
      <trkpt lat="42.76197" lon="-0.10664">
        <ele>1874.4820556641</ele>
        <time>2017-05-23T10:37:16Z</time>
      </trkpt>
      <trkpt lat="42.76192" lon="-0.10655">
        <ele>1874.6440429688</ele>
        <time>2017-05-23T10:37:23Z</time>
      </trkpt>
      <trkpt lat="42.76189" lon="-0.10645">
        <ele>1874.8039550781</ele>
        <time>2017-05-23T10:37:30Z</time>
      </trkpt>
      <trkpt lat="42.76185" lon="-0.10637">
        <ele>1874.9360351562</ele>
        <time>2017-05-23T10:37:36Z</time>
      </trkpt>
      <trkpt lat="42.76182" lon="-0.10628">
        <ele>1875.0620117188</ele>
        <time>2017-05-23T10:37:42Z</time>
      </trkpt>
      <trkpt lat="42.76178" lon="-0.10618">
        <ele>1875.1839599609</ele>
        <time>2017-05-23T10:37:49Z</time>
      </trkpt>
      <trkpt lat="42.76176" lon="-0.10609">
        <ele>1875.2650146484</ele>
        <time>2017-05-23T10:37:55Z</time>
      </trkpt>
      <trkpt lat="42.76169" lon="-0.10592">
        <ele>1875.3530273438</ele>
        <time>2017-05-23T10:38:03Z</time>
      </trkpt>
      <trkpt lat="42.76165" lon="-0.10583">
        <ele>1875.3929443359</ele>
        <time>2017-05-23T10:38:08Z</time>
      </trkpt>
      <trkpt lat="42.76158" lon="-0.10576">
        <ele>1875.4210205078</ele>
        <time>2017-05-23T10:38:14Z</time>
      </trkpt>
      <trkpt lat="42.76153" lon="-0.10568">
        <ele>1875.4139404297</ele>
        <time>2017-05-23T10:38:20Z</time>
      </trkpt>
      <trkpt lat="42.76149" lon="-0.10559">
        <ele>1875.3879394531</ele>
        <time>2017-05-23T10:38:25Z</time>
      </trkpt>
      <trkpt lat="42.76145" lon="-0.10549">
        <ele>1875.2829589844</ele>
        <time>2017-05-23T10:38:31Z</time>
      </trkpt>
      <trkpt lat="42.76139" lon="-0.10541">
        <ele>1875.0949707031</ele>
        <time>2017-05-23T10:38:36Z</time>
      </trkpt>
      <trkpt lat="42.76138" lon="-0.10529">
        <ele>1874.8089599609</ele>
        <time>2017-05-23T10:38:41Z</time>
      </trkpt>
      <trkpt lat="42.76135" lon="-0.1052">
        <ele>1874.4239501953</ele>
        <time>2017-05-23T10:38:46Z</time>
      </trkpt>
      <trkpt lat="42.76132" lon="-0.10509">
        <ele>1873.9470214844</ele>
        <time>2017-05-23T10:38:51Z</time>
      </trkpt>
      <trkpt lat="42.76131" lon="-0.10497">
        <ele>1873.291015625</ele>
        <time>2017-05-23T10:38:57Z</time>
      </trkpt>
      <trkpt lat="42.76128" lon="-0.10487">
        <ele>1872.7099609375</ele>
        <time>2017-05-23T10:39:02Z</time>
      </trkpt>
      <trkpt lat="42.76125" lon="-0.10476">
        <ele>1871.9709472656</ele>
        <time>2017-05-23T10:39:08Z</time>
      </trkpt>
      <trkpt lat="42.76124" lon="-0.10466">
        <ele>1871.3239746094</ele>
        <time>2017-05-23T10:39:13Z</time>
      </trkpt>
      <trkpt lat="42.76121" lon="-0.10455">
        <ele>1870.5190429688</ele>
        <time>2017-05-23T10:39:19Z</time>
      </trkpt>
      <trkpt lat="42.76118" lon="-0.10444">
        <ele>1869.6989746094</ele>
        <time>2017-05-23T10:39:25Z</time>
      </trkpt>
      <trkpt lat="42.76115" lon="-0.10434">
        <ele>1869.0250244141</ele>
        <time>2017-05-23T10:39:30Z</time>
      </trkpt>
      <trkpt lat="42.76112" lon="-0.10423">
        <ele>1867.8590087891</ele>
        <time>2017-05-23T10:39:39Z</time>
      </trkpt>
      <trkpt lat="42.76108" lon="-0.10413">
        <ele>1867.1209716797</ele>
        <time>2017-05-23T10:39:45Z</time>
      </trkpt>
      <trkpt lat="42.76106" lon="-0.10404">
        <ele>1866.2989501953</ele>
        <time>2017-05-23T10:39:52Z</time>
      </trkpt>
      <trkpt lat="42.76104" lon="-0.10394">
        <ele>1865.3879394531</ele>
        <time>2017-05-23T10:40:00Z</time>
      </trkpt>
      <trkpt lat="42.76101" lon="-0.10385">
        <ele>1864.5340576172</ele>
        <time>2017-05-23T10:40:08Z</time>
      </trkpt>
      <trkpt lat="42.76096" lon="-0.10376">
        <ele>1864.0570068359</ele>
        <time>2017-05-23T10:40:13Z</time>
      </trkpt>
      <trkpt lat="42.76091" lon="-0.10367">
        <ele>1863.5269775391</ele>
        <time>2017-05-23T10:40:19Z</time>
      </trkpt>
      <trkpt lat="42.76086" lon="-0.10359">
        <ele>1863.0009765625</ele>
        <time>2017-05-23T10:40:25Z</time>
      </trkpt>
      <trkpt lat="42.76082" lon="-0.10349">
        <ele>1862.4689941406</ele>
        <time>2017-05-23T10:40:31Z</time>
      </trkpt>
      <trkpt lat="42.76078" lon="-0.10341">
        <ele>1861.9379882812</ele>
        <time>2017-05-23T10:40:37Z</time>
      </trkpt>
      <trkpt lat="42.76074" lon="-0.1033">
        <ele>1861.4639892578</ele>
        <time>2017-05-23T10:40:42Z</time>
      </trkpt>
      <trkpt lat="42.76071" lon="-0.10319">
        <ele>1860.8459472656</ele>
        <time>2017-05-23T10:40:48Z</time>
      </trkpt>
      <trkpt lat="42.76066" lon="-0.1031">
        <ele>1860.3050537109</ele>
        <time>2017-05-23T10:40:53Z</time>
      </trkpt>
      <trkpt lat="42.76059" lon="-0.10291">
        <ele>1858.8210449219</ele>
        <time>2017-05-23T10:41:06Z</time>
      </trkpt>
      <trkpt lat="42.76055" lon="-0.10283">
        <ele>1858.0959472656</ele>
        <time>2017-05-23T10:41:12Z</time>
      </trkpt>
      <trkpt lat="42.76051" lon="-0.10273">
        <ele>1857.3869628906</ele>
        <time>2017-05-23T10:41:18Z</time>
      </trkpt>
      <trkpt lat="42.76045" lon="-0.10266">
        <ele>1856.7020263672</ele>
        <time>2017-05-23T10:41:24Z</time>
      </trkpt>
      <trkpt lat="42.7604" lon="-0.10258">
        <ele>1856.0190429688</ele>
        <time>2017-05-23T10:41:30Z</time>
      </trkpt>
      <trkpt lat="42.76035" lon="-0.1025">
        <ele>1855.3570556641</ele>
        <time>2017-05-23T10:41:36Z</time>
      </trkpt>
      <trkpt lat="42.7603" lon="-0.10242">
        <ele>1854.7349853516</ele>
        <time>2017-05-23T10:41:42Z</time>
      </trkpt>
      <trkpt lat="42.76024" lon="-0.10237">
        <ele>1854.3349609375</ele>
        <time>2017-05-23T10:41:46Z</time>
      </trkpt>
      <trkpt lat="42.7602" lon="-0.10227">
        <ele>1853.7590332031</ele>
        <time>2017-05-23T10:41:52Z</time>
      </trkpt>
      <trkpt lat="42.76016" lon="-0.10218">
        <ele>1853.1760253906</ele>
        <time>2017-05-23T10:41:58Z</time>
      </trkpt>
      <trkpt lat="42.7601" lon="-0.10212">
        <ele>1852.6829833984</ele>
        <time>2017-05-23T10:42:03Z</time>
      </trkpt>
      <trkpt lat="42.76004" lon="-0.10204">
        <ele>1852.0799560547</ele>
        <time>2017-05-23T10:42:09Z</time>
      </trkpt>
      <trkpt lat="42.75999" lon="-0.10195">
        <ele>1851.6059570312</ele>
        <time>2017-05-23T10:42:14Z</time>
      </trkpt>
      <trkpt lat="42.75993" lon="-0.10188">
        <ele>1851.0229492188</ele>
        <time>2017-05-23T10:42:20Z</time>
      </trkpt>
      <trkpt lat="42.7599" lon="-0.10179">
        <ele>1850.5439453125</ele>
        <time>2017-05-23T10:42:25Z</time>
      </trkpt>
      <trkpt lat="42.75985" lon="-0.1017">
        <ele>1849.8260498047</ele>
        <time>2017-05-23T10:42:32Z</time>
      </trkpt>
      <trkpt lat="42.7598" lon="-0.10163">
        <ele>1849.2790527344</ele>
        <time>2017-05-23T10:42:37Z</time>
      </trkpt>
      <trkpt lat="42.75974" lon="-0.10156">
        <ele>1848.6149902344</ele>
        <time>2017-05-23T10:42:43Z</time>
      </trkpt>
      <trkpt lat="42.75968" lon="-0.10149">
        <ele>1847.8840332031</ele>
        <time>2017-05-23T10:42:50Z</time>
      </trkpt>
      <trkpt lat="42.75961" lon="-0.10145">
        <ele>1847.3489990234</ele>
        <time>2017-05-23T10:42:56Z</time>
      </trkpt>
      <trkpt lat="42.75954" lon="-0.10142">
        <ele>1846.9460449219</ele>
        <time>2017-05-23T10:43:01Z</time>
      </trkpt>
      <trkpt lat="42.75949" lon="-0.10134">
        <ele>1846.5219726562</ele>
        <time>2017-05-23T10:43:07Z</time>
      </trkpt>
      <trkpt lat="42.75944" lon="-0.10126">
        <ele>1846.0269775391</ele>
        <time>2017-05-23T10:43:15Z</time>
      </trkpt>
      <trkpt lat="42.75941" lon="-0.10115">
        <ele>1845.6910400391</ele>
        <time>2017-05-23T10:43:21Z</time>
      </trkpt>
      <trkpt lat="42.75938" lon="-0.10106">
        <ele>1845.2220458984</ele>
        <time>2017-05-23T10:43:30Z</time>
      </trkpt>
      <trkpt lat="42.75938" lon="-0.10095">
        <ele>1844.9139404297</ele>
        <time>2017-05-23T10:43:36Z</time>
      </trkpt>
      <trkpt lat="42.75936" lon="-0.10072">
        <ele>1844.4210205078</ele>
        <time>2017-05-23T10:43:46Z</time>
      </trkpt>
      <trkpt lat="42.75933" lon="-0.10061">
        <ele>1844.1560058594</ele>
        <time>2017-05-23T10:43:51Z</time>
      </trkpt>
      <trkpt lat="42.75932" lon="-0.10049">
        <ele>1843.7290039062</ele>
        <time>2017-05-23T10:43:59Z</time>
      </trkpt>
      <trkpt lat="42.7593" lon="-0.10039">
        <ele>1843.4090576172</ele>
        <time>2017-05-23T10:44:05Z</time>
      </trkpt>
      <trkpt lat="42.75931" lon="-0.10029">
        <ele>1843.1419677734</ele>
        <time>2017-05-23T10:44:10Z</time>
      </trkpt>
      <trkpt lat="42.75931" lon="-0.10019">
        <ele>1842.7370605469</ele>
        <time>2017-05-23T10:44:17Z</time>
      </trkpt>
      <trkpt lat="42.75927" lon="-0.1001">
        <ele>1842.3399658203</ele>
        <time>2017-05-23T10:44:24Z</time>
      </trkpt>
      <trkpt lat="42.75922" lon="-0.10002">
        <ele>1842.0300292969</ele>
        <time>2017-05-23T10:44:30Z</time>
      </trkpt>
      <trkpt lat="42.75916" lon="-0.09995">
        <ele>1841.6579589844</ele>
        <time>2017-05-23T10:44:38Z</time>
      </trkpt>
      <trkpt lat="42.75913" lon="-0.09986">
        <ele>1841.3199462891</ele>
        <time>2017-05-23T10:44:46Z</time>
      </trkpt>
      <trkpt lat="42.75911" lon="-0.09975">
        <ele>1841.0930175781</ele>
        <time>2017-05-23T10:44:52Z</time>
      </trkpt>
      <trkpt lat="42.7591" lon="-0.09965">
        <ele>1840.7979736328</ele>
        <time>2017-05-23T10:45:00Z</time>
      </trkpt>
      <trkpt lat="42.75911" lon="-0.09954">
        <ele>1840.5810546875</ele>
        <time>2017-05-23T10:45:05Z</time>
      </trkpt>
      <trkpt lat="42.75909" lon="-0.09943">
        <ele>1840.2879638672</ele>
        <time>2017-05-23T10:45:11Z</time>
      </trkpt>
      <trkpt lat="42.75908" lon="-0.09932">
        <ele>1839.9560546875</ele>
        <time>2017-05-23T10:45:17Z</time>
      </trkpt>
      <trkpt lat="42.75906" lon="-0.09922">
        <ele>1839.6569824219</ele>
        <time>2017-05-23T10:45:22Z</time>
      </trkpt>
      <trkpt lat="42.75905" lon="-0.09912">
        <ele>1839.2800292969</ele>
        <time>2017-05-23T10:45:28Z</time>
      </trkpt>
      <trkpt lat="42.75901" lon="-0.09902">
        <ele>1838.7800292969</ele>
        <time>2017-05-23T10:45:36Z</time>
      </trkpt>
      <trkpt lat="42.75897" lon="-0.09894">
        <ele>1838.4720458984</ele>
        <time>2017-05-23T10:45:41Z</time>
      </trkpt>
      <trkpt lat="42.75893" lon="-0.09884">
        <ele>1838.0560302734</ele>
        <time>2017-05-23T10:45:48Z</time>
      </trkpt>
      <trkpt lat="42.75888" lon="-0.09877">
        <ele>1837.7049560547</ele>
        <time>2017-05-23T10:45:54Z</time>
      </trkpt>
      <trkpt lat="42.75884" lon="-0.09869">
        <ele>1837.3609619141</ele>
        <time>2017-05-23T10:46:00Z</time>
      </trkpt>
      <trkpt lat="42.75881" lon="-0.09858">
        <ele>1836.9749755859</ele>
        <time>2017-05-23T10:46:07Z</time>
      </trkpt>
      <trkpt lat="42.75878" lon="-0.09848">
        <ele>1836.6750488281</ele>
        <time>2017-05-23T10:46:13Z</time>
      </trkpt>
      <trkpt lat="42.75874" lon="-0.09837">
        <ele>1836.3809814453</ele>
        <time>2017-05-23T10:46:20Z</time>
      </trkpt>
      <trkpt lat="42.75864" lon="-0.09819">
        <ele>1836.0229492188</ele>
        <time>2017-05-23T10:46:29Z</time>
      </trkpt>
      <trkpt lat="42.7586" lon="-0.09809">
        <ele>1835.83203125</ele>
        <time>2017-05-23T10:46:34Z</time>
      </trkpt>
      <trkpt lat="42.75856" lon="-0.09799">
        <ele>1835.5450439453</ele>
        <time>2017-05-23T10:46:42Z</time>
      </trkpt>
      <trkpt lat="42.75851" lon="-0.0979">
        <ele>1835.3289794922</ele>
        <time>2017-05-23T10:46:48Z</time>
      </trkpt>
      <trkpt lat="42.75849" lon="-0.09781">
        <ele>1835.1030273438</ele>
        <time>2017-05-23T10:46:55Z</time>
      </trkpt>
      <trkpt lat="42.75845" lon="-0.09771">
        <ele>1834.9040527344</ele>
        <time>2017-05-23T10:47:02Z</time>
      </trkpt>
      <trkpt lat="42.75841" lon="-0.0976">
        <ele>1834.66796875</ele>
        <time>2017-05-23T10:47:11Z</time>
      </trkpt>
      <trkpt lat="42.75835" lon="-0.09752">
        <ele>1834.5080566406</ele>
        <time>2017-05-23T10:47:18Z</time>
      </trkpt>
      <trkpt lat="42.75825" lon="-0.09734">
        <ele>1834.3020019531</ele>
        <time>2017-05-23T10:47:26Z</time>
      </trkpt>
      <trkpt lat="42.75826" lon="-0.09723">
        <ele>1834.0229492188</ele>
        <time>2017-05-23T10:47:48Z</time>
      </trkpt>
      <trkpt lat="42.75827" lon="-0.09711">
        <ele>1833.9429931641</ele>
        <time>2017-05-23T10:47:53Z</time>
      </trkpt>
      <trkpt lat="42.75822" lon="-0.09693">
        <ele>1833.8060302734</ele>
        <time>2017-05-23T10:48:02Z</time>
      </trkpt>
      <trkpt lat="42.75818" lon="-0.09684">
        <ele>1833.6149902344</ele>
        <time>2017-05-23T10:48:16Z</time>
      </trkpt>
      <trkpt lat="42.75816" lon="-0.09674">
        <ele>1833.4820556641</ele>
        <time>2017-05-23T10:48:22Z</time>
      </trkpt>
      <trkpt lat="42.75813" lon="-0.09664">
        <ele>1833.2459716797</ele>
        <time>2017-05-23T10:48:32Z</time>
      </trkpt>
      <trkpt lat="42.75811" lon="-0.09654">
        <ele>1833.1020507812</ele>
        <time>2017-05-23T10:48:38Z</time>
      </trkpt>
      <trkpt lat="42.75806" lon="-0.09634">
        <ele>1832.8890380859</ele>
        <time>2017-05-23T10:48:47Z</time>
      </trkpt>
      <trkpt lat="42.75802" lon="-0.09624">
        <ele>1832.7550048828</ele>
        <time>2017-05-23T10:48:54Z</time>
      </trkpt>
      <trkpt lat="42.75798" lon="-0.09614">
        <ele>1832.6750488281</ele>
        <time>2017-05-23T10:49:00Z</time>
      </trkpt>
      <trkpt lat="42.75795" lon="-0.09604">
        <ele>1832.6199951172</ele>
        <time>2017-05-23T10:49:06Z</time>
      </trkpt>
      <trkpt lat="42.75795" lon="-0.09595">
        <ele>1832.5789794922</ele>
        <time>2017-05-23T10:49:12Z</time>
      </trkpt>
      <trkpt lat="42.75792" lon="-0.09584">
        <ele>1832.5489501953</ele>
        <time>2017-05-23T10:49:19Z</time>
      </trkpt>
      <trkpt lat="42.75788" lon="-0.09575">
        <ele>1832.5240478516</ele>
        <time>2017-05-23T10:49:27Z</time>
      </trkpt>
      <trkpt lat="42.75783" lon="-0.09566">
        <ele>1832.5100097656</ele>
        <time>2017-05-23T10:49:34Z</time>
      </trkpt>
      <trkpt lat="42.75779" lon="-0.09557">
        <ele>1832.5030517578</ele>
        <time>2017-05-23T10:49:39Z</time>
      </trkpt>
      <trkpt lat="42.7578" lon="-0.09547">
        <ele>1832.5069580078</ele>
        <time>2017-05-23T10:49:47Z</time>
      </trkpt>
      <trkpt lat="42.75776" lon="-0.09539">
        <ele>1832.5219726562</ele>
        <time>2017-05-23T10:49:52Z</time>
      </trkpt>
      <trkpt lat="42.7577" lon="-0.09534">
        <ele>1832.5400390625</ele>
        <time>2017-05-23T10:49:57Z</time>
      </trkpt>
      <trkpt lat="42.75768" lon="-0.09524">
        <ele>1832.5860595703</ele>
        <time>2017-05-23T10:50:05Z</time>
      </trkpt>
      <trkpt lat="42.75765" lon="-0.09514">
        <ele>1832.6070556641</ele>
        <time>2017-05-23T10:50:12Z</time>
      </trkpt>
      <trkpt lat="42.75765" lon="-0.09503">
        <ele>1832.6169433594</ele>
        <time>2017-05-23T10:50:17Z</time>
      </trkpt>
      <trkpt lat="42.7576" lon="-0.09494">
        <ele>1832.6280517578</ele>
        <time>2017-05-23T10:50:22Z</time>
      </trkpt>
      <trkpt lat="42.75754" lon="-0.09487">
        <ele>1832.6359863281</ele>
        <time>2017-05-23T10:50:27Z</time>
      </trkpt>
      <trkpt lat="42.75749" lon="-0.09478">
        <ele>1832.6540527344</ele>
        <time>2017-05-23T10:50:32Z</time>
      </trkpt>
      <trkpt lat="42.75744" lon="-0.09469">
        <ele>1832.7110595703</ele>
        <time>2017-05-23T10:50:40Z</time>
      </trkpt>
      <trkpt lat="42.75742" lon="-0.0946">
        <ele>1832.7790527344</ele>
        <time>2017-05-23T10:50:47Z</time>
      </trkpt>
      <trkpt lat="42.75734" lon="-0.09457">
        <ele>1832.8530273438</ele>
        <time>2017-05-23T10:50:54Z</time>
      </trkpt>
      <trkpt lat="42.75728" lon="-0.09449">
        <ele>1832.91796875</ele>
        <time>2017-05-23T10:51:00Z</time>
      </trkpt>
      <trkpt lat="42.75725" lon="-0.09441">
        <ele>1832.9859619141</ele>
        <time>2017-05-23T10:51:07Z</time>
      </trkpt>
      <trkpt lat="42.75721" lon="-0.09432">
        <ele>1833.0389404297</ele>
        <time>2017-05-23T10:51:13Z</time>
      </trkpt>
      <trkpt lat="42.7572" lon="-0.09422">
        <ele>1833.1030273438</ele>
        <time>2017-05-23T10:51:19Z</time>
      </trkpt>
      <trkpt lat="42.7572" lon="-0.09411">
        <ele>1833.1970214844</ele>
        <time>2017-05-23T10:51:27Z</time>
      </trkpt>
      <trkpt lat="42.75721" lon="-0.09401">
        <ele>1833.2790527344</ele>
        <time>2017-05-23T10:51:33Z</time>
      </trkpt>
      <trkpt lat="42.75727" lon="-0.09396">
        <ele>1833.3680419922</ele>
        <time>2017-05-23T10:51:39Z</time>
      </trkpt>
      <trkpt lat="42.75735" lon="-0.09394">
        <ele>1833.5379638672</ele>
        <time>2017-05-23T10:51:49Z</time>
      </trkpt>
      <trkpt lat="42.75736" lon="-0.09384">
        <ele>1833.6440429688</ele>
        <time>2017-05-23T10:51:55Z</time>
      </trkpt>
      <trkpt lat="42.75732" lon="-0.09374">
        <ele>1833.8050537109</ele>
        <time>2017-05-23T10:52:03Z</time>
      </trkpt>
      <trkpt lat="42.75729" lon="-0.09365">
        <ele>1834.001953125</ele>
        <time>2017-05-23T10:52:12Z</time>
      </trkpt>
      <trkpt lat="42.75726" lon="-0.09356">
        <ele>1834.1860351562</ele>
        <time>2017-05-23T10:52:20Z</time>
      </trkpt>
      <trkpt lat="42.75718" lon="-0.09358">
        <ele>1834.3439941406</ele>
        <time>2017-05-23T10:52:26Z</time>
      </trkpt>
      <trkpt lat="42.7571" lon="-0.0936">
        <ele>1834.5710449219</ele>
        <time>2017-05-23T10:52:34Z</time>
      </trkpt>
      <trkpt lat="42.75703" lon="-0.09354">
        <ele>1834.7740478516</ele>
        <time>2017-05-23T10:52:41Z</time>
      </trkpt>
      <trkpt lat="42.75697" lon="-0.09346">
        <ele>1834.9129638672</ele>
        <time>2017-05-23T10:52:47Z</time>
      </trkpt>
      <trkpt lat="42.75694" lon="-0.09336">
        <ele>1834.9959716797</ele>
        <time>2017-05-23T10:52:52Z</time>
      </trkpt>
      <trkpt lat="42.75694" lon="-0.09325">
        <ele>1835.0849609375</ele>
        <time>2017-05-23T10:52:59Z</time>
      </trkpt>
      <trkpt lat="42.75693" lon="-0.09315">
        <ele>1835.1540527344</ele>
        <time>2017-05-23T10:53:05Z</time>
      </trkpt>
      <trkpt lat="42.7569" lon="-0.09303">
        <ele>1835.1929931641</ele>
        <time>2017-05-23T10:53:12Z</time>
      </trkpt>
      <trkpt lat="42.75687" lon="-0.09294">
        <ele>1835.1949462891</ele>
        <time>2017-05-23T10:53:17Z</time>
      </trkpt>
      <trkpt lat="42.75685" lon="-0.09283">
        <ele>1835.1729736328</ele>
        <time>2017-05-23T10:53:24Z</time>
      </trkpt>
      <trkpt lat="42.75695" lon="-0.09289">
        <ele>1834.6760253906</ele>
        <time>2017-05-23T10:54:31Z</time>
      </trkpt>
      <trkpt lat="42.75696" lon="-0.09279">
        <ele>1833.7960205078</ele>
        <time>2017-05-23T10:55:57Z</time>
      </trkpt>
      <trkpt lat="42.75688" lon="-0.09276">
        <ele>1831.8909912109</ele>
        <time>2017-05-23T11:09:21Z</time>
      </trkpt>
      <trkpt lat="42.75686" lon="-0.09266">
        <ele>1831.8669433594</ele>
        <time>2017-05-23T11:09:31Z</time>
      </trkpt>
    </trkseg>
  </trk>
</gpx>